Provisional Data: Lackawanna River near Forest City, PA


Please select a monitoring station.
Please select start date.
Please select start date.

Toggle Unit: C/F Toggle Unit: C/F
Sample Time Temperature (C) Temperature (F) Specific Conductivity (mS/cm) pH   Turbidity (NTU+) DO (mg/L)
6/22/2021 12:00:00 AM 22.42 72.356 0.095 6.53 25.82 3.26
6/22/2021 12:15:00 AM 22.39 72.302 0.095 6.5 26.73 2.96
6/22/2021 12:30:00 AM 22.41 72.338 0.095 6.55 23.02 2.91
6/22/2021 12:45:00 AM 22.46 72.42799 0.094 6.53 17.19 3.15
6/22/2021 1:00:00 AM 22.64 72.752 0.093 6.38 10.81 3.55
6/22/2021 1:15:00 AM 22.64 72.752 0.093 6.54 12.76 3.49
6/22/2021 1:30:00 AM 22.93 73.274 0.093 6.56 20.29 3.69
6/22/2021 1:45:00 AM 23.13 73.634 0.093 6.53 13.9 3.91
6/22/2021 2:00:00 AM 23.17 73.706 0.093 6.49 10.42 3.87
6/22/2021 2:15:00 AM 23.26 73.868 0.092 6.61 11.73 3.82
6/22/2021 2:30:00 AM 23.61 74.498 0.092 6.56 9.2 4.14
6/22/2021 2:45:00 AM 23.77 74.786 0.091 6.67 7.71 4.37
6/22/2021 3:00:00 AM 23.79 74.82201 0.091 6.65 7.02 4.34
6/22/2021 3:15:00 AM 23.8 74.84 0.091 6.64 7.32 4.3
6/22/2021 3:30:00 AM 23.84 74.912 0.091 6.65 6.65 4.25
6/22/2021 3:45:00 AM 23.88 74.984 0.091 6.64 6.24 4.24
6/22/2021 4:00:00 AM 23.88 74.984 0.091 6.63 16.88 4.16
6/22/2021 4:15:00 AM 23.86 74.948 0.091 6.6 23.89 4.11
6/22/2021 4:30:00 AM 23.82 74.876 0.091 6.64 6.81 4.25
6/22/2021 4:45:00 AM 23.74 74.732 0.091 6.63 6.67 4.1
6/22/2021 5:00:00 AM 23.66 74.588 0.091 6.44 6.58 4.05
6/22/2021 5:15:00 AM 23.56 74.408 0.091 6.62 5.76 3.97
6/22/2021 5:30:00 AM 23.51 74.318 0.092 6.59 5.69 3.89
6/22/2021 5:45:00 AM 23.44 74.192 0.092 6.63 10.19 3.8
6/22/2021 6:00:00 AM 23.38 74.084 0.092 6.62 5.57 3.81
6/22/2021 6:15:00 AM 23.31 73.958 0.092 6.42 5.71 3.73
6/22/2021 6:30:00 AM 23.26 73.868 0.092 6.58 5.69 3.72
6/22/2021 6:45:00 AM 23.19 73.742 0.092 6.62 5.69 3.68
6/22/2021 7:00:00 AM 23.12 73.616 0.092 6.62 5.9 3.67
6/22/2021 7:15:00 AM 23.06 73.508 0.092 6.58 6.39 3.64
6/22/2021 7:30:00 AM 23.01 73.418 0.092 6.43 6.23 3.58
6/22/2021 7:45:00 AM 22.95 73.31 0.092 6.44 5.91 3.55
6/22/2021 8:00:00 AM 22.88 73.184 0.092 6.53 5.92 3.55
6/22/2021 8:15:00 AM 22.8 73.04 0.092 6.62 5.7 3.58
6/22/2021 8:30:00 AM 22.74 72.932 0.092 6.58 5.84 3.55
6/22/2021 8:45:00 AM 22.67 72.806 0.093 6.6 5.72 3.54
6/22/2021 9:00:00 AM 22.59 72.662 0.093 6.61 6.1 3.55
6/22/2021 9:15:00 AM 22.51 72.518 0.093 6.61 5.9 3.56
6/22/2021 9:30:00 AM 22.44 72.392 0.093 6.6 5.68 3.53
6/22/2021 9:45:00 AM 22.37 72.266 0.093 6.59 5.63 3.56
6/22/2021 10:00:00 AM 22.31 72.158 0.093 6.44 6.09 3.58
6/22/2021 10:15:00 AM 22.23 72.014 0.094 6.6 5.65 3.62
6/22/2021 10:30:00 AM 22.16 71.888 0.094 6.56 6.15 3.68
6/22/2021 10:45:00 AM 22.1 71.78 0.094 6.62 6.02 3.72
6/22/2021 11:00:00 AM 22.04 71.672 0.094 6.57 5.69 3.77
6/22/2021 11:15:00 AM 21.98 71.564 0.094 6.63 5.87 3.86
6/22/2021 11:30:00 AM 21.9 71.42 0.094 6.64 5.92 3.95
6/22/2021 11:45:00 AM 21.85 71.33 0.094 6.62 6.05 4.07
6/22/2021 12:00:00 PM 21.79 71.222 0.094 6.64 6.09 4.17
6/22/2021 12:15:00 PM 21.72 71.096 0.094 6.66 5.73 4.36
6/22/2021 12:30:00 PM 21.67 71.006 0.094 6.68 5.64 4.47
6/22/2021 12:45:00 PM 21.63 70.934 0.094 6.68 5.75 4.64
6/22/2021 1:00:00 PM 21.59 70.862 0.094 6.67 5.98 4.82
6/22/2021 1:15:00 PM 21.56 70.808 0.094 6.7 5.74 5.07
6/22/2021 1:30:00 PM 21.55 70.79 0.094 6.7 5.76 5.1
6/22/2021 1:45:00 PM 21.54 70.772 0.094 6.71 5.84 5.35
6/22/2021 2:00:00 PM 21.53 70.754 0.094 6.74 5.64 5.4
6/22/2021 2:15:00 PM 21.53 70.754 0.094 6.72 5.7 5.53
6/22/2021 2:30:00 PM 21.51 70.718 0.094 6.74 5.69 5.68
6/22/2021 2:45:00 PM 21.48 70.664 0.094 6.63 5.48 5.82
6/22/2021 3:00:00 PM 21.44 70.592 0.094 6.62 5.67 5.94
6/22/2021 3:15:00 PM 21.42 70.556 0.093 6.78 5.62 6.04
6/22/2021 3:30:00 PM 21.39 70.502 0.093 6.8 5.51 6.16
6/22/2021 3:45:00 PM 21.37 70.466 0.093 6.82 5.68 6.31
6/22/2021 4:00:00 PM 21.35 70.43 0.093 6.7 5.68 6.36
6/22/2021 4:15:00 PM 21.31 70.358 0.093 6.72 5.68 6.48
6/22/2021 4:30:00 PM 21.29 70.32201 0.093 6.82 5.5 6.54
6/22/2021 4:45:00 PM 21.27 70.286 0.093 6.72 5.68 6.65
6/22/2021 5:00:00 PM 21.24 70.232 0.093 6.83 5.75 6.7
6/22/2021 5:15:00 PM 21.22 70.196 0.093 6.85 5.63 6.82
6/22/2021 5:30:00 PM 21.2 70.16 0.093 6.78 5.58 6.93
6/22/2021 5:45:00 PM 21.17 70.106 0.093 6.9 5.81 7.01
6/22/2021 6:00:00 PM 21.13 70.034 0.093 6.87 5.58 7.12
6/22/2021 6:15:00 PM 21.09 69.962 0.093 6.73 5.57 7.28
6/22/2021 6:30:00 PM 21.04 69.872 0.093 6.93 5.81 7.33
6/22/2021 6:45:00 PM 21.03 69.854 0.093 6.92 9.96 7.38
6/22/2021 7:00:00 PM 20.99 69.782 0.093 6.96 5.48 7.48
6/22/2021 7:15:00 PM 20.97 69.746 0.093 6.83 5.44 7.54
6/22/2021 7:30:00 PM 20.93 69.674 0.093 6.96 5.58 7.56
6/22/2021 7:45:00 PM 20.88 69.584 0.093 6.97 5.49 7.57
6/22/2021 8:00:00 PM 20.8 69.44 0.093 6.83 5.65 7.64
6/22/2021 8:15:00 PM 20.74 69.332 0.093 6.85 5.73 7.67
6/22/2021 8:30:00 PM 20.66 69.188 0.093 7 5.55 7.65
6/22/2021 8:45:00 PM 20.59 69.062 0.093 7.02 5.7 7.77
6/22/2021 9:00:00 PM 20.54 68.972 0.092 6.99 5.89 7.76
6/22/2021 9:15:00 PM 20.5 68.9 0.092 6.85 6.36 7.78
6/22/2021 9:30:00 PM 20.44 68.792 0.092 7.01 5.9 7.8
6/22/2021 9:45:00 PM 20.4 68.72 0.092 6.98 6.09 7.84
6/22/2021 10:00:00 PM 20.34 68.612 0.092 7.02 6.72 7.78
6/22/2021 10:15:00 PM 20.29 68.522 0.092 7.03 6.16 7.83
6/22/2021 10:30:00 PM 20.23 68.414 0.092 7.01 5.86 7.77
6/22/2021 10:45:00 PM 20.18 68.324 0.092 6.93 5.98 7.75
6/22/2021 11:00:00 PM 20.12 68.216 0.092 6.88 5.97 7.69
6/22/2021 11:15:00 PM 20.05 68.09 0.092 6.98 6.46 7.62
6/22/2021 11:30:00 PM 19.98 67.964 0.092 6.97 6.26 7.57
6/22/2021 11:45:00 PM 19.93 67.874 0.092 6.87 6.34 7.5
6/23/2021 12:00:00 AM 19.85 67.73 0.092 6.96 6.41 7.41
6/23/2021 12:15:00 AM 19.78 67.604 0.092 6.89 6.26 7.28
6/23/2021 12:30:00 AM 19.72 67.496 0.092 6.79 6.28 7.14
6/23/2021 12:45:00 AM 19.66 67.388 0.092 6.91 6.99 7.01
6/23/2021 1:00:00 AM 19.6 67.28 0.092 6.85 6.36 6.81
6/23/2021 1:15:00 AM 19.53 67.154 0.092 6.86 6.69 6.65
6/23/2021 1:30:00 AM 19.48 67.064 0.092 6.84 6.8 6.48
6/23/2021 1:45:00 AM 19.43 66.974 0.092 6.78 6.42 6.32
6/23/2021 2:00:00 AM 19.36 66.848 0.092 6.77 7.05 6.18
6/23/2021 2:15:00 AM 19.31 66.758 0.092 6.72 6.93 6.04
6/23/2021 2:30:00 AM 19.26 66.668 0.092 6.74 6.36 5.89
6/23/2021 2:45:00 AM 19.21 66.578 0.092 6.76 6.81 5.75
6/23/2021 3:00:00 AM 19.15 66.47 0.092 6.75 6.41 5.61
6/23/2021 3:15:00 AM 19.1 66.38 0.092 6.68 8.37 5.52
6/23/2021 3:30:00 AM 19.06 66.308 0.092 6.7 6.61 5.41
6/23/2021 3:45:00 AM 19.01 66.218 0.092 6.67 6.66 5.29
6/23/2021 4:00:00 AM 18.96 66.128 0.092 6.71 6.57 5.23
6/23/2021 4:15:00 AM 18.91 66.038 0.092 6.57 6.64 5.13
6/23/2021 4:30:00 AM 18.87 65.966 0.092 6.61 6.56 5.03
6/23/2021 4:45:00 AM 18.81 65.858 0.092 6.68 6.78 4.98
6/23/2021 5:00:00 AM 18.76 65.768 0.092 6.65 6.39 4.95
6/23/2021 5:15:00 AM 18.7 65.66 0.092 6.66 6.36 4.89
6/23/2021 5:30:00 AM 18.65 65.57 0.092 6.53 6.47 4.85
6/23/2021 5:45:00 AM 18.61 65.498 0.092 6.63 6.4 4.76
6/23/2021 6:00:00 AM 18.56 65.408 0.092 6.65 6.7 4.75
6/23/2021 6:15:00 AM 18.5 65.3 0.092 6.64 6.36 4.72
6/23/2021 6:30:00 AM 18.44 65.192 0.092 6.49 6.19 4.7
6/23/2021 6:45:00 AM 18.39 65.102 0.092 6.56 6.34 4.68
6/23/2021 7:00:00 AM 18.33 64.994 0.092 6.51 6.94 4.65
6/23/2021 7:15:00 AM 18.27 64.886 0.092 6.58 6.21 4.61
6/23/2021 7:30:00 AM 18.23 64.814 0.092 6.66 6.13 4.6
6/23/2021 7:45:00 AM 18.18 64.724 0.092 6.64 6.52 4.56
6/23/2021 8:00:00 AM 18.12 64.616 0.092 6.64 6.43 4.55
6/23/2021 8:15:00 AM 18.08 64.544 0.092 6.64 7.48 4.56
6/23/2021 8:30:00 AM 18.05 64.49 0.092 6.63 6.04 4.54
6/23/2021 8:45:00 AM 18.04 64.472 0.092 6.64 7.41 4.55
6/23/2021 9:00:00 AM 18.05 64.49 0.092 6.64 6.18 4.57
6/23/2021 9:15:00 AM 18.06 64.508 0.092 6.63 7.42 4.57
6/23/2021 9:30:00 AM 18.06 64.508 0.092 6.62 6.47 4.58
6/23/2021 9:45:00 AM 18.09 64.562 0.092 6.64 6.55 4.67
6/23/2021 10:00:00 AM 18.11 64.598 0.092 6.65 6.8 4.77
6/23/2021 10:15:00 AM 18.17 64.706 0.092 6.49 6.82 4.79
6/23/2021 10:30:00 AM 18.25 64.85 0.092 6.67 6.04 4.95
6/23/2021 10:45:00 AM 18.34 65.012 0.092 6.51 6.06 5.06
6/23/2021 11:00:00 AM 18.46 65.228 0.092 6.66 6.06 5.34
6/23/2021 11:15:00 AM 18.5 65.3 0.092 6.69 5.82 5.42
6/23/2021 11:30:00 AM 18.57 65.426 0.092 6.58 6.25 5.61
6/23/2021 11:45:00 AM 18.67 65.606 0.092 6.59 6.37 5.94
6/23/2021 12:00:00 PM 18.73 65.714 0.091 6.6 6.29 6.05
6/23/2021 12:15:00 PM 18.89 66.002 0.091 6.72 5.75 6.37
6/23/2021 12:30:00 PM 19.05 66.29 0.091 6.79 5.35 6.66
6/23/2021 12:45:00 PM 19.23 66.614 0.091 6.67 6.06 6.99
6/23/2021 1:00:00 PM 19.4 66.92 0.091 6.84 5.48 7.25
6/23/2021 1:15:00 PM 19.59 67.262 0.091 6.71 5.79 7.6
6/23/2021 1:30:00 PM 19.7 67.46 0.091 6.92 5.62 7.81
6/23/2021 1:45:00 PM 19.86 67.748 0.091 6.89 5.77 8.06
6/23/2021 2:00:00 PM 20.01 68.018 0.091 6.8 5.77 8.27
6/23/2021 2:15:00 PM 20.17 68.306 0.091 7.01 5.66 8.51
6/23/2021 2:30:00 PM 20.26 68.468 0.091 7.03 6.87 8.61
6/23/2021 2:45:00 PM 20.39 68.702 0.091 6.93 7.37 8.71
6/23/2021 3:00:00 PM 20.56 69.008 0.091 7.07 7.74 8.96
6/23/2021 3:15:00 PM 20.77 69.386 0.091 7.04 5.79 9.19
6/23/2021 3:30:00 PM 20.89 69.602 0.091 7.19 5.54 9.35
6/23/2021 3:45:00 PM 21.04 69.872 0.091 7.05 6.1 9.5
6/23/2021 4:00:00 PM 21.21 70.17799 0.091 7.26 6.05 9.67
6/23/2021 4:15:00 PM 21.3 70.34 0.091 7.32 5.59 9.75
6/23/2021 4:30:00 PM 21.39 70.502 0.091 7.25 5.59 9.85
6/23/2021 4:45:00 PM 21.49 70.682 0.091 7.35 5.34 9.96
6/23/2021 5:00:00 PM 21.56 70.808 0.091 7.28 5.55 10.07
6/23/2021 5:15:00 PM 21.63 70.934 0.091 7.48 5.91 10.11
6/23/2021 5:30:00 PM 21.65 70.97 0.091 7.29 5.91 10.07
6/23/2021 5:45:00 PM 21.72 71.096 0.091 7.49 5.98 10.18
6/23/2021 6:00:00 PM 21.76 71.168 0.091 7.55 5.27 10.17
6/23/2021 6:15:00 PM 21.8 71.24 0.091 7.46 5.33 10.21
6/23/2021 6:30:00 PM 21.82 71.276 0.091 7.55 5.51 10.22
6/23/2021 6:45:00 PM 21.82 71.276 0.091 7.59 5.24 10.23
6/23/2021 7:00:00 PM 21.86 71.348 0.091 7.58 5.52 10.29
6/23/2021 7:15:00 PM 21.93 71.474 0.09 7.62 8.64 10.28
6/23/2021 7:30:00 PM 21.91 71.438 0.091 7.6 5.58 10.29
6/23/2021 7:45:00 PM 21.94 71.492 0.09 7.54 5.76 10.39
6/23/2021 8:00:00 PM 21.94 71.492 0.09 7.58 5.33 10.28
6/23/2021 8:15:00 PM 21.98 71.564 0.09 7.68 5.39 10.21
6/23/2021 8:30:00 PM 22.04 71.672 0.09 7.54 5.56 10.35
6/23/2021 8:45:00 PM 22.08 71.744 0.09 7.69 5.13 10.4
6/23/2021 9:00:00 PM 22.12 71.816 0.09 7.87 6.66 10.5
6/23/2021 9:15:00 PM 22.1 71.78 0.09 7.75 6.45 10.49
6/23/2021 9:30:00 PM 22.06 71.708 0.09 7.84 6.02 10.58
6/23/2021 9:45:00 PM 22.02 71.636 0.09 7.99 6.36 10.55
6/23/2021 10:00:00 PM 21.95 71.51 0.09 7.9 5.74 10.5
6/23/2021 10:15:00 PM 21.88 71.384 0.09 7.78 5.82 10.41
6/23/2021 10:30:00 PM 21.81 71.258 0.09 7.87 5.96 10.4
6/23/2021 10:45:00 PM 21.73 71.114 0.09 7.69 5.95 10.32
6/23/2021 11:00:00 PM 21.66 70.988 0.09 7.72 5.76 10.21
6/23/2021 11:15:00 PM 21.57 70.826 0.09 7.58 5.78 10.04
6/23/2021 11:30:00 PM 21.49 70.682 0.09 7.52 6.26 9.93
6/23/2021 11:45:00 PM 21.39 70.502 0.09 7.58 5.98 9.74
6/24/2021 12:00:00 AM 21.29 70.32201 0.09 7.5 6.15 9.57
6/24/2021 12:15:00 AM 21.2 70.16 0.091 7.27 6.12 9.33
6/24/2021 12:30:00 AM 21.11 69.998 0.091 7.29 6.42 9.19
6/24/2021 12:45:00 AM 20.99 69.782 0.091 7.3 6.78 8.9
6/24/2021 1:00:00 AM 20.89 69.602 0.091 7.25 6.92 8.68
6/24/2021 1:15:00 AM 20.8 69.44 0.091 7.2 6.26 8.42
6/24/2021 1:30:00 AM 20.69 69.242 0.091 7.11 6.36 8.13
6/24/2021 1:45:00 AM 20.58 69.044 0.091 7.09 6.69 7.83
6/24/2021 2:00:00 AM 20.49 68.882 0.091 7.04 7.65 7.54
6/24/2021 2:15:00 AM 20.39 68.702 0.091 7 6.6 7.27
6/24/2021 2:30:00 AM 20.3 68.54 0.091 6.97 6.82 6.97
6/24/2021 2:45:00 AM 20.22 68.396 0.091 6.95 6.53 6.79
6/24/2021 3:00:00 AM 20.14 68.252 0.092 6.9 6.39 6.57
6/24/2021 3:15:00 AM 20.07 68.126 0.092 6.88 6.56 6.38
6/24/2021 3:30:00 AM 19.99 67.982 0.092 6.85 7.31 6.2
6/24/2021 3:45:00 AM 19.92 67.856 0.092 6.84 6.3 6.08
6/24/2021 4:00:00 AM 19.85 67.73 0.092 6.8 6.43 5.9
6/24/2021 4:15:00 AM 19.77 67.586 0.092 6.68 6.68 5.78
6/24/2021 4:30:00 AM 19.69 67.442 0.092 6.79 7.33 5.65
6/24/2021 4:45:00 AM 19.62 67.316 0.092 6.74 6.31 5.54
6/24/2021 5:00:00 AM 19.56 67.208 0.092 6.74 6.2 5.46
6/24/2021 5:15:00 AM 19.48 67.064 0.092 6.75 9.84 5.24
6/24/2021 5:30:00 AM 19.42 66.956 0.092 6.72 7.75 5.23
6/24/2021 5:45:00 AM 19.35 66.83 0.092 6.57 6.92 5.17
6/24/2021 6:00:00 AM 19.3 66.74 0.092 6.64 6.9 5.05
6/24/2021 6:15:00 AM 19.23 66.614 0.092 6.68 6.73 5
6/24/2021 6:30:00 AM 19.16 66.488 0.092 6.49 11.03 4.95
6/24/2021 6:45:00 AM 19.08 66.344 0.092 6.66 6.44 4.84
6/24/2021 7:00:00 AM 19.02 66.236 0.092 6.5 6.65 4.74
6/24/2021 7:15:00 AM 18.95 66.11 0.092 6.62 6.82 4.68
6/24/2021 7:30:00 AM 18.9 66.02 0.092 6.65 8.74 4.66
6/24/2021 7:45:00 AM 18.84 65.912 0.092 6.64 7.09 4.6
6/24/2021 8:00:00 AM 18.77 65.786 0.092 6.53 7.1 4.53
6/24/2021 8:15:00 AM 18.74 65.732 0.092 6.61 6.75 4.51
6/24/2021 8:30:00 AM 18.7 65.66 0.092 6.6 6.45 4.45
6/24/2021 8:45:00 AM 18.68 65.624 0.092 6.6 6.83 4.4
6/24/2021 9:00:00 AM 18.68 65.624 0.092 6.58 6.1 4.38
6/24/2021 9:15:00 AM 18.68 65.624 0.092 6.54 6.26 4.32
6/24/2021 9:30:00 AM 18.65 65.57 0.092 6.59 6.04 4.29
6/24/2021 9:45:00 AM 18.66 65.588 0.092 6.45 6.3 4.32
6/24/2021 10:00:00 AM 18.69 65.642 0.092 6.58 7.69 4.35
6/24/2021 10:15:00 AM 18.73 65.714 0.092 6.56 6.05 4.39
6/24/2021 10:30:00 AM 18.78 65.804 0.092 6.61 6.41 4.44
6/24/2021 10:45:00 AM 18.84 65.912 0.092 6.54 6.04 4.51
6/24/2021 11:00:00 AM 18.92 66.056 0.092 6.61 6.71 4.61
6/24/2021 11:15:00 AM 18.97 66.146 0.092 6.62 6.96 4.68
6/24/2021 11:30:00 AM 19.02 66.236 0.092 6.62 5.73 4.79
6/24/2021 11:45:00 AM 19.08 66.344 0.092 6.64 5.96 4.86
6/24/2021 12:00:00 PM 19.15 66.47 0.092 6.65 5.76 5.04
6/24/2021 12:15:00 PM 19.24 66.632 0.092 6.44 5.95 5.27
6/24/2021 12:30:00 PM 19.31 66.758 0.092 6.67 7.18 5.45
6/24/2021 12:45:00 PM 19.4 66.92 0.092 6.65 6.01 5.54
6/24/2021 1:00:00 PM 19.45 67.01 0.092 6.66 5.71 5.66
6/24/2021 1:15:00 PM 19.53 67.154 0.092 6.69 6.11 5.82
6/24/2021 1:30:00 PM 19.58 67.244 0.092 6.7 5.79 5.9
6/24/2021 1:45:00 PM 19.7 67.46 0.092 6.48 5.65 6.16
6/24/2021 2:00:00 PM 19.8 67.64 0.092 6.66 5.52 6.33
6/24/2021 2:15:00 PM 19.84 67.712 0.092 6.73 5.8 6.38
6/24/2021 2:30:00 PM 19.92 67.856 0.092 6.5 5.85 6.35
6/24/2021 2:45:00 PM 20 68 0.092 6.74 5.46 6.45
6/24/2021 3:00:00 PM 20.13 68.234 0.092 6.69 6.72 6.62
6/24/2021 3:15:00 PM 20.19 68.342 0.091 6.69 5.91 6.65
6/24/2021 3:30:00 PM 20.22 68.396 0.091 6.75 6.62 6.89
6/24/2021 3:45:00 PM 20.32 68.576 0.091 6.77 7.47 6.78
6/24/2021 4:00:00 PM 20.39 68.702 0.092 6.75 6.77 6.91
6/24/2021 4:15:00 PM 20.39 68.702 0.091 6.53 7.6 7.11
6/24/2021 4:30:00 PM 20.47 68.846 0.091 6.76 8.71 7.12
6/24/2021 4:45:00 PM 20.55 68.99 0.091 6.8 6.86 7.38
6/24/2021 5:00:00 PM 20.61 69.098 0.091 6.79 6.63 7.44
6/24/2021 5:15:00 PM 20.7 69.26 0.091 6.75 6.31 7.7
6/24/2021 5:30:00 PM 20.77 69.386 0.091 6.68 7.39 7.87
6/24/2021 5:45:00 PM 20.79 69.422 0.091 6.84 6.73 7.91
6/24/2021 6:00:00 PM 20.76 69.368 0.091 6.82 6.16 7.69
6/24/2021 6:15:00 PM 20.94 69.692 0.091 6.84 6.7 7.98
6/24/2021 6:30:00 PM 20.94 69.692 0.091 6.85 7.11 7.96
6/24/2021 6:45:00 PM 20.91 69.638 0.091 6.78 7.07 7.82
6/24/2021 7:00:00 PM 21.03 69.854 0.091 6.82 6.47 7.99
6/24/2021 7:15:00 PM 21.16 70.088 0.091 6.9 5.98 8.29
6/24/2021 7:30:00 PM 21.19 70.142 0.091 6.88 6.93 8.25
6/24/2021 7:45:00 PM 21.28 70.304 0.091 6.72 6.55 8.31
6/24/2021 8:00:00 PM 21.36 70.448 0.091 6.79 7.23 8.29
6/24/2021 8:15:00 PM 21.32 70.376 0.091 6.89 6.73 8.17
6/24/2021 8:30:00 PM 21.43 70.574 0.091 6.91 5.69 8.2
6/24/2021 8:45:00 PM 21.46 70.628 0.091 6.9 6.6 8.11
6/24/2021 9:00:00 PM 21.67 71.006 0.091 6.95 8.51 8.42
6/24/2021 9:15:00 PM 21.83 71.294 0.091 6.97 7.28 8.77
6/24/2021 9:30:00 PM 21.96 71.528 0.091 7.02 8.01 8.84
6/24/2021 9:45:00 PM 21.99 71.582 0.091 7 9.93 8.93
6/24/2021 10:00:00 PM 22.4 72.32 0.09 7.16 39.39 9.31
6/24/2021 10:15:00 PM 22.23 72.014 0.091 7.12 13.33 9.19
6/24/2021 10:30:00 PM 22.45 72.41 0.091 7.34 11.03 9.57
6/24/2021 10:45:00 PM 22.84 73.112 0.09 7.93 6.5 10.62
6/24/2021 11:00:00 PM 22.79 73.022 0.091 7.9 6.16 10.5
6/24/2021 11:15:00 PM 22.71 72.878 0.091 7.9 6.53 10.52
6/24/2021 11:30:00 PM 22.75 72.95 0.089 7.53 86.53 10.41
6/24/2021 11:45:00 PM 22.59 72.662 0.09 7.92 9.66 10.44
6/25/2021 12:00:00 AM 22.5 72.5 0.091 7.86 8.36 10.27
6/25/2021 12:15:00 AM 22.44 72.392 0.09 7.71 119.42 10.2
6/25/2021 12:30:00 AM 22.31 72.158 0.09 7.64 33.14 9.96
6/25/2021 12:45:00 AM 22.2 71.96 0.091 7.79 6.04 10.01
6/25/2021 1:00:00 AM 22.08 71.744 0.091 7.72 6.21 9.95
6/25/2021 1:15:00 AM 21.95 71.51 0.091 7.63 53.94 9.8
6/25/2021 1:30:00 AM 21.83 71.294 0.091 7.51 7.71 9.49
6/25/2021 1:45:00 AM 21.69 71.042 0.092 7.45 6.14 9.26
6/25/2021 2:00:00 AM 21.57 70.826 0.092 7.39 10.31 9.09
6/25/2021 2:15:00 AM 21.45 70.61 0.092 7.32 6.67 8.86
6/25/2021 2:30:00 AM 21.32 70.376 0.092 7.24 6.75 8.59
6/25/2021 2:45:00 AM 21.2 70.16 0.092 7.2 8.42 8.36
6/25/2021 3:00:00 AM 21.08 69.944 0.092 7.14 8.27 8.1
6/25/2021 3:15:00 AM 20.95 69.71 0.092 7.1 13.93 7.83
6/25/2021 3:30:00 AM 20.83 69.494 0.092 7.07 6.33 7.55
6/25/2021 3:45:00 AM 20.72 69.296 0.092 7.02 7.21 7.27
6/25/2021 4:00:00 AM 20.6 69.08 0.093 6.97 6.59 7.05
6/25/2021 4:15:00 AM 20.5 68.9 0.093 6.91 23.29 6.7
6/25/2021 4:30:00 AM 20.39 68.702 0.093 6.86 7.08 6.47
6/25/2021 4:45:00 AM 20.3 68.54 0.093 6.89 8.95 6.27
6/25/2021 5:00:00 AM 20.23 68.414 0.093 6.8 69.5 6.01
6/25/2021 5:15:00 AM 20.12 68.216 0.093 6.75 16.71 5.87
6/25/2021 5:30:00 AM 20.01 68.018 0.093 6.81 8.83 5.74
6/25/2021 5:45:00 AM 19.91 67.838 0.093 6.69 7.06 5.66
6/25/2021 6:00:00 AM 19.83 67.694 0.093 6.77 7.5 5.5
6/25/2021 6:15:00 AM 19.73 67.514 0.093 6.62 6.63 5.36
6/25/2021 6:30:00 AM 19.64 67.352 0.093 6.53 7.16 5.28
6/25/2021 6:45:00 AM 19.55 67.19 0.093 6.72 9.14 5.13
6/25/2021 7:00:00 AM 19.46 67.028 0.093 6.64 13.61 5.04
6/25/2021 7:15:00 AM 19.37 66.866 0.093 6.52 7.31 4.97
6/25/2021 7:30:00 AM 19.28 66.704 0.093 6.63 7.32 4.89
6/25/2021 7:45:00 AM 19.22 66.596 0.093 6.6 6.5 4.8
6/25/2021 8:00:00 AM 19.14 66.452 0.093 6.67 6.4 4.75
6/25/2021 8:15:00 AM 19.08 66.344 0.093 6.57 10.09 4.67
6/25/2021 8:30:00 AM 19.02 66.236 0.093 6.65 12.87 4.64
6/25/2021 8:45:00 AM 18.96 66.128 0.093 6.59 7.82 4.51
6/25/2021 9:00:00 AM 18.92 66.056 0.093 6.67 8.63 4.39
6/25/2021 9:15:00 AM 18.88 65.984 0.093 6.65 8.5 4.45
6/25/2021 9:30:00 AM 18.83 65.894 0.093 6.64 8.25 4.42
6/25/2021 9:45:00 AM 18.79 65.82201 0.093 6.64 7.69 4.39
6/25/2021 10:00:00 AM 18.78 65.804 0.093 6.62 7.82 4.37
6/25/2021 10:15:00 AM 18.77 65.786 0.093 6.64 8.56 4.33
6/25/2021 10:30:00 AM 18.8 65.84 0.093 6.62 11.38 4.36
6/25/2021 10:45:00 AM 18.82 65.876 0.093 6.63 9.19 4.19
6/25/2021 11:00:00 AM 18.87 65.966 0.093 6.59 10.08 4.29
6/25/2021 11:15:00 AM 18.92 66.056 0.093 6.64 10.03 4.38
6/25/2021 11:30:00 AM 18.98 66.164 0.093 6.64 11.9 4.5
6/25/2021 11:45:00 AM 19.03 66.254 0.093 6.65 13.16 4.67
6/25/2021 12:00:00 PM 19.09 66.362 0.093 6.63 14.15 4.79
6/25/2021 12:15:00 PM 19.14 66.452 0.093 6.64 11.67 4.97
6/25/2021 12:30:00 PM 19.22 66.596 0.092 6.58 14.89 5.09
6/25/2021 12:45:00 PM 19.28 66.704 0.092 6.68 13.39 5.14
6/25/2021 1:00:00 PM 19.33 66.794 0.092 6.53 12.5 5.28
6/25/2021 1:15:00 PM 19.41 66.938 0.092 6.55 11.14 5.54
6/25/2021 1:30:00 PM 19.45 67.01 0.092 6.7 14.02 5.65
6/25/2021 1:45:00 PM 19.53 67.154 0.092 6.56 14.36 5.88
6/25/2021 2:00:00 PM 19.6 67.28 0.092 6.51 14.2 5.99
6/25/2021 2:15:00 PM 19.69 67.442 0.092 6.73 12.53 6.15
6/25/2021 2:30:00 PM 19.73 67.514 0.092 6.7 15.04 6.14
6/25/2021 2:45:00 PM 19.8 67.64 0.092 6.74 13.45 6.24
6/25/2021 3:00:00 PM 19.83 67.694 0.092 6.76 13.53 6.3
6/25/2021 3:15:00 PM 19.88 67.784 0.092 6.76 15.28 6.34
6/25/2021 3:30:00 PM 19.88 67.784 0.092 6.58 16.48 6.31
6/25/2021 3:45:00 PM 19.92 67.856 0.092 6.72 14.88 6.38
6/25/2021 4:00:00 PM 19.96 67.92799 0.092 6.75 16.16 6.37
6/25/2021 4:15:00 PM 19.95 67.91 0.092 6.77 15.47 6.53
6/25/2021 4:30:00 PM 19.97 67.946 0.092 6.65 14.6 6.48
6/25/2021 4:45:00 PM 19.96 67.92799 0.092 6.76 15.12 6.62
6/25/2021 5:00:00 PM 20.05 68.09 0.092 6.69 14.28 6.77
6/25/2021 5:15:00 PM 20.15 68.27 0.092 6.79 14.74 6.88
6/25/2021 5:30:00 PM 20.15 68.27 0.092 6.8 13.73 6.89
6/25/2021 5:45:00 PM 20.09 68.162 0.092 6.8 16.39 6.98
6/25/2021 6:00:00 PM 20.12 68.216 0.092 6.8 13.39 6.81
6/25/2021 6:15:00 PM 20.11 68.198 0.092 6.79 15.14 6.66
6/25/2021 6:30:00 PM 20.19 68.342 0.092 6.54 14.82 7.06
6/25/2021 6:45:00 PM 20.26 68.468 0.092 6.82 15.33 7.15
6/25/2021 7:00:00 PM 20.23 68.414 0.092 6.76 16.47 6.39
6/25/2021 7:15:00 PM 20.29 68.522 0.092 6.71 13.82 6.96
6/25/2021 7:30:00 PM 20.32 68.576 0.092 6.53 13.29 6.97
6/25/2021 7:45:00 PM 20.3 68.54 0.092 6.78 14.46 7.23
6/25/2021 8:00:00 PM 20.34 68.612 0.092 6.81 14.22 7.29
6/25/2021 8:15:00 PM 20.29 68.522 0.092 6.81 15.41 6.97
6/25/2021 8:30:00 PM 20.33 68.594 0.092 6.83 12.08 7.05
6/25/2021 8:45:00 PM 20.34 68.612 0.092 6.83 13.97 7.27
6/25/2021 9:00:00 PM 20.35 68.63 0.092 6.82 14.11 7.42
6/25/2021 9:15:00 PM 20.32 68.576 0.092 6.81 14.24 7.43
6/25/2021 9:30:00 PM 20.33 68.594 0.092 6.79 10.03 7.11
6/25/2021 9:45:00 PM 20.38 68.684 0.092 6.8 9.22 7.24
6/25/2021 10:00:00 PM 20.39 68.702 0.092 6.57 9.62 7.18
6/25/2021 10:15:00 PM 20.39 68.702 0.092 6.8 8.81 7.11
6/25/2021 10:30:00 PM 20.42 68.756 0.092 6.59 9.9 7.13
6/25/2021 10:45:00 PM 20.42 68.756 0.092 6.78 8.13 6.94
6/25/2021 11:00:00 PM 20.41 68.738 0.092 6.77 8.76 7
6/25/2021 11:15:00 PM 20.41 68.738 0.092 6.69 7.64 6.78
6/25/2021 11:30:00 PM 20.44 68.792 0.092 6.79 7.16 6.98
6/25/2021 11:45:00 PM 20.45 68.81 0.092 6.8 8.47 6.98
6/26/2021 12:00:00 AM 20.58 69.044 0.091 6.83 8.39 7.38
6/26/2021 12:15:00 AM 20.53 68.954 0.091 6.8 7.41 7.21
6/26/2021 12:30:00 AM 20.54 68.972 0.092 6.57 9.67 7.01
6/26/2021 12:45:00 AM 20.75 69.35 0.092 6.81 12.82 7.34
6/26/2021 1:00:00 AM 20.88 69.584 0.092 6.82 13.44 7.44
6/26/2021 1:15:00 AM 20.97 69.746 0.092 6.66 13.32 7.68
6/26/2021 1:30:00 AM 21.16 70.088 0.092 6.9 11.55 7.83
6/26/2021 1:45:00 AM 21.17 70.106 0.092 6.89 12.07 7.79
6/26/2021 2:00:00 AM 21.39 70.502 0.092 6.73 21.02 7.91
6/26/2021 2:15:00 AM 21.48 70.664 0.092 6.96 27.16 8.04
6/26/2021 2:30:00 AM 21.44 70.592 0.092 6.78 47.08 7.96
6/26/2021 2:45:00 AM 21.38 70.484 0.092 6.96 16.57 7.83
6/26/2021 3:00:00 AM 21.35 70.43 0.092 6.95 8.3 7.88
6/26/2021 3:15:00 AM 21.26 70.268 0.092 6.93 7.84 7.63
6/26/2021 3:30:00 AM 21.2 70.16 0.093 6.91 7.79 7.52
6/26/2021 3:45:00 AM 21.12 70.016 0.093 6.89 25.91 7.18
6/26/2021 4:00:00 AM 21.03 69.854 0.093 6.79 7.82 7.14
6/26/2021 4:15:00 AM 21 69.8 0.093 6.82 30.58 7.03
6/26/2021 4:30:00 AM 20.94 69.692 0.093 6.71 21.61 6.93
6/26/2021 4:45:00 AM 20.88 69.584 0.093 6.83 33.09 6.75
6/26/2021 5:00:00 AM 20.8 69.44 0.093 6.84 12.2 6.61
6/26/2021 5:15:00 AM 20.73 69.314 0.093 6.61 11.79 6.44
6/26/2021 5:30:00 AM 20.67 69.206 0.093 6.6 22.95 6.34
6/26/2021 5:45:00 AM 20.59 69.062 0.093 6.65 10.65 6.12
6/26/2021 6:00:00 AM 20.53 68.954 0.093 6.78 8.44 6
6/26/2021 6:15:00 AM 20.49 68.882 0.093 6.76 9.84 5.93
6/26/2021 6:30:00 AM 20.41 68.738 0.094 6.73 32.96 5.65
6/26/2021 6:45:00 AM 20.35 68.63 0.093 6.66 13.12 5.43
6/26/2021 7:00:00 AM 20.3 68.54 0.094 6.71 14.68 5.29
6/26/2021 7:15:00 AM 20.25 68.45 0.094 6.68 10.14 5.1
6/26/2021 7:30:00 AM 20.2 68.36 0.094 6.69 9.63 4.97
6/26/2021 7:45:00 AM 20.17 68.306 0.094 6.46 9.76 4.77
6/26/2021 8:00:00 AM 20.13 68.234 0.094 6.67 9.91 4.64
6/26/2021 8:15:00 AM 20.1 68.18 0.094 6.44 10.12 4.56
6/26/2021 8:30:00 AM 20.08 68.144 0.094 6.66 11.82 4.45
6/26/2021 8:45:00 AM 20.05 68.09 0.094 6.51 9.82 4.36
6/26/2021 9:00:00 AM 20.04 68.07201 0.094 6.55 9.92 4.26
6/26/2021 9:15:00 AM 20.03 68.054 0.094 6.62 10.29 4.21
6/26/2021 9:30:00 AM 20.02 68.036 0.094 6.49 11.28 4.11
6/26/2021 9:45:00 AM 20.01 68.018 0.094 6.6 9.91 4.08
6/26/2021 10:00:00 AM 20.01 68.018 0.094 6.6 13.98 3.97
6/26/2021 10:15:00 AM 20.01 68.018 0.094 6.6 8.96 3.95
6/26/2021 10:30:00 AM 20.01 68.018 0.094 6.6 9.9 3.91
6/26/2021 10:45:00 AM 20.02 68.036 0.094 6.59 9.38 3.87
6/26/2021 11:00:00 AM 20.02 68.036 0.094 6.6 9.18 3.82
6/26/2021 11:15:00 AM 20.04 68.07201 0.094 6.59 11.69 3.75
6/26/2021 11:30:00 AM 20.09 68.162 0.094 6.57 10.75 3.79
6/26/2021 11:45:00 AM 20.1 68.18 0.094 6.56 12.61 3.8
6/26/2021 12:00:00 PM 20.11 68.198 0.094 6.58 14.09 3.74
6/26/2021 12:15:00 PM 20.14 68.252 0.094 6.57 15.19 3.74
6/26/2021 12:30:00 PM 20.18 68.324 0.094 6.58 12.76 3.79
6/26/2021 12:45:00 PM 20.21 68.378 0.094 6.58 17.75 3.76
6/26/2021 1:00:00 PM 20.26 68.468 0.094 6.58 13.23 3.78
6/26/2021 1:15:00 PM 20.32 68.576 0.094 6.57 13.78 3.84
6/26/2021 1:30:00 PM 20.37 68.666 0.094 6.59 12.77 3.8
6/26/2021 1:45:00 PM 20.45 68.81 0.094 6.59 13.24 3.91
6/26/2021 2:00:00 PM 20.47 68.846 0.094 6.58 13.44 3.98
6/26/2021 2:15:00 PM 20.52 68.936 0.094 6.58 11.71 4.02
6/26/2021 2:30:00 PM 20.62 69.116 0.094 6.57 12.59 4.09
6/26/2021 2:45:00 PM 20.61 69.098 0.094 6.6 12 4.11
6/26/2021 3:00:00 PM 20.61 69.098 0.094 6.61 11.77 4.09
6/26/2021 3:15:00 PM 20.63 69.134 0.094 6.61 15.81 4.09
6/26/2021 3:30:00 PM 20.67 69.206 0.094 6.32 19.57 4.13
6/26/2021 3:45:00 PM 20.72 69.296 0.094 6.59 14.7 4.18
6/26/2021 4:00:00 PM 20.72 69.296 0.094 6.54 16.23 4.03
6/26/2021 4:15:00 PM 20.73 69.314 0.094 6.59 18.55 4.02
6/26/2021 4:30:00 PM 20.74 69.332 0.094 6.59 17.56 4.14
6/26/2021 4:45:00 PM 20.78 69.404 0.094 6.6 16.31 4.14
6/26/2021 5:00:00 PM 20.7 69.26 0.094 6.59 16.54 4.23
6/26/2021 5:15:00 PM 20.71 69.278 0.094 6.59 17.89 4.02
6/26/2021 5:30:00 PM 20.7 69.26 0.094 6.43 15.01 4.29
6/26/2021 5:45:00 PM 20.72 69.296 0.094 6.59 15.93 4.28
6/26/2021 6:00:00 PM 20.74 69.332 0.094 6.59 15.53 3.94
6/26/2021 6:15:00 PM 20.72 69.296 0.094 6.6 16.54 4.29
6/26/2021 6:30:00 PM 20.73 69.314 0.094 6.59 15.37 4.15
6/26/2021 6:45:00 PM 20.78 69.404 0.094 6.51 15.82 4.31
6/26/2021 7:00:00 PM 20.85 69.53 0.094 6.44 15.36 4.29
6/26/2021 7:15:00 PM 20.82 69.476 0.094 6.44 14.52 4.26
6/26/2021 7:30:00 PM 20.81 69.458 0.094 6.42 15.23 4.22
6/26/2021 7:45:00 PM 20.83 69.494 0.094 6.46 16.63 4.44
6/26/2021 8:00:00 PM 20.81 69.458 0.095 6.58 16.59 4.02
6/26/2021 8:15:00 PM 20.84 69.512 0.094 6.37 22.65 4
6/26/2021 8:30:00 PM 20.88 69.584 0.094 6.54 21.18 4.36
6/26/2021 8:45:00 PM 20.83 69.494 0.094 6.4 18.04 4.08
6/26/2021 9:00:00 PM 20.81 69.458 0.095 6.38 19.45 3.97
6/26/2021 9:15:00 PM 20.89 69.602 0.094 6.46 18.69 4.35
6/26/2021 9:30:00 PM 20.84 69.512 0.095 6.48 16.63 4.08
6/26/2021 9:45:00 PM 20.85 69.53 0.094 6.45 18.07 3.96
6/26/2021 10:00:00 PM 20.87 69.566 0.095 6.43 21.09 3.88
6/26/2021 10:15:00 PM 20.81 69.458 0.094 6.37 18.48 4.18
6/26/2021 10:30:00 PM 20.85 69.53 0.094 6.58 16.4 3.92
6/26/2021 10:45:00 PM 20.86 69.548 0.095 6.59 17.99 3.82
6/26/2021 11:00:00 PM 20.88 69.584 0.094 6.55 15.59 4.12
6/26/2021 11:15:00 PM 20.86 69.548 0.095 6.61 12.7 3.85
6/26/2021 11:30:00 PM 20.88 69.584 0.094 6.61 17.86 3.95
6/26/2021 11:45:00 PM 20.97 69.746 0.094 6.62 12.87 4
6/27/2021 12:00:00 AM 20.95 69.71 0.094 6.56 15.86 3.94
6/27/2021 12:15:00 AM 20.94 69.692 0.094 6.58 18.16 4.07
6/27/2021 12:30:00 AM 20.93 69.674 0.095 6.58 17.04 4.07
6/27/2021 12:45:00 AM 20.93 69.674 0.095 6.53 18.2 3.98
6/27/2021 1:00:00 AM 20.95 69.71 0.094 6.6 17.99 4.01
6/27/2021 1:15:00 AM 20.95 69.71 0.094 6.6 16.53 4.14
6/27/2021 1:30:00 AM 21.06 69.908 0.094 6.52 22.68 3.92
6/27/2021 1:45:00 AM 21.01 69.818 0.094 6.31 29.66 3.86
6/27/2021 2:00:00 AM 21.08 69.944 0.094 6.35 26.67 4.15
6/27/2021 2:15:00 AM 20.94 69.692 0.094 6.42 31.59 3.92
6/27/2021 2:30:00 AM 21.01 69.818 0.094 6.54 29.69 3.84
6/27/2021 2:45:00 AM 21.2 70.16 0.094 6.47 32.92 4.12
6/27/2021 3:00:00 AM 21.17 70.106 0.094 6.59 36.86 4.13
6/27/2021 3:15:00 AM 21.18 70.124 0.094 6.58 37.45 3.99
6/27/2021 3:30:00 AM 21.23 70.214 0.094 6.61 42.08 3.9
6/27/2021 3:45:00 AM 21.17 70.106 0.094 6.52 56.33 3.91
6/27/2021 4:00:00 AM 21.18 70.124 0.094 6.56 43 3.58
6/27/2021 4:15:00 AM 21.15 70.07 0.094 6.56 43.53 3.49
6/27/2021 4:30:00 AM 21.39 70.502 0.094 6.59 35.58 3.98
6/27/2021 4:45:00 AM 21.4 70.52 0.095 6.34 39.72 3.72
6/27/2021 5:00:00 AM 21.31 70.358 0.094 6.58 49.46 3.97
6/27/2021 5:15:00 AM 21.54 70.772 0.095 6.59 50.06 3.94
6/27/2021 5:30:00 AM 21.58 70.844 0.095 6.59 59.99 3.75
6/27/2021 5:45:00 AM 21.58 70.844 0.095 6.59 37.93 3.8
6/27/2021 6:00:00 AM 21.63 70.934 0.095 6.49 27.22 3.95
6/27/2021 6:15:00 AM 21.64 70.952 0.095 6.57 25.97 3.85
6/27/2021 6:30:00 AM 21.69 71.042 0.095 6.61 31.11 3.92
6/27/2021 6:45:00 AM 21.72 71.096 0.095 6.6 28.58 3.93
6/27/2021 7:00:00 AM 21.75 71.15 0.095 6.61 27.08 3.87
6/27/2021 7:15:00 AM 21.78 71.204 0.095 6.58 28.45 3.86
6/27/2021 7:30:00 AM 21.79 71.222 0.095 6.6 30.38 3.78
6/27/2021 7:45:00 AM 21.8 71.24 0.095 6.59 20.44 3.66
6/27/2021 8:00:00 AM 21.82 71.276 0.095 6.56 22.09 3.69
6/27/2021 8:15:00 AM 21.82 71.276 0.095 6.6 19.44 3.72
6/27/2021 8:30:00 AM 21.82 71.276 0.095 6.35 20.71 3.68
6/27/2021 8:45:00 AM 21.82 71.276 0.095 6.38 18.45 3.65
6/27/2021 9:00:00 AM 21.83 71.294 0.095 6.35 17.56 3.62
6/27/2021 9:15:00 AM 21.83 71.294 0.095 6.38 18.87 3.45
6/27/2021 9:30:00 AM 21.84 71.312 0.095 6.42 21.89 3.47
6/27/2021 9:45:00 AM 21.85 71.33 0.095 6.38 20.63 3.51
6/27/2021 10:00:00 AM 21.86 71.348 0.096 6.36 24.35 3.49
6/27/2021 10:15:00 AM 21.88 71.384 0.096 6.37 23.52 3.44
6/27/2021 10:30:00 AM 21.91 71.438 0.096 6.37 21.78 3.4
6/27/2021 10:45:00 AM 21.93 71.474 0.096 6.59 23.61 3.37
6/27/2021 11:00:00 AM 21.94 71.492 0.096 6.59 22.24 3.38
6/27/2021 11:15:00 AM 21.97 71.546 0.096 6.56 22.9 3.29
6/27/2021 11:30:00 AM 21.99 71.582 0.096 6.48 22.09 3.34
6/27/2021 11:45:00 AM 22.01 71.618 0.096 6.56 22.24 3.3
6/27/2021 12:00:00 PM 22.02 71.636 0.096 6.47 20.35 3.22
6/27/2021 12:15:00 PM 22.06 71.708 0.096 6.45 24.36 3.25
6/27/2021 12:30:00 PM 22.08 71.744 0.096 6.55 21.92 3.29
6/27/2021 12:45:00 PM 22.1 71.78 0.096 6.37 25.48 3.27
6/27/2021 1:00:00 PM 22.12 71.816 0.096 6.59 25.6 3.36
6/27/2021 1:15:00 PM 22.14 71.852 0.096 6.58 25.02 3.29
6/27/2021 1:30:00 PM 22.2 71.96 0.096 6.57 24.01 3.4
6/27/2021 1:45:00 PM 22.24 72.032 0.096 6.39 22.82 3.47
6/27/2021 2:00:00 PM 22.28 72.104 0.096 6.57 22.26 3.57
6/27/2021 2:15:00 PM 22.33 72.194 0.096 6.34 21.53 3.53
6/27/2021 2:30:00 PM 22.44 72.392 0.096 6.52 21.72 3.62
6/27/2021 2:45:00 PM 22.38 72.284 0.096 6.35 22.25 3.81
6/27/2021 3:00:00 PM 22.54 72.57201 0.096 6.43 22.56 3.75
6/27/2021 3:15:00 PM 22.57 72.626 0.096 6.57 20.83 3.66
6/27/2021 3:30:00 PM 22.47 72.446 0.096 6.58 21 3.82
6/27/2021 3:45:00 PM 22.46 72.42799 0.096 6.51 21.68 3.58
6/27/2021 4:00:00 PM 22.49 72.482 0.096 6.54 25.13 3.56
6/27/2021 4:15:00 PM 22.44 72.392 0.096 6.41 21.66 3.5
6/27/2021 4:30:00 PM 22.39 72.302 0.096 6.38 22.82 3.57
6/27/2021 4:45:00 PM 22.41 72.338 0.096 6.35 22.14 3.34
6/27/2021 5:00:00 PM 22.42 72.356 0.096 6.33 22.68 3.43
6/27/2021 5:15:00 PM 22.45 72.41 0.096 6.48 22.36 3.48
6/27/2021 5:30:00 PM 22.41 72.338 0.096 6.36 23.06 3.33
6/27/2021 5:45:00 PM 22.37 72.266 0.096 6.56 24.09 3.35
6/27/2021 6:00:00 PM 22.41 72.338 0.096 6.56 22.25 3.28
6/27/2021 6:15:00 PM 22.43 72.374 0.096 6.55 20.59 3.33
6/27/2021 6:30:00 PM 22.39 72.302 0.096 6.58 20.99 3.25
6/27/2021 6:45:00 PM 22.43 72.374 0.096 6.56 22.67 3.41
6/27/2021 7:00:00 PM 22.36 72.248 0.097 6.58 21.32 3.23
6/27/2021 7:15:00 PM 22.41 72.338 0.096 6.56 21.03 3.26
6/27/2021 7:30:00 PM 22.43 72.374 0.096 6.56 22.31 3.27
6/27/2021 7:45:00 PM 22.39 72.302 0.097 6.58 24.93 3.05
6/27/2021 8:00:00 PM 22.4 72.32 0.097 6.53 24.75 2.73
6/27/2021 8:15:00 PM 22.43 72.374 0.096 6.54 21.48 2.9
6/27/2021 8:30:00 PM 22.42 72.356 0.097 6.3 20.57 2.83
6/27/2021 8:45:00 PM 22.4 72.32 0.097 6.52 21.64 2.87
6/27/2021 9:00:00 PM 22.43 72.374 0.097 6.33 22.48 2.99
6/27/2021 9:15:00 PM 22.45 72.41 0.097 6.34 21.6 2.96
6/27/2021 9:30:00 PM 22.34 72.212 0.097 6.31 25.41 3.05
6/27/2021 9:45:00 PM 22.39 72.302 0.097 6.55 24.71 3.15
6/27/2021 10:00:00 PM 22.47 72.446 0.096 6.54 24.89 3.11
6/27/2021 10:15:00 PM 22.4 72.32 0.097 6.32 22.75 2.96
6/27/2021 10:30:00 PM 22.43 72.374 0.097 6.39 20.98 2.79
6/27/2021 10:45:00 PM 22.42 72.356 0.097 6.54 23.6 2.63
6/27/2021 11:00:00 PM 22.39 72.302 0.097 6.36 20.79 2.62
6/27/2021 11:15:00 PM 22.42 72.356 0.097 6.32 22.84 2.47
6/27/2021 11:30:00 PM 22.39 72.302 0.097 6.51 21.31 2.67
6/27/2021 11:45:00 PM 22.17 71.906 0.098 6.52 23.44 2.42
6/28/2021 12:00:00 AM 22.37 72.266 0.098 6.54 25.5 2.7
6/28/2021 12:15:00 AM 22.42 72.356 0.097 6.53 24.53 2.7
6/28/2021 12:30:00 AM 22.4 72.32 0.097 6.51 22.96 2.69
6/28/2021 12:45:00 AM 22.34 72.212 0.097 6.36 26.41 2.63
6/28/2021 1:00:00 AM 22.45 72.41 0.097 6.41 31.49 2.73
6/28/2021 1:15:00 AM 22.43 72.374 0.097 6.53 36 2.87
6/28/2021 1:30:00 AM 22.36 72.248 0.097 6.48 36.63 2.71
6/28/2021 1:45:00 AM 22.44 72.392 0.097 6.54 32.51 2.61
6/28/2021 2:00:00 AM 22.46 72.42799 0.097 6.46 38 2.63
6/28/2021 2:15:00 AM 22.38 72.284 0.097 6.49 48.17 2.63
6/28/2021 2:30:00 AM 22.41 72.338 0.097 6.26 44.5 2.49
6/28/2021 2:45:00 AM 22.37 72.266 0.098 6.49 47.18 2.31
6/28/2021 3:00:00 AM 22.36 72.248 0.097 6.39 43.03 2.29
6/28/2021 3:15:00 AM 22.39 72.302 0.097 6.51 38.25 2.32
6/28/2021 3:30:00 AM 22.34 72.212 0.097 6.5 44.02 2.19
6/28/2021 3:45:00 AM 22.36 72.248 0.097 6.5 39.57 2.22
6/28/2021 4:00:00 AM 22.36 72.248 0.097 6.5 44.34 2.29
6/28/2021 4:15:00 AM 22.4 72.32 0.096 6.5 41.19 2.28
6/28/2021 4:30:00 AM 22.4 72.32 0.096 6.51 47.8 2.63
6/28/2021 4:45:00 AM 22.33 72.194 0.096 6.48 48.32 2.29
6/28/2021 5:00:00 AM 22.35 72.23 0.097 6.48 39.98 2.12
6/28/2021 5:15:00 AM 22.37 72.266 0.097 6.48 39.68 2.23
6/28/2021 5:30:00 AM 22.37 72.266 0.097 6.48 35.9 2.13
6/28/2021 5:45:00 AM 22.43 72.374 0.097 6.49 38.7 2.23
6/28/2021 6:00:00 AM 22.37 72.266 0.097 6.22 34.64 2.01
6/28/2021 6:15:00 AM 22.46 72.42799 0.096 6.33 32.92 2.42
6/28/2021 6:30:00 AM 22.41 72.338 0.097 6.5 32.34 2.12
6/28/2021 6:45:00 AM 22.39 72.302 0.098 6.37 32.01 1.83
6/28/2021 7:00:00 AM 22.36 72.248 0.098 6.48 31.44 1.72
6/28/2021 7:15:00 AM 22.31 72.158 0.098 6.39 34.26 1.63
6/28/2021 7:30:00 AM 22.31 72.158 0.097 6.37 32 1.74
6/28/2021 7:45:00 AM 22.31 72.158 0.097 6.38 29.47 1.76
6/28/2021 8:00:00 AM 22.29 72.122 0.098 6.42 31.6 1.73
6/28/2021 8:15:00 AM 22.35 72.23 0.097 6.35 28.98 1.87
6/28/2021 8:30:00 AM 22.37 72.266 0.097 6.48 29.83 1.75
6/28/2021 8:45:00 AM 22.4 72.32 0.096 6.49 24.93 2.23
6/28/2021 9:00:00 AM 22.39 72.302 0.097 6.44 23.2 2.03
6/28/2021 9:15:00 AM 22.45 72.41 0.096 6.34 22.43 2.42
6/28/2021 9:30:00 AM 22.46 72.42799 0.096 6.51 22.45 2.39
6/28/2021 9:45:00 AM 22.48 72.464 0.096 6.34 22.91 2.39
6/28/2021 10:00:00 AM 22.53 72.554 0.096 6.26 21.9 2.42
6/28/2021 10:15:00 AM 22.58 72.644 0.096 6.5 21.02 2.5
6/28/2021 10:30:00 AM 22.61 72.698 0.096 6.52 21.85 2.36
6/28/2021 10:45:00 AM 22.85 73.13 0.096 6.51 22.03 2.8
6/28/2021 11:00:00 AM 22.96 73.328 0.096 6.48 23.08 2.63
6/28/2021 11:15:00 AM 22.73 72.914 0.097 6.51 26.25 2.64
6/28/2021 11:30:00 AM 22.94 73.292 0.096 6.53 21.32 2.82
6/28/2021 11:45:00 AM 23.04 73.472 0.096 6.45 24.59 2.84
6/28/2021 12:00:00 PM 23.18 73.724 0.097 6.54 21.94 2.77
6/28/2021 12:15:00 PM 23.33 73.994 0.096 6.51 22.05 2.78
6/28/2021 12:30:00 PM 23.34 74.012 0.097 6.41 23.72 2.68
6/28/2021 12:45:00 PM 23.36 74.048 0.097 6.27 27.58 2.75
6/28/2021 1:00:00 PM 23.52 74.336 0.097 6.28 23.44 2.73
6/28/2021 1:15:00 PM 23.48 74.264 0.097 6.54 26.55 2.88
6/28/2021 1:30:00 PM 23.39 74.102 0.097 6.53 27.45 3.03
6/28/2021 1:45:00 PM 23.27 73.886 0.097 6.54 24.87 3.21
6/28/2021 2:00:00 PM 23.02 73.436 0.097 6.55 27.87 3.5
6/28/2021 2:15:00 PM 23.36 74.048 0.097 6.32 35.54 3.23
6/28/2021 2:30:00 PM 23.49 74.282 0.097 6.47 21.57 3.32
6/28/2021 2:45:00 PM 23.56 74.408 0.097 6.52 21.36 2.97
6/28/2021 3:00:00 PM 23.34 74.012 0.098 6.56 24.15 3.36
6/28/2021 3:15:00 PM 23.42 74.156 0.097 6.56 23.55 3.51
6/28/2021 3:30:00 PM 23.35 74.03 0.098 6.48 29.31 3.54
6/28/2021 3:45:00 PM 23.43 74.174 0.097 6.57 26.3 3.51
6/28/2021 4:00:00 PM 23.59 74.462 0.097 6.58 22.89 3.56
6/28/2021 4:15:00 PM 23.58 74.444 0.097 6.57 23.44 3.61
6/28/2021 4:30:00 PM 23.47 74.246 0.097 6.57 25.98 3.81
6/28/2021 4:45:00 PM 23.71 74.67799 0.096 6.56 22.38 3.62
6/28/2021 5:00:00 PM 23.55 74.39 0.097 6.31 27.53 3.81
6/28/2021 5:15:00 PM 23.53 74.354 0.097 6.38 25.08 3.4
6/28/2021 5:30:00 PM 23.64 74.552 0.097 6.55 28.22 2.87
6/28/2021 5:45:00 PM 23.61 74.498 0.097 6.57 26.97 3.13
6/28/2021 6:00:00 PM 23.61 74.498 0.098 6.52 23.97 2.71
6/28/2021 6:15:00 PM 23.49 74.282 0.098 6.55 25.5 2.77
6/28/2021 6:30:00 PM 23.61 74.498 0.097 6.37 22.3 3.01
6/28/2021 6:45:00 PM 23.53 74.354 0.098 6.3 22.21 2.55
6/28/2021 7:00:00 PM 23.54 74.372 0.099 6.54 23.05 2
6/28/2021 7:15:00 PM 23.63 74.534 0.098 6.54 22.33 2.37
6/28/2021 7:30:00 PM 23.46 74.228 0.099 6.51 22.69 2.57
6/28/2021 7:45:00 PM 23.52 74.336 0.099 6.47 20.84 2.07
6/28/2021 8:00:00 PM 23.52 74.336 0.099 6.28 21.2 1.99
6/28/2021 8:15:00 PM 23.57 74.426 0.099 6.31 19.08 1.85
6/28/2021 8:30:00 PM 23.53 74.354 0.1 6.53 20.9 1.69
6/28/2021 8:45:00 PM 23.64 74.552 0.099 6.31 20.98 1.82
6/28/2021 9:00:00 PM 23.54 74.372 0.101 6.52 19.94 1.63
6/28/2021 9:15:00 PM 23.62 74.516 0.099 6.55 21.73 2.04
6/28/2021 9:30:00 PM 23.54 74.372 0.099 6.54 22.32 2.11
6/28/2021 9:45:00 PM 23.56 74.408 0.099 6.52 21.66 2.22
6/28/2021 10:00:00 PM 23.57 74.426 0.099 6.52 20.91 2.18
6/28/2021 10:15:00 PM 23.57 74.426 0.099 6.36 21.55 2.3
6/28/2021 10:30:00 PM 23.6 74.48 0.099 6.36 21.74 2.19
6/28/2021 10:45:00 PM 23.53 74.354 0.099 6.53 22.2 2.32
6/28/2021 11:00:00 PM 23.54 74.372 0.099 6.44 23.34 2.19
6/28/2021 11:15:00 PM 23.52 74.336 0.099 6.48 20.78 2
6/28/2021 11:30:00 PM 23.51 74.318 0.099 6.31 21.31 1.97
6/28/2021 11:45:00 PM 23.43 74.174 0.099 6.52 20.63 1.84
6/29/2021 12:00:00 AM 23.55 74.39 0.099 6.52 19.88 1.99
6/29/2021 12:15:00 AM 23.48 74.264 0.099 6.49 20.9 1.96
6/29/2021 12:30:00 AM 23.51 74.318 0.099 6.51 22.74 2
6/29/2021 12:45:00 AM 23.38 74.084 0.099 6.46 20.99 1.81
6/29/2021 1:00:00 AM 23.38 74.084 0.099 6.52 21.13 2.09
6/29/2021 1:15:00 AM 23.35 74.03 0.099 6.51 18.07 2.05
6/29/2021 1:30:00 AM 23.53 74.354 0.098 6.3 14.9 2.3
6/29/2021 1:45:00 AM 23.25 73.85 0.1 6.52 11.9 1.95
6/29/2021 2:00:00 AM 23.43 74.174 0.099 6.3 10.97 2.15
6/29/2021 2:15:00 AM 23.36 74.048 0.099 6.44 10.87 2.03
6/29/2021 2:30:00 AM 23.36 74.048 0.099 6.52 14.47 2.02
6/29/2021 2:45:00 AM 23.59 74.462 0.098 6.46 11.27 2.31
6/29/2021 3:00:00 AM 23.34 74.012 0.099 6.29 11.88 2.08
6/29/2021 3:15:00 AM 23.36 74.048 0.099 6.5 14.05 1.79
6/29/2021 3:30:00 AM 23.37 74.066 0.099 6.49 11.44 1.73
6/29/2021 3:45:00 AM 23.37 74.066 0.099 6.49 11.79 1.66
6/29/2021 4:00:00 AM 23.29 73.922 0.1 6.28 11.95 1.41
6/29/2021 4:15:00 AM 23.27 73.886 0.1 6.51 10.37 1.76
6/29/2021 4:30:00 AM 23.38 74.084 0.099 6.46 11.11 1.72
6/29/2021 4:45:00 AM 23.68 74.624 0.098 6.51 54.82 2.76
6/29/2021 5:00:00 AM 23.49 74.282 0.098 6.29 73.45 2.35
6/29/2021 5:15:00 AM 23.43 74.174 0.099 6.3 65.03 2.19
6/29/2021 5:30:00 AM 23.45 74.21 0.099 6.27 51.46 1.9
6/29/2021 5:45:00 AM 23.28 73.904 0.1 6.49 45.04 1.59
6/29/2021 6:00:00 AM 23.38 74.084 0.1 6.45 46.91 1.63
6/29/2021 6:15:00 AM 23.36 74.048 0.1 6.46 39.43 1.55
6/29/2021 6:30:00 AM 23.36 74.048 0.101 6.4 32.1 1.43
6/29/2021 6:45:00 AM 23.29 73.922 0.101 6.45 27.6 1.3
6/29/2021 7:00:00 AM 23.33 73.994 0.1 6.49 26.82 1.3
6/29/2021 7:15:00 AM 23.31 73.958 0.1 6.25 27.4 1.21
6/29/2021 7:30:00 AM 23.3 73.94 0.101 6.27 24.9 1.06
6/29/2021 7:45:00 AM 23.33 73.994 0.102 6.4 25.22 0.88
6/29/2021 8:00:00 AM 23.23 73.814 0.101 6.47 27.37 1.02
6/29/2021 8:15:00 AM 23.27 73.886 0.101 6.26 26.86 1.01
6/29/2021 8:30:00 AM 23.28 73.904 0.1 6.48 25.19 1.01
6/29/2021 8:45:00 AM 23.19 73.742 0.101 6.48 26.32 1.02
6/29/2021 9:00:00 AM 23.25 73.85 0.101 6.25 24.99 0.95
6/29/2021 9:15:00 AM 23.25 73.85 0.102 6.44 23.84 0.86
6/29/2021 9:30:00 AM 23.2 73.76 0.102 6.49 26.35 0.87
6/29/2021 9:45:00 AM 23.3 73.94 0.101 6.4 24.32 0.75
6/29/2021 10:00:00 AM 23.36 74.048 0.102 6.37 24.46 0.8
6/29/2021 10:15:00 AM 23.42 74.156 0.101 6.48 23.49 0.95
6/29/2021 10:30:00 AM 23.38 74.084 0.101 6.45 25.5 1.15
6/29/2021 10:45:00 AM 23.54 74.372 0.1 6.39 22.3 1.45
6/29/2021 11:00:00 AM 23.49 74.282 0.077 6.53 15.7 0.78
6/29/2021 11:15:00 AM 23.56 74.408 0.083 6.52 13.53 0.15
6/29/2021 11:30:00 AM 23.35 74.03 0.085 6.44 16.35 1.15
6/29/2021 11:45:00 AM 23.57 74.426 0.092 6.5 16.83 0.8
6/29/2021 12:00:00 PM 23.73 74.714 0.09 6.46 14.39 0.64
6/29/2021 12:15:00 PM 23.45 74.21 0.092 6.55 19.94 1.76
6/29/2021 12:30:00 PM 23.58 74.444 0.095 6.56 17.65 0.66
6/29/2021 12:45:00 PM 23.64 74.552 0.101 6.44 36.26 2.34
6/29/2021 1:00:00 PM 23.81 74.858 0.1 6.46 27.77 2.6
6/29/2021 1:15:00 PM 23.74 74.732 0.102 6.56 29.11 2.25
6/29/2021 1:30:00 PM 23.93 75.074 0.1 6.31 25.55 2.5
6/29/2021 1:45:00 PM 23.84 74.912 0.1 6.57 31.96 2.88
6/29/2021 2:00:00 PM 23.99 75.182 0.099 6.58 21.96 2.78
6/29/2021 2:15:00 PM 24.08 75.344 0.099 6.56 37.13 2.72
6/29/2021 2:30:00 PM 23.88 74.984 0.1 6.53 29.39 3.14
6/29/2021 2:45:00 PM 24.02 75.236 0.098 6.38 19.3 3.76
6/29/2021 3:00:00 PM 24.11 75.398 0.098 6.56 19.55 3.67
6/29/2021 3:15:00 PM 23.9 75.02 0.099 6.6 23.36 4.25
6/29/2021 3:30:00 PM 24.06 75.308 0.099 6.46 33 4.21
6/29/2021 3:45:00 PM 24.12 75.416 0.098 6.6 19.98 4
6/29/2021 4:00:00 PM 24.19 75.542 0.097 6.57 21.53 3.96
6/29/2021 4:15:00 PM 24.15 75.47 0.099 6.5 19.61 3.67
6/29/2021 4:30:00 PM 24.05 75.29 0.098 6.62 18.61 4.55
6/29/2021 4:45:00 PM 24.06 75.308 0.098 6.6 23.54 4.53
6/29/2021 5:00:00 PM 24.06 75.308 0.099 6.44 19.11 4.23
6/29/2021 5:15:00 PM 23.95 75.11 0.099 6.62 18.09 4.52
6/29/2021 5:30:00 PM 24.01 75.218 0.099 6.47 18.21 4.14
6/29/2021 5:45:00 PM 24.03 75.254 0.099 6.5 17.48 4.02
6/29/2021 6:00:00 PM 23.94 75.092 0.099 6.6 17.71 4.11
6/29/2021 6:15:00 PM 24.07 75.326 0.098 6.58 19.55 3.94
6/29/2021 6:30:00 PM 23.97 75.146 0.099 6.6 20.94 4.17
6/29/2021 6:45:00 PM 24.08 75.344 0.099 6.59 21.44 3.72
6/29/2021 7:00:00 PM 24.08 75.344 0.098 6.58 19.6 3.65
6/29/2021 7:15:00 PM 24.19 75.542 0.099 6.56 20.3 3.13
6/29/2021 7:30:00 PM 24.11 75.398 0.1 6.56 18.64 3.04
6/29/2021 7:45:00 PM 24.13 75.434 0.1 6.51 18.89 2.69
6/29/2021 8:00:00 PM 24.04 75.272 0.099 6.53 18.65 3.11
6/29/2021 8:15:00 PM 24.18 75.524 0.1 6.4 38.92 2.72
6/29/2021 8:30:00 PM 24.01 75.218 0.099 6.57 21.55 3.12
6/29/2021 8:45:00 PM 24.12 75.416 0.099 6.42 21.38 2.96
6/29/2021 9:00:00 PM 24.14 75.452 0.099 6.55 22.91 2.97
6/29/2021 9:15:00 PM 24.04 75.272 0.1 6.34 21.44 2.87
6/29/2021 9:30:00 PM 24.18 75.524 0.1 6.53 21.83 2.59
6/29/2021 9:45:00 PM 24.12 75.416 0.1 6.53 16.73 2.45
6/29/2021 10:00:00 PM 24.02 75.236 0.1 6.53 17.16 2.47
6/29/2021 10:15:00 PM 24.11 75.398 0.1 6.38 22.55 2.52
6/29/2021 10:30:00 PM 24.06 75.308 0.1 6.53 16.13 2.4
6/29/2021 10:45:00 PM 23.77 74.786 0.1 6.54 17.87 2.86
6/29/2021 11:00:00 PM 24.01 75.218 0.1 6.28 25.17 2.54
6/29/2021 11:15:00 PM 23.97 75.146 0.1 6.54 21.28 2.47
6/29/2021 11:30:00 PM 24.03 75.254 0.1 6.46 19.03 2.34
6/29/2021 11:45:00 PM 23.99 75.182 0.1 6.27 18.65 2.27
6/30/2021 12:00:00 AM 24.56 76.208 0.099 6.32 17.87 2.3
6/30/2021 12:15:00 AM 24.45 76.01 0.099 6.5 23.52 2.37
6/30/2021 12:30:00 AM 24.22 75.596 0.1 6.53 18.48 2.33
6/30/2021 12:45:00 AM 24.04 75.272 0.1 6.51 18.77 2.19
6/30/2021 1:00:00 AM 23.71 74.67799 0.1 6.36 19.85 2.32
6/30/2021 1:15:00 AM 23.68 74.624 0.101 6.46 23.53 2.22
6/30/2021 1:30:00 AM 23.73 74.714 0.101 6.48 22.2 2.14
6/30/2021 1:45:00 AM 23.82 74.876 0.1 6.52 22.19 2.1
6/30/2021 2:00:00 AM 23.84 74.912 0.1 6.39 22.16 1.98
6/30/2021 2:15:00 AM 23.91 75.038 0.101 6.46 23.65 1.65
6/30/2021 2:30:00 AM 23.91 75.038 0.101 6.51 22.69 1.82
6/30/2021 2:45:00 AM 23.87 74.966 0.101 6.41 22.25 2.05
6/30/2021 3:00:00 AM 23.96 75.128 0.1 6.51 23.62 1.97
6/30/2021 3:15:00 AM 24 75.2 0.1 6.5 23.34 1.93
6/30/2021 3:30:00 AM 23.87 74.966 0.1 6.35 24.04 1.9
6/30/2021 3:45:00 AM 23.81 74.858 0.101 6.26 24.42 1.79
6/30/2021 4:00:00 AM 23.73 74.714 0.101 6.5 19.64 1.7
6/30/2021 4:15:00 AM 23.8 74.84 0.101 6.51 19.19 1.62
6/30/2021 4:30:00 AM 23.69 74.642 0.101 6.47 18.52 1.5
6/30/2021 4:45:00 AM 23.55 74.39 0.101 6.51 16.22 1.59
6/30/2021 5:00:00 AM 23.76 74.768 0.101 6.5 18.87 1.79
6/30/2021 5:15:00 AM 23.84 74.912 0.1 6.5 22.79 1.7
6/30/2021 5:30:00 AM 23.69 74.642 0.102 6.49 22.16 1.42
6/30/2021 5:45:00 AM 23.8 74.84 0.101 6.3 20.16 1.39
6/30/2021 6:00:00 AM 23.74 74.732 0.102 6.49 19.66 1.29
6/30/2021 6:15:00 AM 23.84 74.912 0.101 6.41 18.36 1.18
6/30/2021 6:30:00 AM 23.79 74.82201 0.102 6.31 17.17 1.17
6/30/2021 6:45:00 AM 23.75 74.75 0.103 6.25 16.96 0.95
6/30/2021 7:00:00 AM 23.77 74.786 0.102 6.49 17.52 1.1
6/30/2021 7:15:00 AM 23.76 74.768 0.102 6.45 20.09 1.2
6/30/2021 7:30:00 AM 23.72 74.696 0.103 6.47 21.13 0.97
6/30/2021 7:45:00 AM 23.76 74.768 0.102 6.31 23.14 1.06
6/30/2021 8:00:00 AM 23.69 74.642 0.103 6.5 18.09 0.9
6/30/2021 8:15:00 AM 23.74 74.732 0.104 6.23 27.5 0.94
6/30/2021 8:30:00 AM 23.76 74.768 0.102 6.46 20.61 0.86
6/30/2021 8:45:00 AM 23.73 74.714 0.103 6.26 20.57 0.78
6/30/2021 9:00:00 AM 23.81 74.858 0.102 6.48 19.56 0.82
6/30/2021 9:15:00 AM 23.77 74.786 0.102 6.49 22.68 0.9
6/30/2021 9:30:00 AM 23.75 74.75 0.103 6.48 21.02 0.89
6/30/2021 9:45:00 AM 23.8 74.84 0.102 6.26 22.11 1.01
6/30/2021 10:00:00 AM 23.81 74.858 0.103 6.42 21.16 0.98
6/30/2021 10:15:00 AM 23.84 74.912 0.103 6.38 22.13 1.08
6/30/2021 10:30:00 AM 24.03 75.254 0.1 6.45 21.66 1.7
6/30/2021 10:45:00 AM 24.22 75.596 0.098 6.31 21.87 2.11
6/30/2021 11:00:00 AM 24.05 75.29 0.103 6.39 21.22 1.74
6/30/2021 11:15:00 AM 24.31 75.758 0.099 6.51 21.84 2.12
6/30/2021 11:30:00 AM 24.09 75.362 0.102 6.36 22.81 2.51
6/30/2021 11:45:00 AM 24.37 75.866 0.099 6.41 20.92 2.27
6/30/2021 12:00:00 PM 24.51 76.118 0.1 6.53 20.68 2.5
6/30/2021 12:15:00 PM 24.58 76.244 0.1 6.54 18.66 2.82
6/30/2021 12:30:00 PM 24.78 76.604 0.099 6.41 16.94 2.85
6/30/2021 12:45:00 PM 24.51 76.118 0.101 6.51 27.94 3.38
6/30/2021 1:00:00 PM 24.68 76.424 0.1 6.57 17.01 3.48
6/30/2021 1:15:00 PM 24.7 76.46 0.101 6.52 19.93 3.59
6/30/2021 1:30:00 PM 25.13 77.234 0.099 6.54 18.31 2.7
6/30/2021 1:45:00 PM 24.63 76.334 0.101 6.6 20.47 4.22
6/30/2021 2:00:00 PM 25.25 77.45 0.099 6.37 19.01 3.1
6/30/2021 2:15:00 PM 24.94 76.892 0.1 6.61 19.48 4.13
6/30/2021 2:30:00 PM 25.09 77.162 0.1 6.6 21.02 3.98
6/30/2021 2:45:00 PM 24.97 76.946 0.1 6.46 19.9 4.51
6/30/2021 3:00:00 PM 24.76 76.568 0.101 6.64 19.87 4.83
6/30/2021 3:15:00 PM 24.78 76.604 0.101 6.63 21.06 5.02
6/30/2021 3:30:00 PM 24.62 76.316 0.101 6.66 20.54 5.35
6/30/2021 3:45:00 PM 24.68 76.424 0.1 6.57 19.76 5.3
6/30/2021 4:00:00 PM 24.62 76.316 0.101 6.62 18.64 4.92
6/30/2021 4:15:00 PM 24.62 76.316 0.101 6.65 19.66 5.17
6/30/2021 4:30:00 PM 24.57 76.226 0.101 6.48 20.74 5.13
6/30/2021 4:45:00 PM 24.82 76.676 0.099 6.63 19.52 4.66
6/30/2021 5:00:00 PM 24.5 76.1 0.102 6.47 18.21 4.99
6/30/2021 5:15:00 PM 24.65 76.37 0.101 6.65 22.75 4.93
6/30/2021 5:30:00 PM 24.71 76.478 0.1 6.6 19.06 4.82
6/30/2021 5:45:00 PM 24.57 76.226 0.1 6.51 19.69 5.05
6/30/2021 6:00:00 PM 24.89 76.802 0.099 6.56 19.27 4.63
6/30/2021 6:15:00 PM 25 77 0.099 6.61 19.89 4.07
6/30/2021 6:30:00 PM 24.62 76.316 0.1 6.53 19.83 4.8
6/30/2021 6:45:00 PM 24.84 76.712 0.1 6.45 20.89 4.15
6/30/2021 7:00:00 PM 24.74 76.532 0.101 6.58 21.43 3.83
6/30/2021 7:15:00 PM 24.82 76.676 0.1 6.56 19.56 3.88
6/30/2021 7:30:00 PM 24.7 76.46 0.1 6.59 22.44 4.12
6/30/2021 7:45:00 PM 24.74 76.532 0.099 6.61 22.56 4
6/30/2021 8:00:00 PM 24.73 76.514 0.1 6.61 28.02 4.18
6/30/2021 8:15:00 PM 24.67 76.406 0.1 6.61 22.01 4.05
6/30/2021 8:30:00 PM 24.77 76.586 0.099 6.6 22.84 4
6/30/2021 8:45:00 PM 24.62 76.316 0.101 6.6 23.46 3.85
6/30/2021 9:00:00 PM 24.69 76.442 0.1 6.6 29.6 3.84
6/30/2021 9:15:00 PM 24.76 76.568 0.099 6.34 31.31 3.66
6/30/2021 9:30:00 PM 24.66 76.388 0.1 6.5 25.76 3.59
6/30/2021 9:45:00 PM 24.64 76.352 0.1 6.57 22.95 3.43
6/30/2021 10:00:00 PM 24.72 76.496 0.1 6.47 25.8 3.08
6/30/2021 10:15:00 PM 24.57 76.226 0.101 6.54 23.93 3.2
6/30/2021 10:30:00 PM 24.65 76.37 0.101 6.44 24.52 3.06
6/30/2021 10:45:00 PM 24.75 76.55 0.099 6.57 23.27 3.18
6/30/2021 11:00:00 PM 24.71 76.478 0.099 6.43 22.87 3.28
6/30/2021 11:15:00 PM 24.65 76.37 0.099 6.39 26.61 3.39
6/30/2021 11:30:00 PM 24.62 76.316 0.1 6.55 25.52 3.24
6/30/2021 11:45:00 PM 24.61 76.298 0.1 6.56 23.45 3.28
7/1/2021 12:00:00 AM 24.61 76.298 0.1 6.55 26.02 3.38
7/1/2021 12:15:00 AM 24.56 76.208 0.1 6.31 23.47 3.36
7/1/2021 12:30:00 AM 24.57 76.226 0.099 6.33 23.59 3.47
7/1/2021 12:45:00 AM 24.58 76.244 0.099 6.33 24.12 3.66
7/1/2021 1:00:00 AM 24.56 76.208 0.099 6.34 25.67 3.29
7/1/2021 1:15:00 AM 24.56 76.208 0.099 6.41 26.85 3.31
7/1/2021 1:30:00 AM 24.56 76.208 0.098 6.54 22.91 3.3
7/1/2021 1:45:00 AM 24.5 76.1 0.099 6.55 21.28 3.36
7/1/2021 2:00:00 AM 24.59 76.262 0.098 6.42 21.3 3.17
7/1/2021 2:15:00 AM 24.55 76.19 0.099 6.53 22.24 2.99
7/1/2021 2:30:00 AM 24.49 76.082 0.099 6.45 20.36 2.96
7/1/2021 2:45:00 AM 24.43 75.974 0.1 6.32 18.72 2.83
7/1/2021 3:00:00 AM 24.54 76.172 0.098 6.51 19.72 2.8
7/1/2021 3:15:00 AM 24.53 76.154 0.099 6.53 24.64 2.64
7/1/2021 3:30:00 AM 24.51 76.118 0.099 6.53 18.77 2.52
7/1/2021 3:45:00 AM 24.5 76.1 0.098 6.53 19.71 2.58
7/1/2021 4:00:00 AM 24.55 76.19 0.097 6.47 20.39 2.67
7/1/2021 4:15:00 AM 24.47 76.046 0.098 6.32 19.22 2.78
7/1/2021 4:30:00 AM 24.49 76.082 0.097 6.29 19.46 2.84
7/1/2021 4:45:00 AM 24.59 76.262 0.097 6.53 26.3 2.73
7/1/2021 5:00:00 AM 24.58 76.244 0.097 6.44 18.91 2.61
7/1/2021 5:15:00 AM 24.55 76.19 0.098 6.53 16.96 2.55
7/1/2021 5:30:00 AM 24.58 76.244 0.098 6.5 16.71 2.38
7/1/2021 5:45:00 AM 24.57 76.226 0.098 6.46 16.53 2.23
7/1/2021 6:00:00 AM 24.57 76.226 0.099 6.52 22.82 2.33
7/1/2021 6:15:00 AM 24.69 76.442 0.099 6.5 23.23 2.01
7/1/2021 6:30:00 AM 24.7 76.46 0.099 6.52 20.31 1.98
7/1/2021 6:45:00 AM 24.65 76.37 0.099 6.51 17 1.88
7/1/2021 7:00:00 AM 24.7 76.46 0.099 6.37 16.07 1.81
7/1/2021 7:15:00 AM 24.73 76.514 0.1 6.51 16.37 1.52
7/1/2021 7:30:00 AM 24.74 76.532 0.099 6.27 19.45 1.62
7/1/2021 7:45:00 AM 24.74 76.532 0.1 6.35 16.57 1.54
7/1/2021 8:00:00 AM 24.83 76.694 0.1 6.52 17.27 1.58
7/1/2021 8:15:00 AM 24.9 76.82 0.099 6.34 20.18 1.73
7/1/2021 8:30:00 AM 24.96 76.92799 0.099 6.53 16.51 1.77
7/1/2021 8:45:00 AM 24.99 76.982 0.098 6.52 14.88 1.76
7/1/2021 9:00:00 AM 25.01 77.018 0.098 6.54 15.33 1.75
7/1/2021 9:15:00 AM 25.05 77.09 0.098 6.5 14.67 1.78
7/1/2021 9:30:00 AM 25.04 77.07201 0.098 6.52 14.97 1.72
7/1/2021 9:45:00 AM 25.05 77.09 0.098 6.32 14.3 1.71
7/1/2021 10:00:00 AM 25.05 77.09 0.098 6.51 14.89 1.66
7/1/2021 10:15:00 AM 25.05 77.09 0.098 6.45 14.4 1.74
7/1/2021 10:30:00 AM 25.05 77.09 0.098 6.46 15.91 1.66
7/1/2021 10:45:00 AM 25.04 77.07201 0.098 6.51 16.23 1.68
7/1/2021 11:00:00 AM 25.03 77.054 0.098 6.49 14.86 1.69
7/1/2021 11:15:00 AM 25.02 77.036 0.098 6.28 15.37 1.67
7/1/2021 11:30:00 AM 25.01 77.018 0.098 6.53 15.28 1.77
7/1/2021 11:45:00 AM 25.01 77.018 0.098 6.52 15.81 1.78
7/1/2021 12:00:00 PM 25.01 77.018 0.098 6.5 15.42 1.81
7/1/2021 12:15:00 PM 25.01 77.018 0.099 6.52 15.03 1.8
7/1/2021 12:30:00 PM 25 77 0.099 6.54 15.87 1.88
7/1/2021 12:45:00 PM 25 77 0.099 6.51 15.72 1.88
7/1/2021 1:00:00 PM 25 77 0.099 6.5 16.39 1.92
7/1/2021 1:15:00 PM 25 77 0.099 6.52 15.71 2.02
7/1/2021 1:30:00 PM 24.99 76.982 0.099 6.47 16.33 2.04
7/1/2021 1:45:00 PM 24.99 76.982 0.099 6.54 15.25 2.12
7/1/2021 2:00:00 PM 25 77 0.099 6.54 15.02 2.13
7/1/2021 2:15:00 PM 25.01 77.018 0.099 6.5 15.15 2.23
7/1/2021 2:30:00 PM 25.01 77.018 0.099 6.56 15.24 2.33
7/1/2021 2:45:00 PM 25.01 77.018 0.099 6.55 15.22 2.39
7/1/2021 3:00:00 PM 25.01 77.018 0.099 6.56 15.12 2.56
7/1/2021 3:15:00 PM 25.02 77.036 0.099 6.57 15.53 2.65
7/1/2021 3:30:00 PM 25.03 77.054 0.099 6.55 15.55 2.73
7/1/2021 3:45:00 PM 25.04 77.07201 0.099 6.53 15.72 2.8
7/1/2021 4:00:00 PM 25.05 77.09 0.099 6.58 15.29 2.91
7/1/2021 4:15:00 PM 25.05 77.09 0.099 6.33 16.03 3.03
7/1/2021 4:30:00 PM 25.06 77.108 0.099 6.6 14.77 3.19
7/1/2021 4:45:00 PM 25.06 77.108 0.1 6.58 15.31 3.24
7/1/2021 5:00:00 PM 25.07 77.126 0.099 6.6 15.77 3.36
7/1/2021 5:15:00 PM 25.09 77.162 0.1 6.6 16.17 3.5
7/1/2021 5:30:00 PM 25.09 77.162 0.1 6.59 16.68 3.59
7/1/2021 5:45:00 PM 25.1 77.18 0.1 6.38 17.09 3.77
7/1/2021 6:00:00 PM 25.11 77.198 0.1 6.5 16.59 3.9
7/1/2021 6:15:00 PM 25.1 77.18 0.1 6.61 16.53 3.95
7/1/2021 6:30:00 PM 25.11 77.198 0.1 6.48 16.95 4.08
7/1/2021 6:45:00 PM 25.13 77.234 0.1 6.6 16.82 4.18
7/1/2021 7:00:00 PM 25.13 77.234 0.1 6.48 17.01 4.29
7/1/2021 7:15:00 PM 25.13 77.234 0.1 6.66 16.51 4.37
7/1/2021 7:30:00 PM 25.12 77.216 0.1 6.66 16.83 4.51
7/1/2021 7:45:00 PM 25.11 77.198 0.1 6.68 17.07 4.58
7/1/2021 8:00:00 PM 25.08 77.144 0.1 6.69 16.06 4.67
7/1/2021 8:15:00 PM 25.07 77.126 0.1 6.5 16.73 4.75
7/1/2021 8:30:00 PM 25.05 77.09 0.1 6.66 17.85 4.87
7/1/2021 8:45:00 PM 25.02 77.036 0.1 6.69 18.91 4.86
7/1/2021 9:00:00 PM 24.99 76.982 0.1 6.65 23.03 4.93
7/1/2021 9:15:00 PM 24.95 76.91 0.1 6.65 18.94 4.95
7/1/2021 9:30:00 PM 24.92 76.856 0.1 6.73 18.51 4.92
7/1/2021 9:45:00 PM 24.88 76.784 0.1 6.58 18.29 4.95
7/1/2021 10:00:00 PM 24.84 76.712 0.1 6.69 18.66 4.92
7/1/2021 10:15:00 PM 24.8 76.64 0.1 6.73 19.03 4.9
7/1/2021 10:30:00 PM 24.76 76.568 0.1 6.71 18.99 4.77
7/1/2021 10:45:00 PM 24.71 76.478 0.1 6.69 18.61 4.76
7/1/2021 11:00:00 PM 24.67 76.406 0.1 6.69 18.22 4.66
7/1/2021 11:15:00 PM 24.63 76.334 0.1 6.7 18.38 4.61
7/1/2021 11:30:00 PM 24.6 76.28 0.1 6.71 19.12 4.52
7/1/2021 11:45:00 PM 24.56 76.208 0.1 6.69 18.59 4.46
7/2/2021 12:00:00 AM 24.52 76.136 0.1 6.56 19.29 4.36
7/2/2021 12:15:00 AM 24.48 76.064 0.1 6.68 18.95 4.32
7/2/2021 12:30:00 AM 24.43 75.974 0.1 6.68 19.45 4.22
7/2/2021 12:45:00 AM 24.39 75.902 0.1 6.66 19.08 4.09
7/2/2021 1:00:00 AM 24.35 75.83 0.1 6.67 18.39 3.99
7/2/2021 1:15:00 AM 24.31 75.758 0.1 6.57 19.38 3.89
7/2/2021 1:30:00 AM 24.27 75.686 0.1 6.65 20.57 3.76
7/2/2021 1:45:00 AM 24.23 75.614 0.1 6.64 18.74 3.64
7/2/2021 2:00:00 AM 24.19 75.542 0.1 6.6 18.64 3.57
7/2/2021 2:15:00 AM 24.15 75.47 0.1 6.62 18.72 3.45
7/2/2021 2:30:00 AM 24.12 75.416 0.1 6.4 21.56 3.34
7/2/2021 2:45:00 AM 24.08 75.344 0.1 6.58 19.6 3.25
7/2/2021 3:00:00 AM 24.04 75.272 0.1 6.58 19.4 3.2
7/2/2021 3:15:00 AM 24 75.2 0.1 6.59 18.89 3.11
7/2/2021 3:30:00 AM 23.96 75.128 0.1 6.58 18.92 3.05
7/2/2021 3:45:00 AM 23.92 75.056 0.1 6.59 19.52 2.94
7/2/2021 4:00:00 AM 23.88 74.984 0.1 6.56 19.43 2.88
7/2/2021 4:15:00 AM 23.84 74.912 0.1 6.58 18.85 2.84
7/2/2021 4:30:00 AM 23.81 74.858 0.1 6.51 22.65 2.75
7/2/2021 4:45:00 AM 23.77 74.786 0.1 6.47 19.22 2.71
7/2/2021 5:00:00 AM 23.73 74.714 0.1 6.43 20 2.63
7/2/2021 5:15:00 AM 23.7 74.66 0.1 6.54 18.9 2.62
7/2/2021 5:30:00 AM 23.66 74.588 0.1 6.56 19.09 2.55
7/2/2021 5:45:00 AM 23.63 74.534 0.1 6.55 49.77 2.52
7/2/2021 6:00:00 AM 23.59 74.462 0.1 6.53 19.28 2.5
7/2/2021 6:15:00 AM 23.56 74.408 0.1 6.55 18.79 2.49
7/2/2021 6:30:00 AM 23.52 74.336 0.1 6.54 18.59 2.45
7/2/2021 6:45:00 AM 23.49 74.282 0.1 6.53 18.91 2.42
7/2/2021 7:00:00 AM 23.47 74.246 0.1 6.47 18.66 2.37
7/2/2021 7:15:00 AM 23.44 74.192 0.1 6.42 18.65 2.38
7/2/2021 7:30:00 AM 23.42 74.156 0.1 6.55 18.58 2.38
7/2/2021 7:45:00 AM 23.4 74.12 0.1 6.55 18.72 2.39
7/2/2021 8:00:00 AM 23.38 74.084 0.1 6.54 18.43 2.4
7/2/2021 8:15:00 AM 23.37 74.066 0.1 6.53 18.41 2.42
7/2/2021 8:30:00 AM 23.36 74.048 0.1 6.46 18.38 2.37
7/2/2021 8:45:00 AM 23.35 74.03 0.1 6.56 18.34 2.43
7/2/2021 9:00:00 AM 23.34 74.012 0.1 6.42 17.92 2.46
7/2/2021 9:15:00 AM 23.34 74.012 0.1 6.52 18.31 2.48
7/2/2021 9:30:00 AM 23.34 74.012 0.1 6.44 18.54 2.49
7/2/2021 9:45:00 AM 23.33 73.994 0.1 6.56 17.93 2.54
7/2/2021 10:00:00 AM 23.33 73.994 0.1 6.37 18.18 2.6
7/2/2021 10:15:00 AM 23.33 73.994 0.1 6.57 18.08 2.68
7/2/2021 10:30:00 AM 23.33 73.994 0.1 6.57 18.15 2.79
7/2/2021 10:45:00 AM 23.33 73.994 0.1 6.58 18.08 2.84
7/2/2021 11:00:00 AM 23.33 73.994 0.1 6.47 17.81 2.93
7/2/2021 11:15:00 AM 23.34 74.012 0.1 6.59 18.3 3.04
7/2/2021 11:30:00 AM 23.37 74.066 0.1 6.44 17.89 3.21
7/2/2021 11:45:00 AM 23.4 74.12 0.099 6.59 18.49 3.31
7/2/2021 12:00:00 PM 23.45 74.21 0.099 6.61 18.75 3.45
7/2/2021 12:15:00 PM 23.49 74.282 0.099 6.61 19.42 3.55
7/2/2021 12:30:00 PM 23.51 74.318 0.099 6.63 19.06 3.72
7/2/2021 12:45:00 PM 23.56 74.408 0.099 6.63 18.88 3.86
7/2/2021 1:00:00 PM 23.61 74.498 0.099 6.61 20.49 4.16
7/2/2021 1:15:00 PM 23.68 74.624 0.099 6.58 19.66 4.4
7/2/2021 1:30:00 PM 23.74 74.732 0.099 6.67 20.07 4.62
7/2/2021 1:45:00 PM 23.78 74.804 0.099 6.61 20.44 4.67
7/2/2021 2:00:00 PM 23.83 74.894 0.099 6.57 21.18 4.85
7/2/2021 2:15:00 PM 23.92 75.056 0.099 6.72 19.67 5.17
7/2/2021 2:30:00 PM 23.98 75.164 0.099 6.72 21.1 5.19
7/2/2021 2:45:00 PM 24.06 75.308 0.099 6.71 24.37 5.4
7/2/2021 3:00:00 PM 24.11 75.398 0.099 6.73 23.56 5.42
7/2/2021 3:15:00 PM 24.22 75.596 0.099 6.78 21.07 5.72
7/2/2021 3:30:00 PM 24.31 75.758 0.099 6.81 20.46 6.01
7/2/2021 3:45:00 PM 24.41 75.938 0.098 6.75 20.53 6.32
7/2/2021 4:00:00 PM 24.48 76.064 0.098 6.82 19.52 6.48
7/2/2021 4:15:00 PM 24.58 76.244 0.098 6.68 17.98 6.62
7/2/2021 4:30:00 PM 24.62 76.316 0.098 6.82 19.48 6.64
7/2/2021 4:45:00 PM 24.7 76.46 0.098 6.87 19.13 6.89
7/2/2021 5:00:00 PM 24.77 76.586 0.098 6.87 19.85 6.85
7/2/2021 5:15:00 PM 24.91 76.838 0.098 6.7 18.72 7.04
7/2/2021 5:30:00 PM 24.89 76.802 0.098 6.89 24.33 7.03
7/2/2021 5:45:00 PM 24.95 76.91 0.098 6.83 24.31 7.18
7/2/2021 6:00:00 PM 25.01 77.018 0.098 6.9 19.46 7.25
7/2/2021 6:15:00 PM 25.06 77.108 0.098 6.7 19.4 7.31
7/2/2021 6:30:00 PM 25.13 77.234 0.098 6.93 20.97 7.45
7/2/2021 6:45:00 PM 25.2 77.36 0.098 6.92 20.5 7.52
7/2/2021 7:00:00 PM 25.26 77.468 0.098 6.84 21.97 7.51
7/2/2021 7:15:00 PM 25.33 77.594 0.093 6.97 22.09 7.59
7/2/2021 7:30:00 PM 25.41 77.738 0.098 6.94 42.68 7.79
7/2/2021 7:45:00 PM 25.49 77.882 0.098 7 17.64 7.91
7/2/2021 8:00:00 PM 25.56 78.008 0.098 7.02 18.48 8.1
7/2/2021 8:15:00 PM 25.52 77.936 0.097 7.08 18.34 8.29
7/2/2021 8:30:00 PM 25.4 77.72 0.097 7.06 19.14 8.25
7/2/2021 8:45:00 PM 25.33 77.594 0.097 6.94 21.9 8.14
7/2/2021 9:00:00 PM 25.26 77.468 0.097 6.94 21.06 8.09
7/2/2021 9:15:00 PM 25.18 77.324 0.097 6.99 20.6 8.03
7/2/2021 9:30:00 PM 25.08 77.144 0.097 7.06 17.65 7.87
7/2/2021 9:45:00 PM 24.97 76.946 0.097 6.91 20.16 7.7
7/2/2021 10:00:00 PM 24.86 76.748 0.097 6.95 21.5 7.49
7/2/2021 10:15:00 PM 24.72 76.496 0.097 6.93 18.71 7.31
7/2/2021 10:30:00 PM 24.62 76.316 0.07 6.98 25.18 7.05
7/2/2021 10:45:00 PM 24.48 76.064 0.097 6.95 20.07 6.92
7/2/2021 11:00:00 PM 24.35 75.83 0.097 6.8 20.26 6.74
7/2/2021 11:15:00 PM 24.23 75.614 0.096 6.87 24.19 6.48
7/2/2021 11:30:00 PM 24.1 75.38 0.096 6.89 20.17 6.34
7/2/2021 11:45:00 PM 24 75.2 0.096 6.86 20.4 6.14
7/3/2021 12:00:00 AM 23.9 75.02 0.096 6.84 22.64 5.93
7/3/2021 12:15:00 AM 23.81 74.858 0.096 6.82 22.18 5.84
7/3/2021 12:30:00 AM 23.74 74.732 0.096 6.81 19.58 5.71
7/3/2021 12:45:00 AM 23.68 74.624 0.096 6.76 18.9 5.57
7/3/2021 1:00:00 AM 23.61 74.498 0.096 6.8 17.12 5.48
7/3/2021 1:15:00 AM 23.56 74.408 0.096 6.79 17.89 5.33
7/3/2021 1:30:00 AM 23.51 74.318 0.096 6.69 17.56 5.19
7/3/2021 1:45:00 AM 23.46 74.228 0.096 6.7 19.68 5.04
7/3/2021 2:00:00 AM 23.41 74.138 0.096 6.74 19.3 4.95
7/3/2021 2:15:00 AM 23.37 74.066 0.096 6.61 19.9 4.8
7/3/2021 2:30:00 AM 23.31 73.958 0.096 6.7 17.06 4.74
7/3/2021 2:45:00 AM 23.26 73.868 0.096 6.69 17.6 4.64
7/3/2021 3:00:00 AM 23.22 73.796 0.096 6.68 23.91 4.53
7/3/2021 3:15:00 AM 23.16 73.688 0.096 6.61 18.63 4.49
7/3/2021 3:30:00 AM 23.12 73.616 0.096 6.62 19.62 4.39
7/3/2021 3:45:00 AM 23.08 73.544 0.093 6.65 17.75 4.26
7/3/2021 4:00:00 AM 23.04 73.472 0.096 6.55 19.41 4.22
7/3/2021 4:15:00 AM 22.99 73.382 0.096 6.51 18.3 4.12
7/3/2021 4:30:00 AM 22.95 73.31 0.061 6.63 16.34 4
7/3/2021 4:45:00 AM 22.92 73.256 0.096 6.58 27.39 3.95
7/3/2021 5:00:00 AM 22.87 73.166 0.096 6.63 16.96 3.9
7/3/2021 5:15:00 AM 22.83 73.094 0.096 6.62 19.89 3.84
7/3/2021 5:30:00 AM 22.78 73.004 0.097 6.61 16.96 3.84
7/3/2021 5:45:00 AM 22.74 72.932 0.097 6.48 18.21 3.76
7/3/2021 6:00:00 AM 22.69 72.842 0.097 6.61 19.76 3.78
7/3/2021 6:15:00 AM 22.63 72.734 0.115 6.62 21.71 3.7
7/3/2021 6:30:00 AM 22.57 72.626 0.099 6.63 23.57 3.67
7/3/2021 6:45:00 AM 22.51 72.518 0.097 6.58 18.11 3.74
7/3/2021 7:00:00 AM 22.48 72.464 0.385 6.61 18.09 3.71
7/3/2021 7:15:00 AM 22.41 72.338 0.097 6.61 20.05 3.71
7/3/2021 7:30:00 AM 22.38 72.284 0.097 6.61 37.01 3.68
7/3/2021 7:45:00 AM 22.33 72.194 0.096 6.6 27.96 3.24
7/3/2021 8:00:00 AM 22.29 72.122 0.098 6.63 19.11 3.63
7/3/2021 8:15:00 AM 22.25 72.05 0.098 6.54 17.88 3.69
7/3/2021 8:30:00 AM 22.21 71.978 0.098 6.6 16.69 3.71
7/3/2021 8:45:00 AM 22.17 71.906 0.098 6.61 19.91 3.73
7/3/2021 9:00:00 AM 22.13 71.834 0.098 6.61 20.23 3.79
7/3/2021 9:15:00 AM 22.11 71.798 0.099 6.51 21.09 3.84
7/3/2021 9:30:00 AM 22.08 71.744 0.099 6.54 24.91 3.88
7/3/2021 9:45:00 AM 22.06 71.708 0.099 6.61 20.29 3.99
7/3/2021 10:00:00 AM 22.09 71.762 0.099 6.6 24.34 4.04
7/3/2021 10:15:00 AM 22.13 71.834 0.099 6.63 17.35 4.14
7/3/2021 10:30:00 AM 22.17 71.906 0.096 6.64 14.51 4.26
7/3/2021 10:45:00 AM 22.21 71.978 0.099 6.65 18.25 4.41
7/3/2021 11:00:00 AM 22.27 72.086 0.099 6.65 17.63 4.55
7/3/2021 11:15:00 AM 22.33 72.194 0.095 6.66 16.63 4.74
7/3/2021 11:30:00 AM 22.4 72.32 0.099 6.68 14.62 4.99
7/3/2021 11:45:00 AM 22.44 72.392 0.098 6.54 20.13 5.17
7/3/2021 12:00:00 PM 22.56 72.608 0.083 6.72 20.48 5.3
7/3/2021 12:15:00 PM 22.67 72.806 0.098 6.65 21.34 5.58
7/3/2021 12:30:00 PM 22.79 73.022 0.089 6.74 22.75 5.81
7/3/2021 12:45:00 PM 22.85 73.13 0.098 6.74 22.66 5.94
7/3/2021 1:00:00 PM 22.93 73.274 0.098 6.74 19.78 6.13
7/3/2021 1:15:00 PM 23.03 73.454 0.098 6.76 19.56 6.24
7/3/2021 1:30:00 PM 23.16 73.688 0.098 6.78 20.46 6.49
7/3/2021 1:45:00 PM 23.31 73.958 0.098 6.78 22.13 6.51
7/3/2021 2:00:00 PM 23.39 74.102 0.098 6.8 23.9 6.66
7/3/2021 2:15:00 PM 23.52 74.336 0.097 6.67 24.46 6.88
7/3/2021 2:30:00 PM 23.65 74.57 0.097 6.66 25.8 7.07
7/3/2021 2:45:00 PM 23.79 74.82201 0.097 6.88 18.58 7.58
7/3/2021 3:00:00 PM 23.83 74.894 0.097 6.79 20.56 7.73
7/3/2021 3:15:00 PM 23.9 75.02 0.097 6.92 18.68 7.87
7/3/2021 3:30:00 PM 23.98 75.164 0.093 6.97 27.98 7.92
7/3/2021 3:45:00 PM 24.06 75.308 0.097 6.92 22.97 7.83
7/3/2021 4:00:00 PM 24.03 75.254 0.096 6.87 21.51 8.12
7/3/2021 4:15:00 PM 24.04 75.272 0.097 7.03 28.57 7.67
7/3/2021 4:30:00 PM 23.97 75.146 0.08 7.08 36.21 7.46
7/3/2021 4:45:00 PM 23.93 75.074 0.076 7.11 66.47 7.25
7/3/2021 5:00:00 PM 23.87 74.966 0.168 7.08 62.67 7.68
7/3/2021 5:15:00 PM 23.79 74.82201 0.099 7.07 43.13 6.99
7/3/2021 5:30:00 PM 23.71 74.67799 0.119 7.09 31.61 7.43
7/3/2021 5:45:00 PM 23.61 74.498 0.098 7.08 29.86 7.54
7/3/2021 6:00:00 PM 23.51 74.318 0.091 7.07 32.39 7.74
7/3/2021 6:15:00 PM 23.4 74.12 0.085 7.05 16.56 7.86
7/3/2021 6:30:00 PM 23.29 73.922 0.082 7.03 20.74 7.75
7/3/2021 6:45:00 PM 23.2 73.76 0.076 7.01 88.71 7.62
7/3/2021 7:00:00 PM 23.09 73.562 0.077 6.99 137.66 7.45
7/3/2021 7:15:00 PM 22.98 73.364 0.077 6.97 188.31 7.28
7/3/2021 7:30:00 PM 22.89 73.202 0.078 6.94 255.59 7.17
7/3/2021 7:45:00 PM 22.8 73.04 0.08 6.94 273.89 7.01
7/3/2021 8:00:00 PM 22.71 72.878 0.081 6.91 155.86 6.89
7/3/2021 8:15:00 PM 22.62 72.716 0.082 6.89 45.36 6.79
7/3/2021 8:30:00 PM 22.53 72.554 0.085 6.87 17.75 6.7
7/3/2021 8:45:00 PM 22.45 72.41 0.117 6.88 27.6 6.52
7/3/2021 9:00:00 PM 22.35 72.23 0.133 6.84 32.03 6.34
7/3/2021 9:15:00 PM 22.27 72.086 0.085 6.85 42.37 6.2
7/3/2021 9:30:00 PM 22.17 71.906 0.119 6.78 25.72 6.43
7/3/2021 9:45:00 PM 22.09 71.762 0.112 6.84 37 6.23
7/3/2021 10:00:00 PM 22 71.6 0.078 6.8 37.63 6.26
7/3/2021 10:15:00 PM 21.92 71.456 0.126 6.8 31.24 6.21
7/3/2021 10:30:00 PM 21.84 71.312 0.091 6.78 19.5 6.1
7/3/2021 10:45:00 PM 21.78 71.204 0.087 6.76 17.99 5.97
7/3/2021 11:00:00 PM 21.73 71.114 0.086 6.76 20.78 5.9
7/3/2021 11:15:00 PM 21.67 71.006 0.068 6.76 17.1 5.87
7/3/2021 11:30:00 PM 21.61 70.898 0.099 6.75 22.18 5.8
7/3/2021 11:45:00 PM 21.55 70.79 0.088 6.76 46.19 5.75
7/4/2021 12:00:00 AM 21.51 70.718 0.106 6.74 25.68 5.67
7/4/2021 12:15:00 AM 21.46 70.628 0.092 6.61 43.28 5.65
7/4/2021 12:30:00 AM 21.42 70.556 0.092 6.64 20.52 5.57
7/4/2021 12:45:00 AM 21.38 70.484 0.096 6.71 52.35 5.5
7/4/2021 1:00:00 AM 21.35 70.43 0.094 6.71 17.57 5.47
7/4/2021 1:15:00 AM 21.32 70.376 0.093 6.69 24.06 5.47
7/4/2021 1:30:00 AM 21.3 70.34 0.093 6.63 20.34 5.44
7/4/2021 1:45:00 AM 21.28 70.304 0.073 6.66 35.41 5.44
7/4/2021 2:00:00 AM 21.28 70.304 0.081 6.71 27.16 5.31
7/4/2021 2:15:00 AM 21.27 70.286 0.069 6.7 25.95 5.37
7/4/2021 2:30:00 AM 21.26 70.268 0.091 6.71 21.31 5.3
7/4/2021 2:45:00 AM 21.25 70.25 0.109 6.69 22.84 5.22
7/4/2021 3:00:00 AM 21.25 70.25 0.089 6.68 20.68 5.18
7/4/2021 3:15:00 AM 21.23 70.214 0.084 6.67 21.35 5.2
7/4/2021 3:30:00 AM 21.23 70.214 0.083 6.67 27.73 5.25
7/4/2021 3:45:00 AM 21.21 70.17799 0.094 6.66 18.24 5.22
7/4/2021 4:00:00 AM 21.2 70.16 0.083 6.69 21.91 5.3
7/4/2021 4:15:00 AM 21.17 70.106 0.094 6.53 18.84 5.32
7/4/2021 4:30:00 AM 21.16 70.088 0.11 6.67 18.05 5.39
7/4/2021 4:45:00 AM 21.15 70.07 0.093 6.7 20.16 5.37
7/4/2021 5:00:00 AM 21.12 70.016 0.083 6.7 34.37 5.45
7/4/2021 5:15:00 AM 21.08 69.944 0.126 6.69 23.33 5.48
7/4/2021 5:30:00 AM 21.07 69.926 0.073 6.7 30.5 5.51
7/4/2021 5:45:00 AM 21.04 69.872 0.124 6.71 19.06 5.55
7/4/2021 6:00:00 AM 21 69.8 0.137 6.71 19.09 5.57
7/4/2021 6:15:00 AM 20.98 69.764 0.085 6.72 18.78 5.59
7/4/2021 6:30:00 AM 20.96 69.728 0.09 6.72 18.5 5.63
7/4/2021 6:45:00 AM 20.94 69.692 0.073 6.68 15.11 5.66
7/4/2021 7:00:00 AM 20.92 69.656 0.089 6.7 24.77 5.68
7/4/2021 7:15:00 AM 20.9 69.62 0.087 6.71 27.65 5.7
7/4/2021 7:30:00 AM 20.89 69.602 0.094 6.7 26.22 5.75
7/4/2021 7:45:00 AM 20.88 69.584 0.073 6.71 35.37 5.77
7/4/2021 8:00:00 AM 20.88 69.584 0.12 6.73 20 5.86
7/4/2021 8:15:00 AM 20.86 69.548 0.088 6.72 16.97 5.91
7/4/2021 8:30:00 AM 20.86 69.548 0.08 6.77 27.8 6
7/4/2021 8:45:00 AM 20.87 69.566 0.08 6.75 35.81 6.08
7/4/2021 9:00:00 AM 20.88 69.584 0.096 6.76 18.22 6.14
7/4/2021 9:15:00 AM 20.89 69.602 0.089 6.8 35.95 6.28
7/4/2021 9:30:00 AM 20.91 69.638 0.075 6.78 205.82 6.43
7/4/2021 9:45:00 AM 20.95 69.71 0.064 6.8 49.37 6.54
7/4/2021 10:00:00 AM 20.99 69.782 0.088 6.8 61.35 6.63
7/4/2021 10:15:00 AM 21.06 69.908 0.08 6.83 40.7 6.82
7/4/2021 10:30:00 AM 21.16 70.088 0.089 6.82 487.7 6.91
7/4/2021 10:45:00 AM 21.26 70.268 0.092 6.69 21.8 7.1
7/4/2021 11:00:00 AM 21.37 70.466 0.093 6.87 19.66 7.25
7/4/2021 11:15:00 AM 21.5 70.7 0.08 6.87 11.18 7.4
7/4/2021 11:30:00 AM 21.62 70.916 0.078 6.89 15.82 7.56
7/4/2021 11:45:00 AM 21.76 71.168 0.102 6.92 16.44 7.66
7/4/2021 12:00:00 PM 21.89 71.402 0.094 6.93 15.69 7.82
7/4/2021 12:15:00 PM 22.02 71.636 0.094 6.94 14.74 7.93
7/4/2021 12:30:00 PM 22.16 71.888 0.072 6.96 206.47 8.01
7/4/2021 12:45:00 PM 22.27 72.086 0.088 6.9 130.4 8.1
7/4/2021 1:00:00 PM 22.37 72.266 0.089 6.87 182.62 8.15
7/4/2021 1:15:00 PM 22.48 72.464 0.089 6.91 183.48 8.17
7/4/2021 1:30:00 PM 22.57 72.626 0.088 7 159.41 8.23
7/4/2021 1:45:00 PM 22.62 72.716 0.088 7.01 313.22 8.26
7/4/2021 2:00:00 PM 22.69 72.842 0.088 7 228 8.27
7/4/2021 2:15:00 PM 22.83 73.094 0.089 7 275.38 8.31
7/4/2021 2:30:00 PM 22.9 73.22 0.089 7.02 269.86 8.34
7/4/2021 2:45:00 PM 23.02 73.436 0.096 6.99 250.68 8.37
7/4/2021 3:00:00 PM 23.08 73.544 0.096 7.03 233.89 8.4
7/4/2021 3:15:00 PM 23.19 73.742 0.096 7.04 134 8.47
7/4/2021 3:30:00 PM 23.29 73.922 0.096 6.99 267.18 8.51
7/4/2021 3:45:00 PM 23.35 74.03 0.096 7.05 386.04 8.49
7/4/2021 4:00:00 PM 23.41 74.138 0.083 7.01 462.05 8.51
7/4/2021 4:15:00 PM 23.44 74.192 0.096 7.03 561.11 8.48
7/4/2021 4:30:00 PM 23.46 74.228 0.095 7.05 592.94 8.5
7/4/2021 4:45:00 PM 23.49 74.282 0.096 7.05 735.62 8.5
7/4/2021 5:00:00 PM 23.53 74.354 0.095 7.04 699.16 8.46
7/4/2021 5:15:00 PM 23.52 74.336 0.095 7.03 1098.95 8.38
7/4/2021 5:30:00 PM 23.53 74.354 0.094 7.01 1105.64 8.34
7/4/2021 5:45:00 PM 23.52 74.336 0.095 7.04 1105.8 8.35
7/4/2021 6:00:00 PM 23.52 74.336 0.095 7.03 1117.41 8.35
7/4/2021 6:15:00 PM 23.53 74.354 0.095 7.02 1184.98 8.38
7/4/2021 6:30:00 PM 23.52 74.336 0.095 7.04 1240.47 8.34
7/4/2021 6:45:00 PM 23.49 74.282 0.095 7.01 1153.3 8.27
7/4/2021 7:00:00 PM 23.45 74.21 0.095 7.01 1157.66 8.19
7/4/2021 7:15:00 PM 23.41 74.138 0.095 7 992.77 8.12
7/4/2021 7:30:00 PM 23.36 74.048 0.095 7.01 985.41 8.04
7/4/2021 7:45:00 PM 23.3 73.94 0.095 6.97 950.29 7.98
7/4/2021 8:00:00 PM 23.24 73.832 0.095 6.96 1126.89 7.89
7/4/2021 8:15:00 PM 23.18 73.724 0.095 6.95 1201.98 7.79
7/4/2021 8:30:00 PM 23.11 73.598 0.095 6.93 1160.66 7.69
7/4/2021 8:45:00 PM 23.04 73.472 0.095 6.95 1117.34 7.57
7/4/2021 9:00:00 PM 22.96 73.328 0.095 6.92 1130.85 7.43
7/4/2021 9:15:00 PM 22.89 73.202 0.095 6.91 1163.34 7.3
7/4/2021 9:30:00 PM 22.82 73.076 0.095 6.9 1059.17 7.18
7/4/2021 9:45:00 PM 22.76 72.968 0.095 6.89 1052.54 7.06
7/4/2021 10:00:00 PM 22.69 72.842 0.095 6.89 1081.13 6.95
7/4/2021 10:15:00 PM 22.63 72.734 0.095 6.88 1049.72 6.86
7/4/2021 10:30:00 PM 22.57 72.626 0.095 6.89 1023.96 6.75
7/4/2021 10:45:00 PM 22.51 72.518 0.095 6.86 1042.57 6.68
7/4/2021 11:00:00 PM 22.45 72.41 0.095 6.85 1099.73 6.61
7/4/2021 11:15:00 PM 22.38 72.284 0.095 6.85 1118.79 6.54
7/4/2021 11:30:00 PM 22.31 72.158 0.095 6.83 1128.16 6.48
7/4/2021 11:45:00 PM 22.24 72.032 0.095 6.84 1158 6.42
7/5/2021 12:00:00 AM 22.17 71.906 0.094 6.84 1157.47 6.36
7/5/2021 12:15:00 AM 22.1 71.78 0.094 6.82 1118.39 6.33
7/5/2021 12:30:00 AM 22.02 71.636 0.094 6.82 1153.93 6.24
7/5/2021 12:45:00 AM 21.95 71.51 0.094 6.81 1010.42 6.24
7/5/2021 1:00:00 AM 21.87 71.366 0.094 6.81 1064.88 6.18
7/5/2021 1:15:00 AM 21.8 71.24 0.094 6.79 1083.91 6.2
7/5/2021 1:30:00 AM 21.74 71.132 0.093 6.78 1025.38 6.16
7/5/2021 1:45:00 AM 21.67 71.006 0.093 6.79 960.88 6.12
7/5/2021 2:00:00 AM 21.61 70.898 0.093 6.77 996.08 6.1
7/5/2021 2:15:00 AM 21.55 70.79 0.093 6.8 1022.73 6.08
7/5/2021 2:30:00 AM 21.5 70.7 0.093 6.78 1093.59 6.06
7/5/2021 2:45:00 AM 21.44 70.592 0.093 6.76 1031.62 6.04
7/5/2021 3:00:00 AM 21.39 70.502 0.093 6.77 945.88 6
7/5/2021 3:15:00 AM 21.34 70.412 0.093 6.69 927.22 6.02
7/5/2021 3:30:00 AM 21.29 70.32201 0.093 6.73 939.04 5.97
7/5/2021 3:45:00 AM 21.23 70.214 0.092 6.74 877.61 5.98
7/5/2021 4:00:00 AM 21.17 70.106 0.092 6.7 921.83 5.98
7/5/2021 4:15:00 AM 21.12 70.016 0.092 6.72 933.98 5.88
7/5/2021 4:30:00 AM 21.06 69.908 0.092 6.72 921.54 5.91
7/5/2021 4:45:00 AM 21 69.8 0.092 6.7 991.21 5.96
7/5/2021 5:00:00 AM 20.94 69.692 0.092 6.72 1011.81 5.91
7/5/2021 5:15:00 AM 20.88 69.584 0.092 6.71 967.88 5.89
7/5/2021 5:30:00 AM 20.83 69.494 0.092 6.72 885.33 5.9
7/5/2021 5:45:00 AM 20.77 69.386 0.093 6.72 962.96 5.87
7/5/2021 6:00:00 AM 20.71 69.278 0.091 6.71 938.72 5.86
7/5/2021 6:15:00 AM 20.66 69.188 0.091 6.7 991.05 5.88
7/5/2021 6:30:00 AM 20.61 69.098 0.091 6.67 810.43 5.89
7/5/2021 6:45:00 AM 20.56 69.008 0.091 6.66 806.2 5.75
7/5/2021 7:00:00 AM 20.51 68.918 0.091 6.67 766.2 5.86
7/5/2021 7:15:00 AM 20.46 68.828 0.091 6.7 806.98 5.86
7/5/2021 7:30:00 AM 20.42 68.756 0.091 6.71 802.45 5.91
7/5/2021 7:45:00 AM 20.38 68.684 0.09 6.7 833.87 5.92
7/5/2021 8:00:00 AM 20.35 68.63 0.09 6.7 757.3 5.95
7/5/2021 8:15:00 AM 20.34 68.612 0.09 6.69 672.02 6.02
7/5/2021 8:30:00 AM 20.36 68.648 0.09 6.71 623.81 6.12
7/5/2021 8:45:00 AM 20.38 68.684 0.089 6.72 605.42 6.27
7/5/2021 9:00:00 AM 20.42 68.756 0.09 6.71 649.03 6.32
7/5/2021 9:15:00 AM 20.49 68.882 0.089 6.74 585.85 6.46
7/5/2021 9:30:00 AM 20.56 69.008 0.089 6.73 688.23 6.71
7/5/2021 9:45:00 AM 20.65 69.17 0.089 6.77 636.88 6.82
7/5/2021 10:00:00 AM 20.76 69.368 0.089 6.78 635.24 7.04
7/5/2021 10:15:00 AM 20.88 69.584 0.089 6.8 697.19 7.21
7/5/2021 10:30:00 AM 21 69.8 0.089 6.79 673.78 7.31
7/5/2021 10:45:00 AM 21.14 70.052 0.088 6.81 697.99 7.5
7/5/2021 11:00:00 AM 21.28 70.304 0.088 6.84 691.34 7.69
7/5/2021 11:15:00 AM 21.4 70.52 0.088 6.84 436.52 7.83
7/5/2021 11:30:00 AM 21.54 70.772 0.088 6.87 444.43 7.96
7/5/2021 11:45:00 AM 21.68 71.024 0.088 6.89 408.87 8.08
7/5/2021 12:00:00 PM 21.84 71.312 0.087 6.87 376.41 8.15
7/5/2021 12:15:00 PM 21.96 71.528 0.087 6.9 367.11 8.38
7/5/2021 12:30:00 PM 22.12 71.816 0.087 6.91 350.42 8.42
7/5/2021 12:45:00 PM 22.25 72.05 0.087 6.92 354.18 8.57
7/5/2021 1:00:00 PM 22.39 72.302 0.087 6.94 356.55 8.68
7/5/2021 1:15:00 PM 22.54 72.57201 0.087 6.98 370.32 8.7
7/5/2021 1:30:00 PM 22.64 72.752 0.087 7 390.8 8.79
7/5/2021 1:45:00 PM 22.77 72.986 0.087 6.98 375.51 8.87
7/5/2021 2:00:00 PM 22.88 73.184 0.087 7.03 398.84 8.96
7/5/2021 2:15:00 PM 23.02 73.436 0.087 7.03 402.37 8.98
7/5/2021 2:30:00 PM 23.15 73.67 0.087 7.03 422.68 9.05
7/5/2021 2:45:00 PM 23.26 73.868 0.087 7.03 430.08 9.06
7/5/2021 3:00:00 PM 23.36 74.048 0.087 7.05 430.82 9.08
7/5/2021 3:15:00 PM 23.49 74.282 0.087 7.04 444.86 9.1
7/5/2021 3:30:00 PM 23.56 74.408 0.087 7.07 442.83 9.11
7/5/2021 3:45:00 PM 23.66 74.588 0.087 7.05 425.4 9.08
7/5/2021 4:00:00 PM 23.73 74.714 0.087 7.05 410.31 9.17
7/5/2021 4:15:00 PM 23.82 74.876 0.087 7.07 430.17 9.2
7/5/2021 4:30:00 PM 23.87 74.966 0.087 7.07 405.8 9.19
7/5/2021 4:45:00 PM 23.94 75.092 0.087 7.08 437.9 9.19
7/5/2021 5:00:00 PM 24 75.2 0.087 7.1 439.91 9.2
7/5/2021 5:15:00 PM 24.04 75.272 0.087 7.09 408.45 9.21
7/5/2021 5:30:00 PM 24.09 75.362 0.087 7.11 434.35 9.22
7/5/2021 5:45:00 PM 24.1 75.38 0.087 7.11 393.38 9.21
7/5/2021 6:00:00 PM 24.1 75.38 0.087 7.1 405.12 9.2
7/5/2021 6:15:00 PM 24.11 75.398 0.087 7.1 393.72 9.18
7/5/2021 6:30:00 PM 24.09 75.362 0.087 7.11 414.62 9.16
7/5/2021 6:45:00 PM 24.06 75.308 0.087 7.09 394.16 9.12
7/5/2021 7:00:00 PM 24 75.2 0.087 7.08 356.62 9.07
7/5/2021 7:15:00 PM 23.93 75.074 0.087 7.08 361.27 9
7/5/2021 7:30:00 PM 23.86 74.948 0.087 7.06 354.99 8.94
7/5/2021 7:45:00 PM 23.76 74.768 0.087 7.05 357.76 8.84
7/5/2021 8:00:00 PM 23.67 74.606 0.086 7.03 358.61 8.71
7/5/2021 8:15:00 PM 23.56 74.408 0.086 7.01 359.27 8.63
7/5/2021 8:30:00 PM 23.44 74.192 0.086 7.01 365.73 8.51
7/5/2021 8:45:00 PM 23.33 73.994 0.086 6.99 362.92 8.38
7/5/2021 9:00:00 PM 23.21 73.778 0.086 6.97 362.13 8.25
7/5/2021 9:15:00 PM 23.08 73.544 0.086 6.96 379.26 8.09
7/5/2021 9:30:00 PM 22.95 73.31 0.085 6.92 379.93 7.96
7/5/2021 9:45:00 PM 22.79 73.022 0.085 6.93 392.41 7.78
7/5/2021 10:00:00 PM 22.67 72.806 0.085 6.92 383.47 7.63
7/5/2021 10:15:00 PM 22.53 72.554 0.085 6.89 381.08 7.49
7/5/2021 10:30:00 PM 22.39 72.302 0.085 6.83 379.55 7.33
7/5/2021 10:45:00 PM 22.27 72.086 0.085 6.84 378.51 7.2
7/5/2021 11:00:00 PM 22.15 71.87 0.085 6.83 386.68 7.07
7/5/2021 11:15:00 PM 22.03 71.654 0.084 6.81 400.21 6.96
7/5/2021 11:30:00 PM 21.91 71.438 0.084 6.79 388.07 6.85
7/5/2021 11:45:00 PM 21.79 71.222 0.084 6.78 391.47 6.75
7/6/2021 12:00:00 AM 21.68 71.024 0.084 6.71 382.67 6.66
7/6/2021 12:15:00 AM 21.55 70.79 0.084 6.72 384.62 6.57
7/6/2021 12:30:00 AM 21.46 70.628 0.083 6.74 372.99 6.49
7/6/2021 12:45:00 AM 21.35 70.43 0.083 6.74 375.73 6.42
7/6/2021 1:00:00 AM 21.26 70.268 0.083 6.71 381 6.33
7/6/2021 1:15:00 AM 21.16 70.088 0.083 6.7 378.82 6.28
7/6/2021 1:30:00 AM 21.08 69.944 0.083 6.7 378.66 6.22
7/6/2021 1:45:00 AM 21 69.8 0.083 6.71 384.86 6.17
7/6/2021 2:00:00 AM 20.92 69.656 0.083 6.71 386.16 6.14
7/6/2021 2:15:00 AM 20.85 69.53 0.083 6.7 389.69 6.06
7/6/2021 2:30:00 AM 20.79 69.422 0.082 6.69 384.92 6.1
7/6/2021 2:45:00 AM 20.75 69.35 0.082 6.68 386.95 6.07
7/6/2021 3:00:00 AM 20.72 69.296 0.082 6.69 401.3 6.06
7/6/2021 3:15:00 AM 20.69 69.242 0.082 6.69 378.86 6.04
7/6/2021 3:30:00 AM 20.68 69.224 0.082 6.7 362.53 6.02
7/6/2021 3:45:00 AM 20.68 69.224 0.082 6.69 369.25 5.99
7/6/2021 4:00:00 AM 20.69 69.242 0.082 6.64 370.66 5.96
7/6/2021 4:15:00 AM 20.69 69.242 0.082 6.66 387.73 5.94
7/6/2021 4:30:00 AM 20.71 69.278 0.082 6.64 370.4 5.78
7/6/2021 4:45:00 AM 20.73 69.314 0.082 6.64 355.53 5.81
7/6/2021 5:00:00 AM 20.73 69.314 0.082 6.63 328.52 5.76
7/6/2021 5:15:00 AM 20.75 69.35 0.082 6.65 343.9 5.71
7/6/2021 5:30:00 AM 20.76 69.368 0.082 6.62 326.51 5.67
7/6/2021 5:45:00 AM 20.77 69.386 0.082 6.62 327.25 5.52
7/6/2021 6:00:00 AM 20.78 69.404 0.082 6.65 317.33 5.6
7/6/2021 6:15:00 AM 20.79 69.422 0.082 6.65 297.65 5.47
7/6/2021 6:30:00 AM 20.8 69.44 0.083 6.65 312.05 5.45
7/6/2021 6:45:00 AM 20.81 69.458 0.082 6.66 303.1 5.53
7/6/2021 7:00:00 AM 20.82 69.476 0.082 6.65 287.16 5.5
7/6/2021 7:15:00 AM 20.83 69.494 0.083 6.64 278.2 5.49
7/6/2021 7:30:00 AM 20.84 69.512 0.083 6.65 280.45 5.47
7/6/2021 7:45:00 AM 20.86 69.548 0.082 6.65 275.38 5.45
7/6/2021 8:00:00 AM 20.89 69.602 0.083 6.6 277.74 5.44
7/6/2021 8:15:00 AM 20.91 69.638 0.083 6.6 280.58 5.46
7/6/2021 8:30:00 AM 20.95 69.71 0.083 6.61 288.72 5.52
7/6/2021 8:45:00 AM 21 69.8 0.083 6.6 278.62 5.57
7/6/2021 9:00:00 AM 21.06 69.908 0.083 6.62 264.08 5.64
7/6/2021 9:15:00 AM 21.13 70.034 0.083 6.64 267.71 5.7
7/6/2021 9:30:00 AM 21.22 70.196 0.083 6.63 270.6 5.81
7/6/2021 9:45:00 AM 21.32 70.376 0.083 6.63 267.95 6.02
7/6/2021 10:00:00 AM 21.45 70.61 0.083 6.7 290.75 6.21
7/6/2021 10:15:00 AM 21.6 70.88 0.083 6.71 276.93 6.4
7/6/2021 10:30:00 AM 21.76 71.168 0.083 6.73 266.11 6.6
7/6/2021 10:45:00 AM 21.93 71.474 0.083 6.71 265.4 6.8
7/6/2021 11:00:00 AM 22.12 71.816 0.083 6.75 271.84 6.99
7/6/2021 11:15:00 AM 22.3 72.14 0.083 6.76 276.09 7.12
7/6/2021 11:30:00 AM 22.47 72.446 0.083 6.76 283.3 7.39
7/6/2021 11:45:00 AM 22.65 72.77 0.083 6.78 281.49 7.57
7/6/2021 12:00:00 PM 22.77 72.986 0.083 6.81 290.17 7.68
7/6/2021 12:15:00 PM 22.95 73.31 0.083 6.89 289.93 7.83
7/6/2021 12:30:00 PM 23.1 73.58 0.083 6.84 301.1 7.97
7/6/2021 12:45:00 PM 23.24 73.832 0.083 6.85 293.61 8.08
7/6/2021 1:00:00 PM 23.4 74.12 0.083 6.86 271.67 8.2
7/6/2021 1:15:00 PM 23.54 74.372 0.082 6.88 283.29 8.32
7/6/2021 1:30:00 PM 23.68 74.624 0.083 6.9 286.48 8.41
7/6/2021 1:45:00 PM 23.8 74.84 0.083 6.92 281.79 8.5
7/6/2021 2:00:00 PM 23.98 75.164 0.083 6.92 280.14 8.62
7/6/2021 2:15:00 PM 24.08 75.344 0.083 6.96 277.4 8.69
7/6/2021 2:30:00 PM 24.22 75.596 0.081 6.99 276.16 8.78
7/6/2021 2:45:00 PM 24.33 75.794 0.083 6.99 265.04 8.81
7/6/2021 3:00:00 PM 24.48 76.064 0.081 7.02 312.61 8.88
7/6/2021 3:15:00 PM 24.56 76.208 0.083 7.02 285.98 8.95
7/6/2021 3:30:00 PM 24.7 76.46 0.083 7.04 290.54 9.03
7/6/2021 3:45:00 PM 24.8 76.64 0.083 7.07 283.23 9.13
7/6/2021 4:00:00 PM 24.95 76.91 0.083 7.13 288 9.08
7/6/2021 4:15:00 PM 25.04 77.07201 0.083 7.1 296.61 9.1
7/6/2021 4:30:00 PM 25.13 77.234 0.083 7.1 306.35 9.25
7/6/2021 4:45:00 PM 25.1 77.18 0.082 7.18 307.23 9.22
7/6/2021 5:00:00 PM 25.08 77.144 0.082 7.18 327.71 9.14
7/6/2021 5:15:00 PM 25.1 77.18 0.082 7.16 336.68 9.01
7/6/2021 5:30:00 PM 25.1 77.18 0.082 7.23 313.13 9.09
7/6/2021 5:45:00 PM 25.1 77.18 0.082 7.21 308.19 9.05
7/6/2021 6:00:00 PM 25.07 77.126 0.082 7.2 293.02 9
7/6/2021 6:15:00 PM 25.03 77.054 0.082 7.19 289.54 8.87
7/6/2021 6:30:00 PM 25 77 0.082 7.14 296.37 8.73
7/6/2021 6:45:00 PM 24.95 76.91 0.083 7.14 294.43 8.58
7/6/2021 7:00:00 PM 24.89 76.802 0.082 7.09 302.37 8.41
7/6/2021 7:15:00 PM 24.83 76.694 0.082 7.05 293.81 8.27
7/6/2021 7:30:00 PM 24.77 76.586 0.082 7.05 308.06 8.15
7/6/2021 7:45:00 PM 24.72 76.496 0.082 7.04 317.26 8.07
7/6/2021 8:00:00 PM 24.66 76.388 0.082 7.05 312.79 8.03
7/6/2021 8:15:00 PM 24.63 76.334 0.084 7.04 314.47 7.96
7/6/2021 8:30:00 PM 24.59 76.262 0.082 6.96 314.39 8.01
7/6/2021 8:45:00 PM 24.56 76.208 0.082 7.03 320.89 7.98
7/6/2021 9:00:00 PM 24.52 76.136 0.082 7.04 310.56 7.59
7/6/2021 9:15:00 PM 24.47 76.046 0.082 6.99 313.09 7.9
7/6/2021 9:30:00 PM 24.41 75.938 0.083 6.94 310.09 7.75
7/6/2021 9:45:00 PM 24.35 75.83 0.082 6.98 303.43 7.65
7/6/2021 10:00:00 PM 24.29 75.722 0.083 6.89 305.94 7.5
7/6/2021 10:15:00 PM 24.21 75.578 0.082 6.87 297.99 7.33
7/6/2021 10:30:00 PM 24.13 75.434 0.083 6.91 302.36 7.21
7/6/2021 10:45:00 PM 24.05 75.29 0.083 6.89 304.81 7.01
7/6/2021 11:00:00 PM 23.97 75.146 0.083 6.84 302.28 6.65
7/6/2021 11:15:00 PM 23.9 75.02 0.083 6.83 298.26 6.68
7/6/2021 11:30:00 PM 23.82 74.876 0.083 6.81 288.22 6.55
7/6/2021 11:45:00 PM 23.73 74.714 0.083 6.81 293.29 6.4
7/7/2021 12:00:00 AM 23.64 74.552 0.083 6.76 289.31 6.27
7/7/2021 12:15:00 AM 23.55 74.39 0.083 6.72 292.16 5.97
7/7/2021 12:30:00 AM 23.46 74.228 0.083 6.73 299.88 5.96
7/7/2021 12:45:00 AM 23.37 74.066 0.083 6.77 287.76 5.85
7/7/2021 1:00:00 AM 23.27 73.886 0.083 6.73 291.01 5.78
7/7/2021 1:15:00 AM 23.17 73.706 0.083 6.71 296.45 5.67
7/7/2021 1:30:00 AM 23.08 73.544 0.083 6.65 287.42 5.6
7/7/2021 1:45:00 AM 22.99 73.382 0.083 6.64 282.65 5.52
7/7/2021 2:00:00 AM 22.9 73.22 0.083 6.69 281.51 5.48
7/7/2021 2:15:00 AM 22.82 73.076 0.083 6.62 284.53 5.4
7/7/2021 2:30:00 AM 22.74 72.932 0.083 6.64 287.53 5.36
7/7/2021 2:45:00 AM 22.65 72.77 0.083 6.64 284.29 5.3
7/7/2021 3:00:00 AM 22.59 72.662 0.083 6.62 295.29 5.28
7/7/2021 3:15:00 AM 22.51 72.518 0.083 6.62 309.38 5.23
7/7/2021 3:30:00 AM 22.46 72.42799 0.083 6.63 312.04 5.2
7/7/2021 3:45:00 AM 22.4 72.32 0.083 6.63 312.83 5.17
7/7/2021 4:00:00 AM 22.36 72.248 0.083 6.66 297.86 5.14
7/7/2021 4:15:00 AM 22.32 72.176 0.083 6.65 323.33 5.11
7/7/2021 4:30:00 AM 22.28 72.104 0.083 6.65 312.81 5.08
7/7/2021 4:45:00 AM 22.25 72.05 0.083 6.63 308.75 5.03
7/7/2021 5:00:00 AM 22.22 71.996 0.083 6.63 313.3 5
7/7/2021 5:15:00 AM 22.19 71.942 0.083 6.66 312.99 4.96
7/7/2021 5:30:00 AM 22.16 71.888 0.084 6.67 310.15 4.93
7/7/2021 5:45:00 AM 22.14 71.852 0.083 6.66 312.01 4.9
7/7/2021 6:00:00 AM 22.13 71.834 0.083 6.63 307.41 4.86
7/7/2021 6:15:00 AM 22.11 71.798 0.083 6.63 314.77 4.81
7/7/2021 6:30:00 AM 22.1 71.78 0.083 6.64 312.05 4.77
7/7/2021 6:45:00 AM 22.1 71.78 0.083 6.61 304.26 4.7
7/7/2021 7:00:00 AM 22.1 71.78 0.083 6.62 304.91 4.65
7/7/2021 7:15:00 AM 22.1 71.78 0.083 6.62 313.96 4.61
7/7/2021 7:30:00 AM 22.1 71.78 0.083 6.62 315.53 4.56
7/7/2021 7:45:00 AM 22.11 71.798 0.083 6.59 312.88 4.56
7/7/2021 8:00:00 AM 22.12 71.816 0.083 6.63 312.84 4.47
7/7/2021 8:15:00 AM 22.13 71.834 0.083 6.59 309.7 4.48
7/7/2021 8:30:00 AM 22.14 71.852 0.083 6.59 308.03 4.54
7/7/2021 8:45:00 AM 22.16 71.888 0.083 6.61 301.77 4.56
7/7/2021 9:00:00 AM 22.19 71.942 0.083 6.63 307.23 4.6
7/7/2021 9:15:00 AM 22.22 71.996 0.084 6.63 308.11 4.64
7/7/2021 9:30:00 AM 22.25 72.05 0.084 6.63 306.33 4.71
7/7/2021 9:45:00 AM 22.3 72.14 0.084 6.64 306.8 4.78
7/7/2021 10:00:00 AM 22.37 72.266 0.083 6.63 309.32 4.91
7/7/2021 10:15:00 AM 22.44 72.392 0.083 6.66 311.39 4.94
7/7/2021 10:30:00 AM 22.52 72.536 0.082 6.66 316.21 1.17
7/7/2021 10:45:00 AM 22.62 72.716 0.083 6.68 323.83 1.13
7/7/2021 11:00:00 AM 22.71 72.878 0.084 6.68 316.15 0.99
7/7/2021 11:15:00 AM 22.77 72.986 0.084 6.67 305.9 0.9
7/7/2021 11:30:00 AM 22.83 73.094 0.083 6.71 308.03 1.6
7/7/2021 11:45:00 AM 22.96 73.328 0.083 6.69 310.95 2.75
7/7/2021 12:00:00 PM 23.1 73.58 0.083 6.74 325.79 2.79
7/7/2021 12:15:00 PM 23.18 73.724 0.083 6.75 320.34 2.77
7/7/2021 12:30:00 PM 23.39 74.102 0.084 6.73 346.54 2.74
7/7/2021 12:45:00 PM 23.46 74.228 0.083 6.75 344.86 4.05
7/7/2021 1:00:00 PM 23.59 74.462 0.083 6.81 330.94 4.35
7/7/2021 1:15:00 PM 23.77 74.786 0.083 6.8 332.93 4.24
7/7/2021 1:30:00 PM 23.97 75.146 0.083 6.81 322.16 4.87
7/7/2021 1:45:00 PM 24.11 75.398 0.083 6.86 323.59 5.45
7/7/2021 2:00:00 PM 24.31 75.758 0.083 6.86 319.31 6.12
7/7/2021 2:15:00 PM 24.48 76.064 0.076 6.88 319.42 6.41
7/7/2021 2:30:00 PM 24.64 76.352 0.083 6.89 327.65 7.03
7/7/2021 2:45:00 PM 24.75 76.55 0.082 6.91 337.57 5.95
7/7/2021 3:00:00 PM 24.91 76.838 0.079 6.95 315.98 7.67
7/7/2021 3:15:00 PM 25.11 77.198 0.083 6.94 328.33 7.36
7/7/2021 3:30:00 PM 25.28 77.504 0.083 6.99 340.69 7.99
7/7/2021 3:45:00 PM 25.42 77.756 0.083 6.98 340.76 8.13
7/7/2021 4:00:00 PM 25.61 78.098 0.083 7.03 304.85 8.05
7/7/2021 4:15:00 PM 25.67 78.206 0.082 7.05 319.68 8.36
7/7/2021 4:30:00 PM 25.77 78.386 0.083 7.09 365.66 8.4
7/7/2021 4:45:00 PM 25.76 78.368 0.083 7.04 306.35 8.55
7/7/2021 5:00:00 PM 25.86 78.548 0.082 7.07 306.3 8.49
7/7/2021 5:15:00 PM 26.04 78.872 0.082 7.11 247.4 8.63
7/7/2021 5:30:00 PM 26.1 78.98 0.082 7.1 272.42 8.67
7/7/2021 5:45:00 PM 26.13 79.034 0.082 7.12 268.87 8.75
7/7/2021 6:00:00 PM 26.19 79.142 0.082 7.14 263.71 8.34
7/7/2021 6:15:00 PM 26.35 79.43 0.082 7.15 247.94 8.82
7/7/2021 6:30:00 PM 26.47 79.646 0.082 7.16 241.64 8.76
7/7/2021 6:45:00 PM 26.61 79.898 0.082 7.2 228.14 8.57
7/7/2021 7:00:00 PM 26.61 79.898 0.082 7.21 231.62 9.15
7/7/2021 7:15:00 PM 26.74 80.132 0.082 7.21 230.94 8.96
7/7/2021 7:30:00 PM 26.81 80.258 0.082 7.24 228.68 8.98
7/7/2021 7:45:00 PM 26.83 80.294 0.082 7.22 245.71 8.66
7/7/2021 8:00:00 PM 26.82 80.276 0.082 7.21 248.51 8.55
7/7/2021 8:15:00 PM 26.8 80.24 0.082 7.2 249.15 8.26
7/7/2021 8:30:00 PM 26.79 80.222 0.083 7.19 228.26 8.61
7/7/2021 8:45:00 PM 26.77 80.186 0.082 7.15 239.3 8.61
7/7/2021 9:00:00 PM 26.73 80.114 0.082 7.16 246.86 8.2
7/7/2021 9:15:00 PM 26.71 80.078 0.082 7.18 258.84 8.17
7/7/2021 9:30:00 PM 26.65 79.97 0.082 7.11 223.51 6.12
7/7/2021 9:45:00 PM 26.58 79.844 0.082 7.11 215.27 7.49
7/7/2021 10:00:00 PM 26.5 79.7 0.083 7.1 227.66 8.14
7/7/2021 10:15:00 PM 26.41 79.538 0.082 7.04 231.83 7.41
7/7/2021 10:30:00 PM 26.15 79.07 0.079 7.04 252.39 7.09
7/7/2021 10:45:00 PM 26.02 78.836 0.082 7.03 258.43 6.84
7/7/2021 11:00:00 PM 25.83 78.494 0.082 7 271.64 6.74
7/7/2021 11:15:00 PM 25.73 78.314 0.08 6.98 253.51 6.24
7/7/2021 11:30:00 PM 25.61 78.098 0.082 6.98 277.27 6.16
7/7/2021 11:45:00 PM 25.46 77.828 0.082 6.97 279.99 5.92
7/8/2021 12:00:00 AM 25.33 77.594 0.082 6.88 271.79 5.89
7/8/2021 12:15:00 AM 25.21 77.378 0.082 6.91 277.29 5.62
7/8/2021 12:30:00 AM 25.12 77.216 0.082 6.9 270.91 4.88
7/8/2021 12:45:00 AM 24.99 76.982 0.082 6.82 281.22 4.6
7/8/2021 1:00:00 AM 24.88 76.784 0.082 6.81 269.6 4.86
7/8/2021 1:15:00 AM 24.77 76.586 0.082 6.79 285.33 4.81
7/8/2021 1:30:00 AM 24.68 76.424 0.082 6.79 276.18 4.58
7/8/2021 1:45:00 AM 24.56 76.208 0.081 6.78 264.86 4.76
7/8/2021 2:00:00 AM 24.48 76.064 0.081 6.74 275.67 3.78
7/8/2021 2:15:00 AM 24.39 75.902 0.081 6.71 280.21 4.85
7/8/2021 2:30:00 AM 24.31 75.758 0.081 6.69 320.08 4.92
7/8/2021 2:45:00 AM 24.24 75.632 0.082 6.68 303.35 4.58
7/8/2021 3:00:00 AM 24.17 75.506 0.082 6.65 456.88 4.83
7/8/2021 3:15:00 AM 24.09 75.362 0.082 6.67 325.43 4.44
7/8/2021 3:30:00 AM 24.02 75.236 0.082 6.64 323.27 4.39
7/8/2021 3:45:00 AM 23.93 75.074 0.082 6.65 324.33 4.04
7/8/2021 4:00:00 AM 23.86 74.948 0.082 6.64 352.38 4.22
7/8/2021 4:15:00 AM 23.78 74.804 0.082 6.68 340.22 3.88
7/8/2021 4:30:00 AM 23.7 74.66 0.082 6.67 341.99 4.27
7/8/2021 4:45:00 AM 23.62 74.516 0.082 6.65 495.05 3.82
7/8/2021 5:00:00 AM 23.54 74.372 0.083 6.61 361.41 3.85
7/8/2021 5:15:00 AM 23.47 74.246 0.083 6.63 318.76 3.77
7/8/2021 5:30:00 AM 23.4 74.12 0.083 6.61 317.96 3.7
7/8/2021 5:45:00 AM 23.33 73.994 0.083 6.65 310.66 3.81
7/8/2021 6:00:00 AM 23.29 73.922 0.083 6.64 299.83 3.56
7/8/2021 6:15:00 AM 23.24 73.832 0.081 6.61 268.65 3.4
7/8/2021 6:30:00 AM 23.2 73.76 0.083 6.62 290.99 3.6
7/8/2021 6:45:00 AM 23.16 73.688 0.083 6.59 302.83 3.71
7/8/2021 7:00:00 AM 23.12 73.616 0.083 6.58 311.42 3.22
7/8/2021 7:15:00 AM 23.09 73.562 0.083 6.61 314.19 3.83
7/8/2021 7:30:00 AM 23.07 73.526 0.083 6.63 321.53 3.83
7/8/2021 7:45:00 AM 23.05 73.49 0.083 6.6 317.62 3.46
7/8/2021 8:00:00 AM 23.05 73.49 0.083 6.62 324.93 3.72
7/8/2021 8:15:00 AM 23.05 73.49 0.083 6.59 291.04 3.61
7/8/2021 8:30:00 AM 23.06 73.508 0.083 6.6 331.21 3.95
7/8/2021 8:45:00 AM 23.07 73.526 0.083 6.6 342.67 3.8
7/8/2021 9:00:00 AM 23.1 73.58 0.083 6.59 330.84 3.95
7/8/2021 9:15:00 AM 23.14 73.652 0.083 6.6 323.33 4.21
7/8/2021 9:30:00 AM 23.19 73.742 0.083 6.61 366.17 4.28
7/8/2021 9:45:00 AM 23.26 73.868 0.083 6.63 357.48 3.87
7/8/2021 10:00:00 AM 23.33 73.994 0.083 6.63 386.2 3.92
7/8/2021 10:15:00 AM 23.42 74.156 0.083 6.67 398.82 4.31
7/8/2021 10:30:00 AM 23.52 74.336 0.083 6.67 397.6 4.44
7/8/2021 10:45:00 AM 23.61 74.498 0.083 6.67 389.57 4.65
7/8/2021 11:00:00 AM 23.72 74.696 0.083 6.69 381.57 4.39
7/8/2021 11:15:00 AM 23.81 74.858 0.081 6.71 386.18 3.39
7/8/2021 11:30:00 AM 23.91 75.038 0.083 6.75 379.61 5.2
7/8/2021 11:45:00 AM 24.02 75.236 0.083 6.77 390 5.6
7/8/2021 12:00:00 PM 24.11 75.398 0.083 6.79 379.25 4.98
7/8/2021 12:15:00 PM 24.19 75.542 0.083 6.79 372.51 4.09
7/8/2021 12:30:00 PM 24.26 75.668 0.082 6.85 359.67 5.36
7/8/2021 12:45:00 PM 24.32 75.776 0.082 6.79 362.17 5.46
7/8/2021 1:00:00 PM 24.36 75.848 0.083 6.84 364.68 6.22
7/8/2021 1:15:00 PM 24.4 75.92 0.082 6.89 363.66 6.11
7/8/2021 1:30:00 PM 24.45 76.01 0.082 6.87 379.68 5.8
7/8/2021 1:45:00 PM 24.49 76.082 0.082 6.91 368.51 5.66
7/8/2021 2:00:00 PM 24.53 76.154 0.082 6.92 379.99 6.33
7/8/2021 2:15:00 PM 24.57 76.226 0.082 6.96 390.4 6.71
7/8/2021 2:30:00 PM 24.62 76.316 0.082 6.94 379.33 7.05
7/8/2021 2:45:00 PM 24.64 76.352 0.081 6.97 379.8 6.94
7/8/2021 3:00:00 PM 24.64 76.352 0.081 6.98 359.5 6.61
7/8/2021 3:15:00 PM 24.63 76.334 0.081 6.98 489.38 7.52
7/8/2021 3:30:00 PM 24.63 76.334 0.081 6.98 346.21 7.41
7/8/2021 3:45:00 PM 24.61 76.298 0.081 7 368.56 7.24
7/8/2021 4:00:00 PM 24.6 76.28 0.081 7.01 374.37 7.32
7/8/2021 4:15:00 PM 24.59 76.262 0.081 7.03 392.61 7.4
7/8/2021 4:30:00 PM 24.59 76.262 0.081 7.01 386.96 7.46
7/8/2021 4:45:00 PM 24.6 76.28 0.08 7.04 386.49 7.51
7/8/2021 5:00:00 PM 24.59 76.262 0.08 7.04 379.74 7.28
7/8/2021 5:15:00 PM 24.56 76.208 0.08 7.02 370.65 7.31
7/8/2021 5:30:00 PM 24.53 76.154 0.08 7.02 371.18 7.55
7/8/2021 5:45:00 PM 24.48 76.064 0.08 7 365.75 7.27
7/8/2021 6:00:00 PM 24.43 75.974 0.08 7.02 374.71 7.13
7/8/2021 6:15:00 PM 24.37 75.866 0.08 7.02 373.95 6.83
7/8/2021 6:30:00 PM 24.32 75.776 0.08 7 357.46 7.27
7/8/2021 6:45:00 PM 24.25 75.65 0.08 7 362.72 7.26
7/8/2021 7:00:00 PM 24.17 75.506 0.079 6.99 361.91 7.12
7/8/2021 7:15:00 PM 24.07 75.326 0.079 6.99 408.75 7.27
7/8/2021 7:30:00 PM 24 75.2 0.079 6.98 404.06 7.18
7/8/2021 7:45:00 PM 23.91 75.038 0.079 6.97 389.84 7.01
7/8/2021 8:00:00 PM 23.83 74.894 0.079 6.95 381.05 6.96
7/8/2021 8:15:00 PM 23.76 74.768 0.079 6.92 357.99 6.95
7/8/2021 8:30:00 PM 23.67 74.606 0.079 6.9 396.16 6.61
7/8/2021 8:45:00 PM 23.59 74.462 0.079 6.91 378.51 6.44
7/8/2021 9:00:00 PM 23.5 74.3 0.078 6.89 654.39 6.23
7/8/2021 9:15:00 PM 23.42 74.156 0.078 6.86 434.81 6.32
7/8/2021 9:30:00 PM 23.33 73.994 0.078 6.85 425.22 4.52
7/8/2021 9:45:00 PM 23.25 73.85 0.078 6.85 454.56 4.34
7/8/2021 10:00:00 PM 23.19 73.742 0.078 6.84 417.11 4.31
7/8/2021 10:15:00 PM 23.12 73.616 0.078 6.8 395.79 4.15
7/8/2021 10:30:00 PM 23.06 73.508 0.078 6.82 394.04 3.83
7/8/2021 10:45:00 PM 23.01 73.418 0.077 6.78 392.3 3.59
7/8/2021 11:00:00 PM 22.96 73.328 0.078 6.79 439.22 4.26
7/8/2021 11:15:00 PM 22.91 73.238 0.078 6.78 432.26 4.01
7/8/2021 11:30:00 PM 22.86 73.148 0.078 6.77 433.91 4.07
7/8/2021 11:45:00 PM 22.81 73.058 0.078 6.78 456.94 4.15
7/9/2021 12:00:00 AM 22.77 72.986 0.078 6.76 433.28 4.13
7/9/2021 12:15:00 AM 22.73 72.914 0.078 6.73 426.09 4.07
7/9/2021 12:30:00 AM 22.7 72.86 0.078 6.76 420.32 4
7/9/2021 12:45:00 AM 22.68 72.824 0.078 6.78 417.23 4.82
7/9/2021 1:00:00 AM 22.66 72.788 0.078 6.76 403.4 4.05
7/9/2021 1:15:00 AM 22.63 72.734 0.078 6.76 410.81 3.66
7/9/2021 1:30:00 AM 22.61 72.698 0.079 6.76 420.8 3.96
7/9/2021 1:45:00 AM 22.59 72.662 0.079 6.76 406.49 3.63
7/9/2021 2:00:00 AM 22.56 72.608 0.079 6.74 380.47 3.39
7/9/2021 2:15:00 AM 22.52 72.536 0.079 6.73 347.72 3.89
7/9/2021 2:30:00 AM 22.48 72.464 0.079 6.73 350.3 3.81
7/9/2021 2:45:00 AM 22.44 72.392 0.079 6.73 336.17 4.75
7/9/2021 3:00:00 AM 22.39 72.302 0.079 6.72 343.06 4.92
7/9/2021 3:15:00 AM 22.34 72.212 0.078 6.73 351.14 4.59
7/9/2021 3:30:00 AM 22.29 72.122 0.079 6.72 365.75 5.24
7/9/2021 3:45:00 AM 22.23 72.014 0.079 6.7 377.42 4.78
7/9/2021 4:00:00 AM 22.17 71.906 0.079 6.72 386.29 5.04
7/9/2021 4:15:00 AM 22.12 71.816 0.079 6.7 435.46 5.05
7/9/2021 4:30:00 AM 22.08 71.744 0.079 6.69 442.47 4.97
7/9/2021 4:45:00 AM 22.05 71.69 0.079 6.69 452.65 4.94
7/9/2021 5:00:00 AM 22.01 71.618 0.079 6.7 511.39 5.03
7/9/2021 5:15:00 AM 21.97 71.546 0.08 6.7 522.81 4.78
7/9/2021 5:30:00 AM 21.93 71.474 0.079 6.68 515.64 4.85
7/9/2021 5:45:00 AM 21.9 71.42 0.08 6.68 479.14 4.87
7/9/2021 6:00:00 AM 21.87 71.366 0.08 6.66 479.27 4.65
7/9/2021 6:15:00 AM 21.84 71.312 0.08 6.67 585.3 4.99
7/9/2021 6:30:00 AM 21.82 71.276 0.08 6.65 516.8 4.65
7/9/2021 6:45:00 AM 21.8 71.24 0.08 6.66 679.09 3.91
7/9/2021 7:00:00 AM 21.79 71.222 0.08 6.65 589.92 3.88
7/9/2021 7:15:00 AM 21.79 71.222 0.08 6.65 521.98 4.51
7/9/2021 7:30:00 AM 21.78 71.204 0.08 6.65 516.86 3.84
7/9/2021 7:45:00 AM 21.79 71.222 0.08 6.65 494.27 4.59
7/9/2021 8:00:00 AM 21.8 71.24 0.08 6.63 413.28 3.91
7/9/2021 8:15:00 AM 21.81 71.258 0.08 6.63 519.79 3.55
7/9/2021 8:30:00 AM 21.83 71.294 0.08 6.61 477.64 3.82
7/9/2021 8:45:00 AM 21.84 71.312 0.08 6.63 466.1 3.97
7/9/2021 9:00:00 AM 21.88 71.384 0.08 6.63 520.8 3.76
7/9/2021 9:15:00 AM 21.91 71.438 0.08 6.65 528.89 3.79
7/9/2021 9:30:00 AM 21.96 71.528 0.08 6.65 464.74 3.52
7/9/2021 9:45:00 AM 22.02 71.636 0.08 6.66 454.51 3.73
7/9/2021 10:00:00 AM 22.1 71.78 0.08 6.67 599.84 3.47
7/9/2021 10:15:00 AM 22.17 71.906 0.08 6.67 525.3 3.38
7/9/2021 10:30:00 AM 22.24 72.032 0.08 6.7 507.56 3.36
7/9/2021 10:45:00 AM 22.31 72.158 0.08 6.73 485.18 3.29
7/9/2021 11:00:00 AM 22.37 72.266 0.08 6.72 528.41 4.67
7/9/2021 11:15:00 AM 22.44 72.392 0.08 6.73 468.84 5.62
7/9/2021 11:30:00 AM 22.5 72.5 0.08 6.74 514.72 5.57
7/9/2021 11:45:00 AM 22.57 72.626 0.08 6.76 522.2 5.85
7/9/2021 12:00:00 PM 22.65 72.77 0.08 6.78 518.79 5.94
7/9/2021 12:15:00 PM 22.73 72.914 0.08 6.79 547.03 4.99
7/9/2021 12:30:00 PM 22.83 73.094 0.08 6.77 623.75 4.76
7/9/2021 12:45:00 PM 22.94 73.292 0.08 6.79 570.33 2.81
7/9/2021 1:00:00 PM 23.07 73.526 0.079 6.81 481.92 2.65
7/9/2021 1:15:00 PM 23.23 73.814 0.079 6.84 470.77 2.75
7/9/2021 1:30:00 PM 23.36 74.048 0.079 6.86 388.92 3.32
7/9/2021 1:45:00 PM 23.49 74.282 0.079 6.87 349.12 4.19
7/9/2021 2:00:00 PM 23.65 74.57 0.079 6.87 393.25 3.82
7/9/2021 2:15:00 PM 23.81 74.858 0.079 6.91 379.4 4.54
7/9/2021 2:30:00 PM 23.96 75.128 0.079 6.88 421.01 3.97
7/9/2021 2:45:00 PM 24.06 75.308 0.079 6.93 456.45 4.37
7/9/2021 3:00:00 PM 24.12 75.416 0.079 6.95 456.56 5.24
7/9/2021 3:15:00 PM 24.19 75.542 0.079 6.95 473.98 3.3
7/9/2021 3:30:00 PM 24.24 75.632 0.079 6.96 562.95 4.36
7/9/2021 3:45:00 PM 24.28 75.704 0.079 6.94 530.15 4.5
7/9/2021 4:00:00 PM 24.31 75.758 0.079 6.98 595.43 4.51
7/9/2021 4:15:00 PM 24.33 75.794 0.079 6.93 644.51 4.27
7/9/2021 4:30:00 PM 24.34 75.812 0.079 6.98 725.79 3.46
7/9/2021 4:45:00 PM 24.33 75.794 0.079 6.92 725.69 3.52
7/9/2021 5:00:00 PM 24.34 75.812 0.079 6.99 755.55 3.41
7/9/2021 5:15:00 PM 24.35 75.83 0.079 6.98 767.35 3.11
7/9/2021 5:30:00 PM 24.35 75.83 0.079 6.97 792.85 3.26
7/9/2021 5:45:00 PM 24.36 75.848 0.079 6.9 745.26 3.66
7/9/2021 6:00:00 PM 24.34 75.812 0.079 6.97 827.03 3.74
7/9/2021 6:15:00 PM 24.33 75.794 0.079 6.96 809.08 2.87
7/9/2021 6:30:00 PM 24.32 75.776 0.08 7.01 802.18 3.69
7/9/2021 6:45:00 PM 24.31 75.758 0.08 6.93 789.35 3.88
7/9/2021 7:00:00 PM 24.29 75.722 0.08 6.89 606.75 2.86
7/9/2021 7:15:00 PM 24.27 75.686 0.08 6.94 816.55 3.88
7/9/2021 7:30:00 PM 24.26 75.668 0.08 6.88 943.88 5.97
7/9/2021 7:45:00 PM 24.24 75.632 0.08 6.93 1031.96 6.36
7/9/2021 8:00:00 PM 24.22 75.596 0.061 6.87 1214.49 6.03
7/9/2021 8:15:00 PM 24.2 75.56 0.08 6.92 1209.52 6.12
7/9/2021 8:30:00 PM 24.18 75.524 0.08 6.92 1145.85 5.97
7/9/2021 8:45:00 PM 24.15 75.47 0.08 6.87 1024.27 5.87
7/9/2021 9:00:00 PM 24.12 75.416 0.08 6.9 908.83 5.66
7/9/2021 9:15:00 PM 24.08 75.344 0.08 6.87 856.01 5.71
7/9/2021 9:30:00 PM 24.04 75.272 0.08 6.86 867.75 5.79
7/9/2021 9:45:00 PM 23.99 75.182 0.08 6.86 784.3 5.56
7/9/2021 10:00:00 PM 23.95 75.11 0.08 6.78 700 5.49
7/9/2021 10:15:00 PM 23.9 75.02 0.08 6.84 612.41 4.89
7/9/2021 10:30:00 PM 23.85 74.93 0.08 6.83 535.56 4.61
7/9/2021 10:45:00 PM 23.78 74.804 0.08 6.82 607.25 4.83
7/9/2021 11:00:00 PM 23.73 74.714 0.08 6.73 613.39 5.18
7/9/2021 11:15:00 PM 23.66 74.588 0.08 6.79 548.61 5
7/9/2021 11:30:00 PM 23.61 74.498 0.08 6.81 557.24 4.5
7/9/2021 11:45:00 PM 23.54 74.372 0.08 6.78 618.31 4.75
7/10/2021 12:00:00 AM 23.48 74.264 0.08 6.77 693.24 4.89
7/10/2021 12:15:00 AM 23.43 74.174 0.08 6.77 708.38 4.66
7/10/2021 12:30:00 AM 23.38 74.084 0.08 6.77 760.53 4.84
7/10/2021 12:45:00 AM 23.32 73.976 0.08 6.76 865.49 4.54
7/10/2021 1:00:00 AM 23.28 73.904 0.08 6.72 913.11 4.34
7/10/2021 1:15:00 AM 23.24 73.832 0.08 6.76 1021.01 4.18
7/10/2021 1:30:00 AM 23.2 73.76 0.08 6.72 927.88 4.2
7/10/2021 1:45:00 AM 23.17 73.706 0.08 6.74 940.38 3.98
7/10/2021 2:00:00 AM 23.12 73.616 0.08 6.73 914.28 4.17
7/10/2021 2:15:00 AM 23.09 73.562 0.08 6.72 520.21 4.02
7/10/2021 2:30:00 AM 23.05 73.49 0.08 6.69 475.39 4.2
7/10/2021 2:45:00 AM 23.02 73.436 0.08 6.68 498.92 3.67
7/10/2021 3:00:00 AM 22.98 73.364 0.08 6.71 465.11 3.33
7/10/2021 3:15:00 AM 22.95 73.31 0.08 6.7 404.09 3.27
7/10/2021 3:30:00 AM 22.91 73.238 0.08 6.69 399.84 3.39
7/10/2021 3:45:00 AM 22.88 73.184 0.08 6.64 391.51 3.24
7/10/2021 4:00:00 AM 22.84 73.112 0.08 6.67 425.02 3.05
7/10/2021 4:15:00 AM 22.81 73.058 0.081 6.76 458.74 2.23
7/10/2021 4:30:00 AM 22.77 72.986 0.081 6.69 436.72 1.67
7/10/2021 4:45:00 AM 22.73 72.914 0.081 6.71 404.26 1.57
7/10/2021 5:00:00 AM 22.7 72.86 0.081 6.68 372.19 2.35
7/10/2021 5:15:00 AM 22.67 72.806 0.081 6.69 299.86 2.03
7/10/2021 5:30:00 AM 22.63 72.734 0.081 6.69 296.9 2.2
7/10/2021 5:45:00 AM 22.6 72.68 0.081 6.7 286.17 2.15
7/10/2021 6:00:00 AM 22.58 72.644 0.081 6.66 304.01 3.23
7/10/2021 6:15:00 AM 22.55 72.59 0.081 6.67 283.35 2.7
7/10/2021 6:30:00 AM 22.53 72.554 0.081 6.68 288.95 2.52
7/10/2021 6:45:00 AM 22.5 72.5 0.081 6.61 290.37 2.24
7/10/2021 7:00:00 AM 22.48 72.464 0.081 6.68 318.07 1.81
7/10/2021 7:15:00 AM 22.46 72.42799 0.081 6.67 285.08 2.54
7/10/2021 7:30:00 AM 22.44 72.392 0.081 6.64 246.64 2.49
7/10/2021 7:45:00 AM 22.42 72.356 0.081 6.67 232.71 2.6
7/10/2021 8:00:00 AM 22.4 72.32 0.081 6.68 243.47 2.67
7/10/2021 8:15:00 AM 22.39 72.302 0.081 6.69 247.42 2.86
7/10/2021 8:30:00 AM 22.37 72.266 0.081 6.69 248.99 2.53
7/10/2021 8:45:00 AM 22.36 72.248 0.081 6.62 242.16 2.63
7/10/2021 9:00:00 AM 22.36 72.248 0.081 6.64 238.11 2.39
7/10/2021 9:15:00 AM 22.36 72.248 0.081 6.71 245.89 2
7/10/2021 9:30:00 AM 22.36 72.248 0.081 6.66 240.23 2.05
7/10/2021 9:45:00 AM 22.37 72.266 0.081 6.7 230.88 2.21
7/10/2021 10:00:00 AM 22.38 72.284 0.081 6.71 239.43 2.41
7/10/2021 10:15:00 AM 22.39 72.302 0.081 6.72 237.9 2.61
7/10/2021 10:30:00 AM 22.4 72.32 0.081 6.71 245.45 2.91
7/10/2021 10:45:00 AM 22.42 72.356 0.081 6.73 250.67 2.93
7/10/2021 11:00:00 AM 22.45 72.41 0.081 6.72 255.82 2.97
7/10/2021 11:15:00 AM 22.46 72.42799 0.081 6.74 252.68 3.19
7/10/2021 11:30:00 AM 22.48 72.464 0.081 6.75 261.88 3.59
7/10/2021 11:45:00 AM 22.51 72.518 0.081 6.76 257.8 3.89
7/10/2021 12:00:00 PM 22.53 72.554 0.081 6.77 253.26 3.76
7/10/2021 12:15:00 PM 22.57 72.626 0.081 6.79 246.44 4.09
7/10/2021 12:30:00 PM 22.62 72.716 0.081 6.79 240.39 4.35
7/10/2021 12:45:00 PM 22.67 72.806 0.081 6.8 238.41 4.86
7/10/2021 1:00:00 PM 22.7 72.86 0.081 6.8 248.74 4.65
7/10/2021 1:15:00 PM 22.72 72.896 0.081 6.83 254.19 4.76
7/10/2021 1:30:00 PM 22.77 72.986 0.081 6.84 241.07 5.32
7/10/2021 1:45:00 PM 22.81 73.058 0.081 6.84 235.71 5.22
7/10/2021 2:00:00 PM 22.87 73.166 0.08 6.86 229.17 5.65
7/10/2021 2:15:00 PM 22.96 73.328 0.08 6.88 243.54 5.79
7/10/2021 2:30:00 PM 23.02 73.436 0.08 6.88 253.05 5.67
7/10/2021 2:45:00 PM 23.08 73.544 0.08 6.9 252.56 5.81
7/10/2021 3:00:00 PM 23.15 73.67 0.08 6.92 239.03 5.82
7/10/2021 3:15:00 PM 23.22 73.796 0.08 6.96 233 6.03
7/10/2021 3:30:00 PM 23.3 73.94 0.08 6.94 227.82 6.32
7/10/2021 3:45:00 PM 23.4 74.12 0.08 6.96 228.24 6.59
7/10/2021 4:00:00 PM 23.5 74.3 0.08 7 226.41 6.6
7/10/2021 4:15:00 PM 23.59 74.462 0.08 7.02 231.97 6.77
7/10/2021 4:30:00 PM 23.67 74.606 0.08 7.03 240.39 6.69
7/10/2021 4:45:00 PM 23.75 74.75 0.08 7.04 246.61 6.76
7/10/2021 5:00:00 PM 23.82 74.876 0.08 7.05 245.7 6.8
7/10/2021 5:15:00 PM 23.88 74.984 0.08 7.07 251.45 6.66
7/10/2021 5:30:00 PM 23.95 75.11 0.08 7.07 265.16 6.9
7/10/2021 5:45:00 PM 23.98 75.164 0.08 7.07 267.69 7.06
7/10/2021 6:00:00 PM 24.02 75.236 0.08 7.09 265.34 7.15
7/10/2021 6:15:00 PM 24.03 75.254 0.08 7.09 279.73 6.35
7/10/2021 6:30:00 PM 24.01 75.218 0.08 7.08 265.17 6.51
7/10/2021 6:45:00 PM 23.99 75.182 0.08 7.07 258.47 6.96
7/10/2021 7:00:00 PM 23.96 75.128 0.08 7.02 256.33 7.23
7/10/2021 7:15:00 PM 23.93 75.074 0.08 7.07 255.77 6.95
7/10/2021 7:30:00 PM 23.89 75.002 0.08 7.04 270.59 7.18
7/10/2021 7:45:00 PM 23.85 74.93 0.08 7.06 261.38 6.9
7/10/2021 8:00:00 PM 23.79 74.82201 0.08 7.04 270.89 6.71
7/10/2021 8:15:00 PM 23.72 74.696 0.08 7.03 277.35 6.29
7/10/2021 8:30:00 PM 23.64 74.552 0.075 7.02 284.82 4.87
7/10/2021 8:45:00 PM 23.55 74.39 0.08 6.99 275.16 5.05
7/10/2021 9:00:00 PM 23.45 74.21 0.08 7.01 266.72 5.39
7/10/2021 9:15:00 PM 23.36 74.048 0.08 6.98 257.94 5.32
7/10/2021 9:30:00 PM 23.27 73.886 0.08 6.92 263.06 5.85
7/10/2021 9:45:00 PM 23.19 73.742 0.08 6.92 259.14 6.13
7/10/2021 10:00:00 PM 23.09 73.562 0.08 6.9 258.15 5.87
7/10/2021 10:15:00 PM 23.01 73.418 0.08 6.87 252.36 5.68
7/10/2021 10:30:00 PM 22.93 73.274 0.08 6.89 236.84 5.37
7/10/2021 10:45:00 PM 22.84 73.112 0.08 6.84 245.14 5.15
7/10/2021 11:00:00 PM 22.76 72.968 0.081 6.84 245.37 4.42
7/10/2021 11:15:00 PM 22.68 72.824 0.081 6.82 222.96 5.01
7/10/2021 11:30:00 PM 22.6 72.68 0.081 6.83 222.87 5.08
7/10/2021 11:45:00 PM 22.53 72.554 0.081 6.78 217.27 5.14
7/11/2021 12:00:00 AM 22.45 72.41 0.081 6.78 212.12 4.89
7/11/2021 12:15:00 AM 22.4 72.32 0.081 6.8 218 4.66
7/11/2021 12:30:00 AM 22.34 72.212 0.081 6.81 225.45 5.01
7/11/2021 12:45:00 AM 22.3 72.14 0.081 6.76 217.96 4.84
7/11/2021 1:00:00 AM 22.25 72.05 0.081 6.76 218.77 4.92
7/11/2021 1:15:00 AM 22.22 71.996 0.081 6.76 220.36 4.79
7/11/2021 1:30:00 AM 22.18 71.924 0.081 6.71 218.73 4.83
7/11/2021 1:45:00 AM 22.15 71.87 0.081 6.75 217.26 5.08
7/11/2021 2:00:00 AM 22.12 71.816 0.081 6.72 219.17 5.04
7/11/2021 2:15:00 AM 22.09 71.762 0.081 6.72 210.24 4.87
7/11/2021 2:30:00 AM 22.05 71.69 0.081 6.66 225.23 4.82
7/11/2021 2:45:00 AM 22.02 71.636 0.081 6.72 222.48 4.83
7/11/2021 3:00:00 AM 21.99 71.582 0.081 6.69 221.31 4.77
7/11/2021 3:15:00 AM 21.95 71.51 0.081 6.7 222.26 4.77
7/11/2021 3:30:00 AM 21.91 71.438 0.081 6.7 226 4.54
7/11/2021 3:45:00 AM 21.86 71.348 0.081 6.7 233.15 4.62
7/11/2021 4:00:00 AM 21.81 71.258 0.081 6.7 229.81 4.52
7/11/2021 4:15:00 AM 21.77 71.186 0.081 6.69 233.45 4.6
7/11/2021 4:30:00 AM 21.71 71.078 0.081 6.68 244.09 4.53
7/11/2021 4:45:00 AM 21.66 70.988 0.081 6.7 256.54 4.18
7/11/2021 5:00:00 AM 21.62 70.916 0.081 6.68 249.08 4.64
7/11/2021 5:15:00 AM 21.57 70.826 0.081 6.71 237.39 3.51
7/11/2021 5:30:00 AM 21.52 70.736 0.081 6.68 230.84 3.22
7/11/2021 5:45:00 AM 21.48 70.664 0.081 6.67 237.8 3.32
7/11/2021 6:00:00 AM 21.43 70.574 0.081 6.65 244.33 3.4
7/11/2021 6:15:00 AM 21.38 70.484 0.081 6.63 245.43 3.63
7/11/2021 6:30:00 AM 21.35 70.43 0.081 6.69 241.24 3.15
7/11/2021 6:45:00 AM 21.31 70.358 0.081 6.68 258.97 2.96
7/11/2021 7:00:00 AM 21.27 70.286 0.081 6.65 261.26 3.04
7/11/2021 7:15:00 AM 21.24 70.232 0.081 6.62 260.81 3.38
7/11/2021 7:30:00 AM 21.21 70.17799 0.081 6.64 262.08 3.26
7/11/2021 7:45:00 AM 21.19 70.142 0.082 6.64 283.97 3.3
7/11/2021 8:00:00 AM 21.17 70.106 0.081 6.63 281.96 3.27
7/11/2021 8:15:00 AM 21.16 70.088 0.081 6.67 301.51 3.43
7/11/2021 8:30:00 AM 21.15 70.07 0.081 6.66 305.19 3.05
7/11/2021 8:45:00 AM 21.14 70.052 0.081 6.66 296.95 2.21
7/11/2021 9:00:00 AM 21.14 70.052 0.081 6.65 294.16 2.57
7/11/2021 9:15:00 AM 21.15 70.07 0.081 6.63 296.69 3.05
7/11/2021 9:30:00 AM 21.16 70.088 0.081 6.68 312.16 3.72
7/11/2021 9:45:00 AM 21.17 70.106 0.081 6.68 308.47 3.79
7/11/2021 10:00:00 AM 21.18 70.124 0.081 6.67 312.33 3.14
7/11/2021 10:15:00 AM 21.2 70.16 0.081 6.68 311.23 3.88
7/11/2021 10:30:00 AM 21.21 70.17799 0.081 6.67 318.1 4.05
7/11/2021 10:45:00 AM 21.23 70.214 0.081 6.71 318.06 3.91
7/11/2021 11:00:00 AM 21.24 70.232 0.081 6.69 305.77 3.76
7/11/2021 11:15:00 AM 21.26 70.268 0.081 6.7 283.95 3.72
7/11/2021 11:30:00 AM 21.27 70.286 0.081 6.72 296.23 3.41
7/11/2021 11:45:00 AM 21.28 70.304 0.081 6.73 302.15 3.89
7/11/2021 12:00:00 PM 21.3 70.34 0.082 6.7 287.27 5.19
7/11/2021 12:15:00 PM 21.3 70.34 0.081 6.72 290.76 5.31
7/11/2021 12:30:00 PM 21.3 70.34 0.082 6.75 293.95 5.32
7/11/2021 12:45:00 PM 21.31 70.358 0.081 6.76 254.83 5.17
7/11/2021 1:00:00 PM 21.32 70.376 0.081 6.72 283.08 4.96
7/11/2021 1:15:00 PM 21.33 70.394 0.081 6.75 274.13 4.06
7/11/2021 1:30:00 PM 21.34 70.412 0.081 6.73 283.78 3.62
7/11/2021 1:45:00 PM 21.35 70.43 0.081 6.76 285.06 4.07
7/11/2021 2:00:00 PM 21.37 70.466 0.081 6.75 282.03 4.5
7/11/2021 2:15:00 PM 21.4 70.52 0.081 6.77 275.86 5.01
7/11/2021 2:30:00 PM 21.43 70.574 0.081 6.76 283.26 5.56
7/11/2021 2:45:00 PM 21.46 70.628 0.081 6.77 286.44 5.1
7/11/2021 3:00:00 PM 21.48 70.664 0.081 6.77 272.18 5.25
7/11/2021 3:15:00 PM 21.51 70.718 0.081 6.78 274.82 5.27
7/11/2021 3:30:00 PM 21.53 70.754 0.081 6.78 277.61 4.92
7/11/2021 3:45:00 PM 21.56 70.808 0.081 6.78 279.27 5.08
7/11/2021 4:00:00 PM 21.59 70.862 0.081 6.79 278.58 5.2
7/11/2021 4:15:00 PM 21.63 70.934 0.081 6.78 276.31 5.06
7/11/2021 4:30:00 PM 21.66 70.988 0.081 6.8 277.55 5.67
7/11/2021 4:45:00 PM 21.69 71.042 0.081 6.81 277.06 5.62
7/11/2021 5:00:00 PM 21.7 71.06 0.081 6.81 272.68 5.37
7/11/2021 5:15:00 PM 21.72 71.096 0.081 6.85 271.62 3.17
7/11/2021 5:30:00 PM 21.74 71.132 0.081 6.82 264.68 4.24
7/11/2021 5:45:00 PM 21.75 71.15 0.081 6.83 267.13 4.12
7/11/2021 6:00:00 PM 21.76 71.168 0.081 6.85 279.6 4.7
7/11/2021 6:15:00 PM 21.78 71.204 0.081 6.85 280.64 5.36
7/11/2021 6:30:00 PM 21.79 71.222 0.081 6.87 296.4 3.89
7/11/2021 6:45:00 PM 21.8 71.24 0.081 6.85 324.1 5.45
7/11/2021 7:00:00 PM 21.8 71.24 0.081 6.85 326.36 4.55
7/11/2021 7:15:00 PM 21.81 71.258 0.081 6.85 320.74 4.24
7/11/2021 7:30:00 PM 21.81 71.258 0.081 6.87 325.34 4.28
7/11/2021 7:45:00 PM 21.81 71.258 0.081 6.85 319.4 4.26
7/11/2021 8:00:00 PM 21.8 71.24 0.081 6.84 323.91 4.35
7/11/2021 8:15:00 PM 21.79 71.222 0.081 6.85 340.56 4.05
7/11/2021 8:30:00 PM 21.78 71.204 0.081 6.83 357.9 2.51
7/11/2021 8:45:00 PM 21.76 71.168 0.081 6.85 354.07 2.78
7/11/2021 9:00:00 PM 21.73 71.114 0.081 6.83 378.81 3.17
7/11/2021 9:15:00 PM 21.7 71.06 0.081 6.85 401.57 3.4
7/11/2021 9:30:00 PM 21.67 71.006 0.081 6.8 413.73 2.46
7/11/2021 9:45:00 PM 21.63 70.934 0.081 6.8 391.42 2.75
7/11/2021 10:00:00 PM 21.6 70.88 0.081 6.79 418.59 3.05
7/11/2021 10:15:00 PM 21.57 70.826 0.082 6.8 433.16 2.96
7/11/2021 10:30:00 PM 21.54 70.772 0.081 6.78 470.32 2.9
7/11/2021 10:45:00 PM 21.51 70.718 0.081 6.78 460.78 2.65
7/11/2021 11:00:00 PM 21.48 70.664 0.081 6.78 472.71 2.54
7/11/2021 11:15:00 PM 21.45 70.61 0.081 6.79 478.34 2.43
7/11/2021 11:30:00 PM 21.42 70.556 0.081 6.76 466.41 2.95
7/11/2021 11:45:00 PM 21.39 70.502 0.081 6.77 467.9 2.16
7/12/2021 12:00:00 AM 21.36 70.448 0.081 6.72 478.43 2.71
7/12/2021 12:15:00 AM 21.33 70.394 0.081 6.77 451.68 3.13
7/12/2021 12:30:00 AM 21.3 70.34 0.081 6.75 454.19 2.95
7/12/2021 12:45:00 AM 21.27 70.286 0.081 6.76 480.4 3.41
7/12/2021 1:00:00 AM 21.24 70.232 0.081 6.71 491.84 3.41
7/12/2021 1:15:00 AM 21.2 70.16 0.081 6.73 459.39 4.09
7/12/2021 1:30:00 AM 21.16 70.088 0.08 6.73 444.1 2.4
7/12/2021 1:45:00 AM 21.13 70.034 0.08 6.72 447.1 2.6
7/12/2021 2:00:00 AM 21.1 69.98 0.081 6.72 443.51 3.11
7/12/2021 2:15:00 AM 21.07 69.926 0.081 6.73 457.75 3.31
7/12/2021 2:30:00 AM 21.04 69.872 0.081 6.68 427.51 2.9
7/12/2021 2:45:00 AM 21.02 69.836 0.081 6.71 442.18 3.09
7/12/2021 3:00:00 AM 21 69.8 0.081 6.66 439.08 2.64
7/12/2021 3:15:00 AM 20.98 69.764 0.081 6.74 457.02 2.42
7/12/2021 3:30:00 AM 20.96 69.728 0.081 6.72 464.46 3.14
7/12/2021 3:45:00 AM 20.94 69.692 0.081 6.7 457.94 2.88
7/12/2021 4:00:00 AM 20.91 69.638 0.081 6.69 479.2 3.44
7/12/2021 4:15:00 AM 20.89 69.602 0.081 6.68 454.98 2.93
7/12/2021 4:30:00 AM 20.87 69.566 0.081 6.69 469.53 2.65
7/12/2021 4:45:00 AM 20.85 69.53 0.081 6.68 468.97 3.11
7/12/2021 5:00:00 AM 20.83 69.494 0.081 6.69 497.77 3.29
7/12/2021 5:15:00 AM 20.8 69.44 0.081 6.72 485.24 1.22
7/12/2021 5:30:00 AM 20.78 69.404 0.081 6.66 469.49 0.78
7/12/2021 5:45:00 AM 20.75 69.35 0.081 6.71 475.56 1.12
7/12/2021 6:00:00 AM 20.73 69.314 0.081 6.69 475.56 1.1
7/12/2021 6:15:00 AM 20.7 69.26 0.081 6.66 488.47 1.35
7/12/2021 6:30:00 AM 20.67 69.206 0.082 6.69 487.66 1.14
7/12/2021 6:45:00 AM 20.64 69.152 0.082 6.65 484.31 1.22
7/12/2021 7:00:00 AM 20.61 69.098 0.082 6.66 490.39 1.11
7/12/2021 7:15:00 AM 20.57 69.026 0.082 6.65 492.95 2.03
7/12/2021 7:30:00 AM 20.55 68.99 0.082 6.64 489.71 2.77
7/12/2021 7:45:00 AM 20.53 68.954 0.082 6.64 486.9 2.04
7/12/2021 8:00:00 AM 20.52 68.936 0.082 6.67 460.99 2.52
7/12/2021 8:15:00 AM 20.51 68.918 0.082 6.66 470.74 2.11
7/12/2021 8:30:00 AM 20.51 68.918 0.082 6.66 494.65 2.18
7/12/2021 8:45:00 AM 20.52 68.936 0.082 6.68 489.09 2.25
7/12/2021 9:00:00 AM 20.53 68.954 0.082 6.67 487.2 2.82
7/12/2021 9:15:00 AM 20.54 68.972 0.082 6.67 468.99 2.87
7/12/2021 9:30:00 AM 20.56 69.008 0.082 6.68 487.59 2.82
7/12/2021 9:45:00 AM 20.58 69.044 0.082 6.65 492.29 2.85
7/12/2021 10:00:00 AM 20.61 69.098 0.082 6.68 496.75 5.41
7/12/2021 10:15:00 AM 20.65 69.17 0.082 6.71 498 5.79
7/12/2021 10:30:00 AM 20.68 69.224 0.083 6.7 513.26 6.28
7/12/2021 10:45:00 AM 20.72 69.296 0.083 6.69 535.51 6.42
7/12/2021 11:00:00 AM 20.76 69.368 0.083 6.69 520.57 6.56
7/12/2021 11:15:00 AM 20.8 69.44 0.083 6.67 445.24 6.58
7/12/2021 11:30:00 AM 20.83 69.494 0.083 6.66 409.35 6.66
7/12/2021 11:45:00 AM 20.87 69.566 0.083 6.73 402.93 6.7
7/12/2021 12:00:00 PM 20.93 69.674 0.083 6.71 394.27 6.88
7/12/2021 12:15:00 PM 21 69.8 0.083 6.77 410.26 7.04
7/12/2021 12:30:00 PM 21.08 69.944 0.083 6.71 433.07 7.1
7/12/2021 12:45:00 PM 21.17 70.106 0.083 6.75 446.49 7.26
7/12/2021 1:00:00 PM 21.28 70.304 0.083 6.75 448.88 7.39
7/12/2021 1:15:00 PM 21.36 70.448 0.083 6.79 444.43 7.48
7/12/2021 1:30:00 PM 21.44 70.592 0.083 6.74 455.84 7.61
7/12/2021 1:45:00 PM 21.54 70.772 0.083 6.8 492.96 7.78
7/12/2021 2:00:00 PM 21.7 71.06 0.083 6.8 513.02 7.93
7/12/2021 2:15:00 PM 21.85 71.33 0.083 6.79 562.99 8.06
7/12/2021 2:30:00 PM 21.98 71.564 0.083 6.84 575.7 8.17
7/12/2021 2:45:00 PM 22.1 71.78 0.083 6.86 561.81 8.2
7/12/2021 3:00:00 PM 22.23 72.014 0.083 6.88 611.94 8.44
7/12/2021 3:15:00 PM 22.36 72.248 0.083 6.88 583.76 8.49
7/12/2021 3:30:00 PM 22.45 72.41 0.081 6.92 591.05 8.57
7/12/2021 3:45:00 PM 22.52 72.536 0.083 6.9 568.12 8.63
7/12/2021 4:00:00 PM 22.61 72.698 0.083 6.92 576.61 8.73
7/12/2021 4:15:00 PM 22.71 72.878 0.083 6.91 555.27 8.82
7/12/2021 4:30:00 PM 22.81 73.058 0.083 6.95 565.83 8.8
7/12/2021 4:45:00 PM 22.89 73.202 0.082 6.97 528.59 8.89
7/12/2021 5:00:00 PM 22.95 73.31 0.082 6.96 565.73 8.78
7/12/2021 5:15:00 PM 23.04 73.472 0.082 6.96 619.75 8.79
7/12/2021 5:30:00 PM 23.12 73.616 0.082 6.92 531.73 8.94
7/12/2021 5:45:00 PM 23.21 73.778 0.082 6.96 534.43 8.98
7/12/2021 6:00:00 PM 23.28 73.904 0.082 6.97 587.11 8.98
7/12/2021 6:15:00 PM 23.34 74.012 0.082 7 553.21 8.96
7/12/2021 6:30:00 PM 23.38 74.084 0.078 6.97 563.81 8.92
7/12/2021 6:45:00 PM 23.39 74.102 0.082 6.96 597.59 8.82
7/12/2021 7:00:00 PM 23.38 74.084 0.082 6.99 577.27 8.7
7/12/2021 7:15:00 PM 23.36 74.048 0.082 6.95 531.14 8.56
7/12/2021 7:30:00 PM 23.33 73.994 0.082 6.97 617.49 8.39
7/12/2021 7:45:00 PM 23.29 73.922 0.082 6.92 616.21 8.22
7/12/2021 8:00:00 PM 23.25 73.85 0.082 6.92 601.27 8.05
7/12/2021 8:15:00 PM 23.22 73.796 0.082 6.91 561.5 7.88
7/12/2021 8:30:00 PM 23.18 73.724 0.082 6.89 573.41 7.7
7/12/2021 8:45:00 PM 23.14 73.652 0.082 6.84 565.72 7.56
7/12/2021 9:00:00 PM 23.11 73.598 0.082 6.85 559.99 7.4
7/12/2021 9:15:00 PM 23.07 73.526 0.082 6.75 586.58 7.29
7/12/2021 9:30:00 PM 23.01 73.418 0.082 6.79 628.8 7.16
7/12/2021 9:45:00 PM 22.95 73.31 0.082 6.78 636.78 7.03
7/12/2021 10:00:00 PM 22.88 73.184 0.082 6.77 650.41 6.93
7/12/2021 10:15:00 PM 22.81 73.058 0.082 6.76 582.01 6.82
7/12/2021 10:30:00 PM 22.73 72.914 0.082 6.72 608.49 6.71
7/12/2021 10:45:00 PM 22.65 72.77 0.082 6.74 577.65 6.64
7/12/2021 11:00:00 PM 22.55 72.59 0.082 6.74 561 6.57
7/12/2021 11:15:00 PM 22.46 72.42799 0.082 6.72 591.36 6.51
7/12/2021 11:30:00 PM 22.36 72.248 0.081 6.69 547.65 6.54
7/12/2021 11:45:00 PM 22.23 72.014 0.08 6.75 573.25 6.67
7/13/2021 12:00:00 AM 22.1 71.78 0.08 6.71 620.78 6.59
7/13/2021 12:15:00 AM 21.99 71.582 0.079 6.69 605.63 6.63
7/13/2021 12:30:00 AM 21.89 71.402 0.079 6.75 548.42 6.64
7/13/2021 12:45:00 AM 21.8 71.24 0.078 6.73 520.71 6.63
7/13/2021 1:00:00 AM 21.73 71.114 0.078 6.74 551.86 6.6
7/13/2021 1:15:00 AM 21.66 70.988 0.078 6.72 603.27 6.58
7/13/2021 1:30:00 AM 21.59 70.862 0.078 6.71 589.53 6.54
7/13/2021 1:45:00 AM 21.52 70.736 0.078 6.71 611.9 6.48
7/13/2021 2:00:00 AM 21.44 70.592 0.078 6.68 695.17 6.41
7/13/2021 2:15:00 AM 21.35 70.43 0.078 6.69 756.34 6.33
7/13/2021 2:30:00 AM 21.25 70.25 0.078 6.7 750.75 6.3
7/13/2021 2:45:00 AM 21.17 70.106 0.078 6.64 677.11 6.27
7/13/2021 3:00:00 AM 21.07 69.926 0.077 6.64 634.24 6.24
7/13/2021 3:15:00 AM 21 69.8 0.077 6.67 629.2 6.09
7/13/2021 3:30:00 AM 20.91 69.638 0.077 6.6 657.34 6.19
7/13/2021 3:45:00 AM 20.85 69.53 0.077 6.62 643.4 6.15
7/13/2021 4:00:00 AM 20.79 69.422 0.077 6.64 645.51 6.13
7/13/2021 4:15:00 AM 20.74 69.332 0.077 6.57 650.86 6.1
7/13/2021 4:30:00 AM 20.69 69.242 0.077 6.58 629.29 6.08
7/13/2021 4:45:00 AM 20.65 69.17 0.077 6.6 564.62 6.04
7/13/2021 5:00:00 AM 20.6 69.08 0.077 6.61 565.02 6.02
7/13/2021 5:15:00 AM 20.57 69.026 0.078 6.59 585.78 5.95
7/13/2021 5:30:00 AM 20.54 68.972 0.078 6.43 531.61 5.92
7/13/2021 5:45:00 AM 20.51 68.918 0.079 6.51 554.13 5.9
7/13/2021 6:00:00 AM 20.5 68.9 0.079 6.54 540.62 5.85
7/13/2021 6:15:00 AM 20.49 68.882 0.079 6.53 529.98 5.8
7/13/2021 6:30:00 AM 20.49 68.882 0.08 6.53 538.65 5.83
7/13/2021 6:45:00 AM 20.49 68.882 0.08 6.54 546.65 5.79
7/13/2021 7:00:00 AM 20.5 68.9 0.08 6.55 503.16 5.73
7/13/2021 7:15:00 AM 20.52 68.936 0.08 6.56 486.23 5.74
7/13/2021 7:30:00 AM 20.53 68.954 0.08 6.59 461.81 5.74
7/13/2021 7:45:00 AM 20.55 68.99 0.08 6.59 473.28 5.71
7/13/2021 8:00:00 AM 20.56 69.008 0.08 6.59 474.9 5.73
7/13/2021 8:15:00 AM 20.57 69.026 0.08 6.62 509.14 5.71
7/13/2021 8:30:00 AM 20.59 69.062 0.08 6.6 490.41 5.66
7/13/2021 8:45:00 AM 20.6 69.08 0.08 6.59 490.22 5.71
7/13/2021 9:00:00 AM 20.62 69.116 0.08 6.6 434.37 5.71
7/13/2021 9:15:00 AM 20.64 69.152 0.08 6.59 429.5 5.8
7/13/2021 9:30:00 AM 20.66 69.188 0.08 6.6 426.59 5.78
7/13/2021 9:45:00 AM 20.68 69.224 0.08 6.61 405.78 5
7/13/2021 10:00:00 AM 20.71 69.278 0.08 6.61 417.7 5.14
7/13/2021 10:15:00 AM 20.73 69.314 0.08 6.6 460.41 5.11
7/13/2021 10:30:00 AM 20.76 69.368 0.08 6.61 481.05 3.54
7/13/2021 10:45:00 AM 20.8 69.44 0.08 6.61 420.67 2.84
7/13/2021 11:00:00 AM 20.84 69.512 0.079 6.62 360.21 2.82
7/13/2021 11:15:00 AM 20.89 69.602 0.079 6.62 460.7 2.16
7/13/2021 11:30:00 AM 20.93 69.674 0.079 6.63 494.69 3.28
7/13/2021 11:45:00 AM 20.99 69.782 0.079 6.62 513 6.32
7/13/2021 12:00:00 PM 21.03 69.854 0.079 6.64 447.81 6.4
7/13/2021 12:15:00 PM 21.08 69.944 0.079 6.65 448.37 6.45
7/13/2021 12:30:00 PM 21.13 70.034 0.079 6.64 434.72 6.52
7/13/2021 12:45:00 PM 21.19 70.142 0.079 6.66 440.62 6.51
7/13/2021 1:00:00 PM 21.24 70.232 0.079 6.66 438.94 6.63
7/13/2021 1:15:00 PM 21.29 70.32201 0.079 6.66 441.53 6.69
7/13/2021 1:30:00 PM 21.35 70.43 0.079 6.66 430.12 6.76
7/13/2021 1:45:00 PM 21.39 70.502 0.079 6.67 420.76 6.82
7/13/2021 2:00:00 PM 21.46 70.628 0.079 6.68 409.77 6.86
7/13/2021 2:15:00 PM 21.52 70.736 0.08 6.68 378.44 6.89
7/13/2021 2:30:00 PM 21.58 70.844 0.076 6.69 337.83 6.9
7/13/2021 2:45:00 PM 21.66 70.988 0.08 6.68 321.92 6.98
7/13/2021 3:00:00 PM 21.74 71.132 0.08 6.71 305.04 7.03
7/13/2021 3:15:00 PM 21.81 71.258 0.08 6.7 307.91 7.12
7/13/2021 3:30:00 PM 21.9 71.42 0.08 6.75 302.2 7.23
7/13/2021 3:45:00 PM 22.03 71.654 0.08 6.73 296.96 7.31
7/13/2021 4:00:00 PM 22.17 71.906 0.079 6.74 283.86 7.47
7/13/2021 4:15:00 PM 22.28 72.104 0.08 6.76 267.26 7.54
7/13/2021 4:30:00 PM 22.39 72.302 0.08 6.77 290.38 7.67
7/13/2021 4:45:00 PM 22.49 72.482 0.08 6.8 278.11 7.75
7/13/2021 5:00:00 PM 22.6 72.68 0.08 6.8 272.42 7.77
7/13/2021 5:15:00 PM 22.7 72.86 0.08 6.8 286.4 7.8
7/13/2021 5:30:00 PM 22.77 72.986 0.08 6.8 298.21 7.77
7/13/2021 5:45:00 PM 22.81 73.058 0.08 6.82 313.79 7.76
7/13/2021 6:00:00 PM 22.8 73.04 0.08 6.83 323.83 7.7
7/13/2021 6:15:00 PM 22.78 73.004 0.08 6.81 323.22 7.63
7/13/2021 6:30:00 PM 22.75 72.95 0.08 6.81 339.88 7.5
7/13/2021 6:45:00 PM 22.73 72.914 0.08 6.8 340.02 7.37
7/13/2021 7:00:00 PM 22.69 72.842 0.08 6.8 334 7.26
7/13/2021 7:15:00 PM 22.65 72.77 0.08 6.79 325.85 7.18
7/13/2021 7:30:00 PM 22.61 72.698 0.08 6.76 318.76 7.12
7/13/2021 7:45:00 PM 22.56 72.608 0.079 6.77 324.93 7.1
7/13/2021 8:00:00 PM 22.5 72.5 0.079 6.76 326.45 7.11
7/13/2021 8:15:00 PM 22.43 72.374 0.079 6.76 323.49 7.08
7/13/2021 8:30:00 PM 22.36 72.248 0.079 6.75 318.21 7.01
7/13/2021 8:45:00 PM 22.29 72.122 0.078 6.73 311.11 6.95
7/13/2021 9:00:00 PM 22.22 71.996 0.078 6.72 333.18 6.89
7/13/2021 9:15:00 PM 22.14 71.852 0.078 6.72 309.5 6.83
7/13/2021 9:30:00 PM 22.07 71.726 0.078 6.71 309.15 6.76
7/13/2021 9:45:00 PM 22 71.6 0.078 6.7 309.82 6.7
7/13/2021 10:00:00 PM 21.94 71.492 0.078 6.69 304.41 6.65
7/13/2021 10:15:00 PM 21.89 71.402 0.078 6.7 318.64 6.61
7/13/2021 10:30:00 PM 21.85 71.33 0.078 6.68 316.53 6.57
7/13/2021 10:45:00 PM 21.8 71.24 0.078 6.7 364.47 6.54
7/13/2021 11:00:00 PM 21.77 71.186 0.078 6.69 406.39 6.51
7/13/2021 11:15:00 PM 21.73 71.114 0.078 6.69 416.2 6.49
7/13/2021 11:30:00 PM 21.7 71.06 0.078 6.69 415.93 6.47
7/13/2021 11:45:00 PM 21.65 70.97 0.077 6.7 415.53 6.5
7/14/2021 12:00:00 AM 21.58 70.844 0.077 6.7 443.16 6.57
7/14/2021 12:15:00 AM 21.53 70.754 0.077 6.7 431.02 6.59
7/14/2021 12:30:00 AM 21.49 70.682 0.076 6.7 449.62 6.59
7/14/2021 12:45:00 AM 21.45 70.61 0.076 6.7 447.32 6.6
7/14/2021 1:00:00 AM 21.41 70.538 0.076 6.7 439.1 6.58
7/14/2021 1:15:00 AM 21.38 70.484 0.076 6.7 427.17 6.55
7/14/2021 1:30:00 AM 21.35 70.43 0.074 6.69 417.35 6.53
7/14/2021 1:45:00 AM 21.31 70.358 0.076 6.69 365.49 6.49
7/14/2021 2:00:00 AM 21.26 70.268 0.076 6.69 363.45 6.47
7/14/2021 2:15:00 AM 21.22 70.196 0.076 6.68 357.83 6.44
7/14/2021 2:30:00 AM 21.19 70.142 0.076 6.67 374.59 6.4
7/14/2021 2:45:00 AM 21.16 70.088 0.075 6.67 366.02 6.37
7/14/2021 3:00:00 AM 21.13 70.034 0.075 6.66 356.64 6.34
7/14/2021 3:15:00 AM 21.08 69.944 0.075 6.64 378.68 6.32
7/14/2021 3:30:00 AM 21.04 69.872 0.075 6.64 369.27 6.3
7/14/2021 3:45:00 AM 21 69.8 0.075 6.64 359.49 6.26
7/14/2021 4:00:00 AM 20.97 69.746 0.075 6.63 363.78 6.25
7/14/2021 4:15:00 AM 20.95 69.71 0.075 6.64 355.17 6.22
7/14/2021 4:30:00 AM 20.93 69.674 0.075 6.62 343.36 6.2
7/14/2021 4:45:00 AM 20.9 69.62 0.075 6.63 353.81 6.17
7/14/2021 5:00:00 AM 20.89 69.602 0.075 6.61 354.08 6.15
7/14/2021 5:15:00 AM 20.88 69.584 0.076 6.61 371.38 6.13
7/14/2021 5:30:00 AM 20.87 69.566 0.076 6.63 347.45 6.12
7/14/2021 5:45:00 AM 20.88 69.584 0.076 6.61 337.27 6.06
7/14/2021 6:00:00 AM 20.86 69.548 0.076 6.63 339.31 6.07
7/14/2021 6:15:00 AM 20.87 69.566 0.077 6.6 340.15 6.02
7/14/2021 6:30:00 AM 20.87 69.566 0.077 6.61 322.13 6.01
7/14/2021 6:45:00 AM 20.86 69.548 0.077 6.62 345.04 6
7/14/2021 7:00:00 AM 20.86 69.548 0.077 6.6 357.43 5.98
7/14/2021 7:15:00 AM 20.87 69.566 0.078 6.6 338.47 5.97
7/14/2021 7:30:00 AM 20.87 69.566 0.078 6.62 341.79 5.99
7/14/2021 7:45:00 AM 20.86 69.548 0.078 6.63 345.23 6.05
7/14/2021 8:00:00 AM 20.88 69.584 0.078 6.62 347.62 6.07
7/14/2021 8:15:00 AM 20.9 69.62 0.078 6.62 335.44 6.13
7/14/2021 8:30:00 AM 20.93 69.674 0.078 6.63 310.03 6.12
7/14/2021 8:45:00 AM 20.98 69.764 0.078 6.63 309.23 6.31
7/14/2021 9:00:00 AM 21.04 69.872 0.078 6.63 306.96 6.33
7/14/2021 9:15:00 AM 21.09 69.962 0.078 6.64 303.8 6.45
7/14/2021 9:30:00 AM 21.15 70.07 0.077 6.64 281.03 6.46
7/14/2021 9:45:00 AM 21.18 70.124 0.077 6.66 269.92 6.57
7/14/2021 10:00:00 AM 21.23 70.214 0.076 6.65 245.44 6.57
7/14/2021 10:15:00 AM 21.26 70.268 0.078 6.65 236.12 6.68
7/14/2021 10:30:00 AM 21.31 70.358 0.078 6.66 238.15 6.67
7/14/2021 10:45:00 AM 21.33 70.394 0.078 6.66 239.65 6.72
7/14/2021 11:00:00 AM 21.39 70.502 0.078 6.67 225.01 6.77
7/14/2021 11:15:00 AM 21.49 70.682 0.078 6.67 221.58 6.88
7/14/2021 11:30:00 AM 21.6 70.88 0.078 6.68 213.82 6.97
7/14/2021 11:45:00 AM 21.74 71.132 0.078 6.69 205.99 7.07
7/14/2021 12:00:00 PM 21.9 71.42 0.078 6.71 190.83 7.14
7/14/2021 12:15:00 PM 22.04 71.672 0.078 6.71 187.86 7.27
7/14/2021 12:30:00 PM 22.2 71.96 0.078 6.72 189.87 7.4
7/14/2021 12:45:00 PM 22.35 72.23 0.078 6.74 192.64 7.53
7/14/2021 1:00:00 PM 22.53 72.554 0.078 6.76 203.62 7.65
7/14/2021 1:15:00 PM 22.68 72.824 0.078 6.76 205.95 7.73
7/14/2021 1:30:00 PM 22.77 72.986 0.078 6.77 188.91 7.8
7/14/2021 1:45:00 PM 22.89 73.202 0.078 6.8 215.08 7.86
7/14/2021 2:00:00 PM 23.03 73.454 0.078 6.8 206.46 7.93
7/14/2021 2:15:00 PM 23.15 73.67 0.078 6.81 233.34 8.03
7/14/2021 2:30:00 PM 23.29 73.922 0.078 6.83 279.45 8.11
7/14/2021 2:45:00 PM 23.47 74.246 0.078 6.85 235.28 8.15
7/14/2021 3:00:00 PM 23.59 74.462 0.078 6.85 223.99 8.19
7/14/2021 3:15:00 PM 23.72 74.696 0.078 6.88 229.54 8.32
7/14/2021 3:30:00 PM 23.81 74.858 0.077 6.89 228.96 8.37
7/14/2021 3:45:00 PM 23.88 74.984 0.077 6.9 228 8.35
7/14/2021 4:00:00 PM 23.92 75.056 0.077 6.91 220.05 8.39
7/14/2021 4:15:00 PM 23.98 75.164 0.077 6.92 315.36 8.36
7/14/2021 4:30:00 PM 24 75.2 0.077 6.88 328.94 8.29
7/14/2021 4:45:00 PM 24.03 75.254 0.077 6.9 300.56 8.29
7/14/2021 5:00:00 PM 24.05 75.29 0.077 6.9 343.53 8.25
7/14/2021 5:15:00 PM 24.03 75.254 0.077 6.89 341.27 8.2
7/14/2021 5:30:00 PM 23.99 75.182 0.077 6.88 339.99 8.18
7/14/2021 5:45:00 PM 23.95 75.11 0.077 6.88 329.51 8.13
7/14/2021 6:00:00 PM 23.9 75.02 0.077 6.88 375.56 8.06
7/14/2021 6:15:00 PM 23.88 74.984 0.076 6.87 348.2 7.98
7/14/2021 6:30:00 PM 23.81 74.858 0.076 6.85 342.46 7.82
7/14/2021 6:45:00 PM 23.76 74.768 0.076 6.83 319.47 7.71
7/14/2021 7:00:00 PM 23.69 74.642 0.076 6.82 318.6 7.61
7/14/2021 7:15:00 PM 23.62 74.516 0.076 6.81 303.26 7.49
7/14/2021 7:30:00 PM 23.56 74.408 0.076 6.79 307.07 7.44
7/14/2021 7:45:00 PM 23.49 74.282 0.076 6.76 284.78 7.38
7/14/2021 8:00:00 PM 23.41 74.138 0.076 6.75 267.46 7.32
7/14/2021 8:15:00 PM 23.33 73.994 0.076 6.75 207.79 7.24
7/14/2021 8:30:00 PM 23.25 73.85 0.076 6.76 216.84 7.17
7/14/2021 8:45:00 PM 23.16 73.688 0.076 6.73 218.56 7.1
7/14/2021 9:00:00 PM 23.07 73.526 0.076 6.75 243.11 7
7/14/2021 9:15:00 PM 22.98 73.364 0.076 6.71 249.49 6.91
7/14/2021 9:30:00 PM 22.88 73.184 0.076 6.72 249.64 6.75
7/14/2021 9:45:00 PM 22.78 73.004 0.075 6.7 215.44 6.66
7/14/2021 10:00:00 PM 22.67 72.806 0.075 6.67 209.54 6.47
7/14/2021 10:15:00 PM 22.56 72.608 0.076 6.66 223.59 6.43
7/14/2021 10:30:00 PM 22.45 72.41 0.076 6.65 189.59 6.31
7/14/2021 10:45:00 PM 22.35 72.23 0.076 6.64 206.62 6.2
7/14/2021 11:00:00 PM 22.26 72.068 0.076 6.63 193.44 6.13
7/14/2021 11:15:00 PM 22.16 71.888 0.076 6.62 187.88 5.99
7/14/2021 11:30:00 PM 22.06 71.708 0.076 6.63 178.76 6
7/14/2021 11:45:00 PM 21.97 71.546 0.075 6.62 175.92 5.91
7/15/2021 12:00:00 AM 21.89 71.402 0.075 6.6 168.91 5.88
7/15/2021 12:15:00 AM 21.8 71.24 0.075 6.62 178.57 5.84
7/15/2021 12:30:00 AM 21.73 71.114 0.075 6.6 168.9 5.82
7/15/2021 12:45:00 AM 21.66 70.988 0.075 6.61 185.66 5.79
7/15/2021 1:00:00 AM 21.6 70.88 0.076 6.6 189.09 5.77
7/15/2021 1:15:00 AM 21.55 70.79 0.076 6.6 177.92 5.76
7/15/2021 1:30:00 AM 21.51 70.718 0.076 6.59 172.45 5.74
7/15/2021 1:45:00 AM 21.46 70.628 0.074 6.6 157.4 5.7
7/15/2021 2:00:00 AM 21.45 70.61 0.076 6.6 164.6 5.68
7/15/2021 2:15:00 AM 21.42 70.556 0.076 6.59 183.09 5.67
7/15/2021 2:30:00 AM 21.4 70.52 0.076 6.61 167.74 5.65
7/15/2021 2:45:00 AM 21.38 70.484 0.076 6.6 147.12 5.64
7/15/2021 3:00:00 AM 21.37 70.466 0.076 6.6 135.27 5.63
7/15/2021 3:15:00 AM 21.36 70.448 0.076 6.6 126.25 5.61
7/15/2021 3:30:00 AM 21.35 70.43 0.076 6.6 121.97 5.55
7/15/2021 3:45:00 AM 21.35 70.43 0.077 6.6 116.86 5.56
7/15/2021 4:00:00 AM 21.36 70.448 0.077 6.61 115.62 5.57
7/15/2021 4:15:00 AM 21.37 70.466 0.077 6.6 108.13 5.56
7/15/2021 4:30:00 AM 21.37 70.466 0.077 6.59 109.2 5.57
7/15/2021 4:45:00 AM 21.36 70.448 0.077 6.59 118.79 5.57
7/15/2021 5:00:00 AM 21.36 70.448 0.077 6.6 123.58 5.56
7/15/2021 5:15:00 AM 21.34 70.412 0.077 6.61 129.18 5.56
7/15/2021 5:30:00 AM 21.33 70.394 0.077 6.6 137.55 5.58
7/15/2021 5:45:00 AM 21.31 70.358 0.077 6.61 135.24 5.52
7/15/2021 6:00:00 AM 21.29 70.32201 0.077 6.61 134.86 5.56
7/15/2021 6:15:00 AM 21.27 70.286 0.077 6.61 137.18 5.54
7/15/2021 6:30:00 AM 21.25 70.25 0.077 6.6 136.26 5.57
7/15/2021 6:45:00 AM 21.24 70.232 0.077 6.62 146.19 5.54
7/15/2021 7:00:00 AM 21.23 70.214 0.077 6.61 140.45 5.55
7/15/2021 7:15:00 AM 21.22 70.196 0.077 6.63 142.51 5.54
7/15/2021 7:30:00 AM 21.21 70.17799 0.077 6.6 141.93 5.48
7/15/2021 7:45:00 AM 21.21 70.17799 0.077 6.6 140.63 5.52
7/15/2021 8:00:00 AM 21.22 70.196 0.077 6.59 142.39 5.6
7/15/2021 8:15:00 AM 21.23 70.214 0.077 6.6 136.3 5.65
7/15/2021 8:30:00 AM 21.27 70.286 0.077 6.6 132.35 5.76
7/15/2021 8:45:00 AM 21.33 70.394 0.077 6.62 126.79 5.97
7/15/2021 9:00:00 AM 21.41 70.538 0.077 6.64 140.48 6.16
7/15/2021 9:15:00 AM 21.52 70.736 0.077 6.66 158.85 6.37
7/15/2021 9:30:00 AM 21.66 70.988 0.078 6.68 152.29 6.55
7/15/2021 9:45:00 AM 21.82 71.276 0.078 6.71 137.35 6.76
7/15/2021 10:00:00 AM 22.02 71.636 0.078 6.73 144.96 7.04
7/15/2021 10:15:00 AM 22.2 71.96 0.078 6.75 137.39 7.31
7/15/2021 10:30:00 AM 22.37 72.266 0.077 6.77 131.58 7.52
7/15/2021 10:45:00 AM 22.53 72.554 0.077 6.8 145.68 7.74
7/15/2021 11:00:00 AM 22.68 72.824 0.077 6.83 150.42 7.94
7/15/2021 11:15:00 AM 22.82 73.076 0.077 6.84 143.04 8.07
7/15/2021 11:30:00 AM 22.98 73.364 0.077 6.87 157.41 8.21
7/15/2021 11:45:00 AM 23.16 73.688 0.077 6.89 210.75 8.3
7/15/2021 12:00:00 PM 23.36 74.048 0.077 6.9 229.14 8.39
7/15/2021 12:15:00 PM 23.48 74.264 0.077 6.92 206.24 8.42
7/15/2021 12:30:00 PM 23.56 74.408 0.077 6.9 179.3 8.37
7/15/2021 12:45:00 PM 23.67 74.606 0.077 6.89 164.21 8.39
7/15/2021 1:00:00 PM 23.73 74.714 0.077 6.91 132.86 8.44
7/15/2021 1:15:00 PM 23.83 74.894 0.077 6.92 128.95 8.46
7/15/2021 1:30:00 PM 23.93 75.074 0.076 6.95 119.19 8.5
7/15/2021 1:45:00 PM 23.99 75.182 0.076 6.94 119.61 8.52
7/15/2021 2:00:00 PM 24.02 75.236 0.076 6.96 118.84 8.43
7/15/2021 2:15:00 PM 24.07 75.326 0.076 6.92 121.87 8.32
7/15/2021 2:30:00 PM 24.11 75.398 0.076 6.94 121.22 8.48
7/15/2021 2:45:00 PM 24.18 75.524 0.076 6.95 120.87 8.42
7/15/2021 3:00:00 PM 24.21 75.578 0.075 6.93 130.33 8.46
7/15/2021 3:15:00 PM 24.25 75.65 0.075 6.93 139.5 8.32
7/15/2021 3:30:00 PM 24.21 75.578 0.076 6.94 136.2 8.19
7/15/2021 3:45:00 PM 24.24 75.632 0.076 6.91 144.63 8.41
7/15/2021 4:00:00 PM 24.21 75.578 0.075 6.91 135.74 8.35
7/15/2021 4:15:00 PM 24.15 75.47 0.076 6.89 140.9 8.34
7/15/2021 4:30:00 PM 24.08 75.344 0.076 6.9 153 8.35
7/15/2021 4:45:00 PM 24.04 75.272 0.076 6.86 152.15 8.37
7/15/2021 5:00:00 PM 24.01 75.218 0.075 6.84 173.65 8.37
7/15/2021 5:15:00 PM 23.97 75.146 0.075 6.85 187.94 8.35
7/15/2021 5:30:00 PM 23.9 75.02 0.075 6.87 200.43 8.35
7/15/2021 5:45:00 PM 23.83 74.894 0.08 6.9 232.86 8.02
7/15/2021 6:00:00 PM 23.75 74.75 0.08 6.85 242.98 8.25
7/15/2021 6:15:00 PM 23.65 74.57 0.073 6.84 239.86 8.13
7/15/2021 6:30:00 PM 23.55 74.39 0.074 6.84 248.71 8.13
7/15/2021 6:45:00 PM 23.43 74.174 0.076 6.86 252.23 8.13
7/15/2021 7:00:00 PM 23.31 73.958 0.076 6.86 257.02 8.05
7/15/2021 7:15:00 PM 23.19 73.742 0.076 6.82 235.84 7.95
7/15/2021 7:30:00 PM 23.1 73.58 0.075 6.85 253.16 7.81
7/15/2021 7:45:00 PM 22.98 73.364 0.074 6.84 232.38 7.81
7/15/2021 8:00:00 PM 22.9 73.22 0.074 6.83 244.24 7.82
7/15/2021 8:15:00 PM 22.83 73.094 0.075 6.84 242.22 7.59
7/15/2021 8:30:00 PM 22.72 72.896 0.074 6.81 233.69 7.51
7/15/2021 8:45:00 PM 22.61 72.698 0.075 6.79 236.15 7.42
7/15/2021 9:00:00 PM 22.51 72.518 0.075 6.79 237.98 7.49
7/15/2021 9:15:00 PM 22.42 72.356 0.075 6.71 250.14 7.36
7/15/2021 9:30:00 PM 22.35 72.23 0.075 6.67 248.77 7.28
7/15/2021 9:45:00 PM 22.29 72.122 0.075 6.75 238.34 7.22
7/15/2021 10:00:00 PM 22.22 71.996 0.076 6.61 228.92 7.15
7/15/2021 10:15:00 PM 22.18 71.924 0.076 6.77 255.28 7.07
7/15/2021 10:30:00 PM 22.14 71.852 0.076 6.65 238.47 7.02
7/15/2021 10:45:00 PM 22.13 71.834 0.076 6.75 238.57 6.95
7/15/2021 11:00:00 PM 22.12 71.816 0.077 6.75 247.32 6.03
7/15/2021 11:15:00 PM 22.11 71.798 0.075 6.74 247.26 6.85
7/15/2021 11:30:00 PM 22.13 71.834 0.077 6.72 250.05 6.89
7/15/2021 11:45:00 PM 22.15 71.87 0.077 6.63 246.94 6.71
7/16/2021 12:00:00 AM 22.18 71.924 0.077 6.71 251.93 6.72
7/16/2021 12:15:00 AM 22.22 71.996 0.078 6.56 253.83 6.82
7/16/2021 12:30:00 AM 22.25 72.05 0.078 6.7 269.33 6.72
7/16/2021 12:45:00 AM 22.29 72.122 0.078 6.68 263.71 6.72
7/16/2021 1:00:00 AM 22.32 72.176 0.077 6.65 284.38 6.6
7/16/2021 1:15:00 AM 22.35 72.23 0.077 6.58 269.63 6.24
7/16/2021 1:30:00 AM 22.37 72.266 0.077 6.68 272.14 6.3
7/16/2021 1:45:00 AM 22.39 72.302 0.078 6.68 272.62 6.02
7/16/2021 2:00:00 AM 22.42 72.356 0.078 6.71 290.78 5.94
7/16/2021 2:15:00 AM 22.45 72.41 0.078 6.53 313.31 6.07
7/16/2021 2:30:00 AM 22.47 72.446 0.078 6.56 309.49 5.9
7/16/2021 2:45:00 AM 22.5 72.5 0.078 6.68 303.76 6.02
7/16/2021 3:00:00 AM 22.53 72.554 0.078 6.54 312.07 5.62
7/16/2021 3:15:00 AM 22.54 72.57201 0.078 6.56 297.36 5.81
7/16/2021 3:30:00 AM 22.56 72.608 0.079 6.55 278.16 5.91
7/16/2021 3:45:00 AM 22.58 72.644 0.079 6.54 284.05 6.11
7/16/2021 4:00:00 AM 22.59 72.662 0.079 6.54 305.08 6.05
7/16/2021 4:15:00 AM 22.59 72.662 0.079 6.58 374.29 5.98
7/16/2021 4:30:00 AM 22.59 72.662 0.079 6.69 363.91 6.04
7/16/2021 4:45:00 AM 22.58 72.644 0.079 6.66 357.29 5.87
7/16/2021 5:00:00 AM 22.57 72.626 0.079 6.69 359.64 5.64
7/16/2021 5:15:00 AM 22.55 72.59 0.079 6.68 493.04 5.7
7/16/2021 5:30:00 AM 22.54 72.57201 0.078 6.73 433.57 5.91
7/16/2021 5:45:00 AM 22.52 72.536 0.079 6.72 442.33 5.86
7/16/2021 6:00:00 AM 22.5 72.5 0.078 6.72 460.82 5.38
7/16/2021 6:15:00 AM 22.48 72.464 0.079 6.67 462.46 5.77
7/16/2021 6:30:00 AM 22.47 72.446 0.079 6.65 477.43 5.61
7/16/2021 6:45:00 AM 22.45 72.41 0.078 6.71 577.71 5.73
7/16/2021 7:00:00 AM 22.43 72.374 0.079 6.7 554.91 5.51
7/16/2021 7:15:00 AM 22.43 72.374 0.079 6.76 501.78 5.54
7/16/2021 7:30:00 AM 22.42 72.356 0.079 6.7 438.81 5.29
7/16/2021 7:45:00 AM 22.43 72.374 0.078 6.74 430.24 5.55
7/16/2021 8:00:00 AM 22.43 72.374 0.078 6.75 406.94 6.14
7/16/2021 8:15:00 AM 22.44 72.392 0.078 6.76 385.04 5.91
7/16/2021 8:30:00 AM 22.48 72.464 0.079 6.72 418.69 6.43
7/16/2021 8:45:00 AM 22.53 72.554 0.078 6.77 396.11 6.51
7/16/2021 9:00:00 AM 22.59 72.662 0.079 6.76 348.4 6.68
7/16/2021 9:15:00 AM 22.67 72.806